2B221 / ZA-ALB 7700 Squawk Report (5th of August, 2022)

Aircraft B734 Reg No. ZA-ALB Age 29 years old
Model 737 Jet engines 2 First flight 10-04-93
Registered 07-12-18 Rollout N/A Delivered 18-04-93
Construction No. 27171 Line No. 2465 Series 46J
ADSHEX 50101E Airline name Albawings Owner Aerotron Ltd
Airfield based Tirana-Rinas~Durres~ZA First tracked N/A

Flight history for ZA-ALB

Route Flight No Date Playback
Venezia Tessera (VCE) - Tirana Rinas (TIA) 2B224 2022-08-11 19:06:00
Tirana Rinas (TIA) - Venezia Tessera (VCE) 2B225 2022-08-11 16:37:00
???? N/A 2022-08-11 15:15:00
Tirana Rinas (TIA) - Rimini (RMI) 2B351 2022-08-11 12:08:00
Firenze (FLR) - Tirana Rinas (TIA) 2B268 2022-08-11 09:16:00
Tirana Rinas (TIA) - Firenze (FLR) 2B267 2022-08-11 06:21:00
Malpensa (MXP) - Tirana Rinas (TIA) 2B330 2022-08-08 09:25:00
Tirana Rinas (TIA) - Malpensa (MXP) 2B331 2022-08-08 06:18:00
Venezia Tessera (VCE) - Tirana Rinas (TIA) 2B224 2022-08-08 04:43:00
Tirana Rinas (TIA) - Venezia Tessera (VCE) 2B225 2022-08-07 16:19:00
Forli (FRL) - Tirana Rinas (TIA) 2B156 2022-08-07 15:01:00
Tirana Rinas (TIA) - Forli (FRL) 2B155 2022-08-07 12:12:00
Venezia Tessera (VCE) - Tirana Rinas (TIA) 2B224 2022-08-06 21:55:00
Tirana Rinas (TIA) - Venezia Tessera (VCE) 2B225 2022-08-06 19:22:00
Bergamo Orio Al Serio (BGY) - Tirana Rinas (TIA) 2B232 2022-08-06 17:57:00
Tirana Rinas (TIA) - Bergamo Orio Al Serio (BGY) 2B233 2022-08-06 15:27:00
Falconara (AOI) - Tirana Rinas (TIA) 2B196 2022-08-06 09:15:00
Tirana Rinas (TIA) - Falconara (AOI) 2B195 2022-08-06 08:16:00
Bari (BRI) - Tirana Rinas (TIA) 2B354 2022-08-05 17:02:00
Tirana Rinas (TIA) - Bari (BRI) 2B353 2022-08-05 15:13:00
Time Lat Lon Altitude Heading Speed Vertical Rate
2022-08-05 07:07:41 GMT 51.887566 0.246677 0 56 4 0
2022-08-05 07:07:15 GMT 51.887230 0.247192 0 56 7 0
2022-08-05 07:07:07 GMT 51.887054 0.247192 0 56 7 0
2022-08-05 07:06:52 GMT 51.886539 0.247025 0 56 7 0
2022-08-05 07:06:40 GMT 51.887054 0.246339 0 56 15 0
2022-08-05 07:06:35 GMT 51.887226 0.246172 0 56 17 0
2022-08-05 07:06:31 GMT 51.887398 0.245819 0 56 16 0
2022-08-05 07:06:12 GMT 51.888256 0.244446 0 56 12 0
2022-08-05 07:06:06 GMT 51.888428 0.243926 0 56 11 0
2022-08-05 07:06:00 GMT 51.888428 0.243587 0 56 11 0
2022-08-05 07:05:46 GMT 51.888779 0.242901 0 56 7 0
2022-08-05 07:05:39 GMT 51.888779 0.242729 0 56 7 0
2022-08-05 07:05:32 GMT 51.888428 0.242386 0 56 15 0
2022-08-05 07:05:23 GMT 51.887913 0.241866 0 56 16 0
2022-08-05 07:05:09 GMT 51.887230 0.241013 0 56 7 0
2022-08-05 07:04:59 GMT 51.887398 0.240846 0 56 2 0
2022-08-05 07:04:52 GMT 51.887398 0.240679 0 56 6 0
2022-08-05 07:04:43 GMT 51.887230 0.240326 0 56 7 0
2022-08-05 07:04:39 GMT 51.887230 0.240154 0 56 12 0
2022-08-05 07:04:29 GMT 51.886879 0.239124 0 56 19 0
2022-08-05 07:04:15 GMT 51.886368 0.237412 0 56 25 0
2022-08-05 07:04:13 GMT 51.886196 0.236893 0 47 29 0
2022-08-05 07:04:05 GMT 51.885345 0.235691 0 39 38 0
2022-08-05 07:04:01 GMT 51.884819 0.235004 0 39 43 0
2022-08-05 07:03:43 GMT 51.880329 0.228653 100 41 126 0
2022-08-05 07:03:41 GMT 51.879639 0.227744 100 41 128 -128
2022-08-05 07:03:35 GMT 51.876556 0.223312 125 41 135 -384
2022-08-05 07:03:34 GMT 51.876068 0.222622 125 42 135 -512
2022-08-05 07:03:33 GMT 51.875519 0.222102 125 42 135 -512
2022-08-05 07:03:32 GMT 51.874329 0.220246 175 41 134 -640
2022-08-05 07:03:30 GMT 51.874329 0.220246 175 41 134 -640
2022-08-05 07:03:29 GMT 51.873825 0.219504 175 41 134 -704
2022-08-05 07:03:27 GMT 51.872787 0.217819 200 41 133 -704
2022-08-05 07:03:25 GMT 51.872086 0.216980 225 41 133 -640
2022-08-05 07:03:24 GMT 51.871063 0.215607 250 41 132 -384
2022-08-05 07:03:22 GMT 51.869522 0.213343 275 41 132 -640
2022-08-05 07:03:20 GMT 51.869522 0.213343 275 41 132 -640
2022-08-05 07:03:19 GMT 51.869202 0.212675 275 41 132 -704
2022-08-05 07:03:17 GMT 51.868179 0.211487 300 41 131 -704
2022-08-05 07:03:16 GMT 51.867828 0.210744 325 40 131 -832
2022-08-05 07:03:14 GMT 51.866776 0.209557 350 40 130 -576
2022-08-05 07:03:13 GMT 51.866272 0.208740 375 40 129 -448
2022-08-05 07:03:12 GMT 51.865757 0.208054 375 41 128 -448
2022-08-05 07:03:10 GMT 51.864872 0.206680 400 41 128 -448
2022-08-05 07:03:08 GMT 51.863846 0.205251 400 42 128 -640
2022-08-05 07:03:05 GMT 51.862473 0.203396 450 41 128 -832
2022-08-05 07:03:01 GMT 51.860962 0.200958 500 41 130 -768
2022-08-05 07:03:00 GMT 51.860596 0.200500 500 41 130 -768
2022-08-05 07:02:59 GMT 51.859222 0.198570 675 42 145 -704
2022-08-05 07:02:56 GMT 51.859222 0.198570 675 42 145 -704
2022-08-05 07:02:55 GMT 51.858719 0.197902 675 42 145 -704
2022-08-05 07:02:54 GMT 51.858215 0.197012 575 41 131 -704
2022-08-05 07:02:52 GMT 51.856842 0.195156 600 40 131 -768
2022-08-05 07:02:50 GMT 51.856293 0.194488 625 40 131 -768
2022-08-05 07:02:49 GMT 51.855797 0.193634 625 40 132 -704
2022-08-05 07:02:46 GMT 51.854416 0.191741 675 41 132 -704
2022-08-05 07:02:44 GMT 51.853226 0.190182 700 40 131 -576
2022-08-05 07:02:41 GMT 51.851837 0.188141 750 41 131 -640
2022-08-05 07:02:38 GMT 51.850628 0.186386 750 41 130 -640
2022-08-05 07:02:36 GMT 51.849976 0.185394 775 41 130 -704
2022-08-05 07:02:35 GMT 51.849464 0.184708 800 41 130 -704
2022-08-05 07:02:33 GMT 51.848602 0.183650 850 40 130 -768
2022-08-05 07:02:30 GMT 51.847229 0.181580 850 40 130 -448
2022-08-05 07:02:27 GMT 51.845509 0.179214 900 41 130 -704
2022-08-05 07:02:24 GMT 51.844116 0.177117 975 41 130 -704
2022-08-05 07:02:19 GMT 51.842064 0.174561 975 41 133 -768
2022-08-05 07:02:16 GMT 51.840527 0.172119 1,025 41 134 -768
2022-08-05 07:02:14 GMT 51.839813 0.171327 1,025 41 134 -704
2022-08-05 07:02:13 GMT 51.839127 0.170065 1,050 41 137 -768
2022-08-05 07:02:12 GMT 51.838478 0.169373 1,075 41 137 -768
2022-08-05 07:02:11 GMT 51.838120 0.168729 1,075 41 137 -768
2022-08-05 07:02:10 GMT 51.836571 0.166626 1,100 42 138 -768
2022-08-05 07:02:08 GMT 51.836571 0.166626 1,125 42 138 -768
2022-08-05 07:02:06 GMT 51.835869 0.165634 1,125 41 139 -768
2022-08-05 07:02:04 GMT 51.834686 0.163756 1,175 42 144 -640
2022-08-05 07:02:01 GMT 51.833122 0.161667 1,200 42 145 -704
2022-08-05 07:01:59 GMT 51.832287 0.160141 1,225 42 145 -768
2022-08-05 07:01:57 GMT 51.831261 0.158615 1,250 43 148 -768
2022-08-05 07:01:56 GMT 51.830563 0.157547 1,275 43 148 -768
2022-08-05 07:01:54 GMT 51.829514 0.156184 1,300 43 149 -768
2022-08-05 07:01:52 GMT 51.828144 0.153961 1,325 43 149 -832
2022-08-05 07:01:50 GMT 51.827637 0.153066 1,350 43 149 -832
2022-08-05 07:01:48 GMT 51.825768 0.150375 1,400 42 150 -768
2022-08-05 07:01:43 GMT 51.824570 0.148612 1,425 42 151 -832
2022-08-05 07:01:42 GMT 51.824020 0.147796 1,450 42 152 -1088
2022-08-05 07:01:39 GMT 51.820953 0.143119 1,500 42 152 -1088
2022-08-05 07:01:37 GMT 51.820953 0.143119 1,550 42 152 -1088
2022-08-05 07:01:34 GMT 51.819580 0.141263 1,625 42 154 -1024
2022-08-05 07:01:31 GMT 51.817841 0.138665 1,725 43 154 -640
2022-08-05 07:01:25 GMT 51.814922 0.134201 1,725 43 154 -640
2022-08-05 07:01:24 GMT 51.814411 0.133514 1,725 42 154 -448
2022-08-05 07:01:23 GMT 51.813061 0.131607 1,725 42 153 -192
2022-08-05 07:01:21 GMT 51.812714 0.130945 1,750 42 152 -128
2022-08-05 07:01:19 GMT 51.811848 0.129776 1,750 42 151 0
2022-08-05 07:01:18 GMT 51.811012 0.128403 1,750 42 151 64
2022-08-05 07:01:16 GMT 51.810150 0.127159 1,750 42 150 64
2022-08-05 07:01:13 GMT 51.808403 0.124741 1,750 42 149 0
2022-08-05 07:01:11 GMT 51.807404 0.123373 1,750 42 149 0
2022-08-05 07:01:09 GMT 51.806717 0.122186 1,750 42 149 0
2022-08-05 07:01:07 GMT 51.805664 0.120627 1,750 41 150 0
2022-08-05 07:01:06 GMT 51.805161 0.119810 1,750 41 150 0
2022-08-05 07:01:05 GMT 51.803936 0.118408 1,750 41 150 0
2022-08-05 07:01:03 GMT 51.803284 0.117361 1,750 40 151 -64
2022-08-05 07:01:01 GMT 51.801888 0.115509 1,750 39 151 -64
2022-08-05 07:00:59 GMT 51.801376 0.114670 1,750 39 151 0
2022-08-05 07:00:58 GMT 51.800537 0.113754 1,750 39 151 0
2022-08-05 07:00:57 GMT 51.800026 0.112915 1,750 36 151 64
2022-08-05 07:00:55 GMT 51.799164 0.111868 1,750 36 151 64
2022-08-05 07:00:53 GMT 51.797932 0.110550 1,725 34 150 0
2022-08-05 07:00:52 GMT 51.797279 0.109634 1,725 34 151 0
2022-08-05 07:00:51 GMT 51.796555 0.109121 1,725 32 152 -64
2022-08-05 07:00:49 GMT 51.794174 0.106597 1,750 33 152 -192
2022-08-05 07:00:46 GMT 51.794174 0.106597 1,750 33 152 -192
2022-08-05 07:00:44 GMT 51.792439 0.104523 1,750 41 155 -128
2022-08-05 07:00:42 GMT 51.791924 0.103683 1,750 43 156 -128
2022-08-05 07:00:41 GMT 51.791245 0.102440 1,750 52 159 -64
2022-08-05 07:00:39 GMT 51.789688 0.099030 1,775 58 162 0
2022-08-05 07:00:37 GMT 51.789688 0.099030 1,775 58 162 0
2022-08-05 07:00:36 GMT 51.789185 0.097467 1,750 66 165 64
2022-08-05 07:00:35 GMT 51.788681 0.095908 1,750 69 166 256
2022-08-05 07:00:34 GMT 51.788528 0.094757 1,750 71 167 320
2022-08-05 07:00:31 GMT 51.787628 0.089598 1,725 79 172 128
2022-08-05 07:00:29 GMT 51.787628 0.089598 1,725 79 172 128
2022-08-05 07:00:27 GMT 51.787491 0.086851 1,725 81 173 128
2022-08-05 07:00:26 GMT 51.787308 0.085441 1,725 81 173 64
2022-08-05 07:00:25 GMT 51.787128 0.082855 1,725 81 173 0
2022-08-05 07:00:23 GMT 51.786942 0.081358 1,725 81 173 0
2022-08-05 07:00:20 GMT 51.786438 0.075642 1,725 81 175 -128
2022-08-05 07:00:18 GMT 51.786255 0.074306 1,725 81 176 -192
2022-08-05 07:00:16 GMT 51.786106 0.072250 1,750 81 176 -384
2022-08-05 07:00:15 GMT 51.786106 0.071030 1,750 81 176 -576
2022-08-05 07:00:12 GMT 51.785595 0.066605 1,800 81 176 -576
2022-08-05 07:00:09 GMT 51.785431 0.063320 1,800 82 175 -896
2022-08-05 07:00:07 GMT 51.785065 0.060722 1,825 82 175 -896
2022-08-05 07:00:05 GMT 51.784897 0.057678 1,850 82 175 -896
2022-08-05 07:00:03 GMT 51.784710 0.055618 1,900 82 175 -896
2022-08-05 07:00:02 GMT 51.784561 0.054560 1,900 83 175 -896
2022-08-05 07:00:01 GMT 51.784569 0.052643 1,925 83 176 -896
2022-08-05 06:59:59 GMT 51.784378 0.050478 2,000 86 177 -960
2022-08-05 06:59:57 GMT 51.784195 0.047731 2,000 93 181 -1088
2022-08-05 06:59:56 GMT 51.784199 0.046158 2,050 93 181 -1088
2022-08-05 06:59:54 GMT 51.784382 0.043411 2,050 95 181 -1088
2022-08-05 06:59:52 GMT 51.784569 0.040970 2,075 97 182 -1024
2022-08-05 06:59:51 GMT 51.784744 0.039640 2,125 101 184 -1024
2022-08-05 06:59:50 GMT 51.784882 0.038229 2,125 104 186 -1088
2022-08-05 06:59:49 GMT 51.785248 0.037042 2,150 107 186 -1088
2022-08-05 06:59:48 GMT 51.785568 0.035186 2,175 110 188 -1152
2022-08-05 06:59:45 GMT 51.786621 0.031252 2,225 117 190 -1152
2022-08-05 06:59:44 GMT 51.787968 0.027237 2,275 119 190 -1088
2022-08-05 06:59:42 GMT 51.789001 0.024868 2,300 123 192 -960
2022-08-05 06:59:40 GMT 51.789001 0.024868 2,325 124 192 -960
2022-08-05 06:59:39 GMT 51.789871 0.022789 2,350 125 192 -1024
2022-08-05 06:59:37 GMT 51.790573 0.021439 2,400 126 193 -1088
2022-08-05 06:59:36 GMT 51.791088 0.020218 2,400 127 194 -1152
2022-08-05 06:59:35 GMT 51.792950 0.016632 2,450 129 194 -1280
2022-08-05 06:59:33 GMT 51.792950 0.016632 2,450 132 195 -1344
2022-08-05 06:59:32 GMT 51.794159 0.014572 2,475 135 195 -1408
2022-08-05 06:59:30 GMT 51.794861 0.013510 2,525 137 196 -1408
2022-08-05 06:59:29 GMT 51.795547 0.012694 2,550 139 195 -1344
2022-08-05 06:59:28 GMT 51.796207 0.011826 2,575 143 196 -1280
2022-08-05 06:59:26 GMT 51.797417 0.010452 2,600 147 196 -1088
2022-08-05 06:59:24 GMT 51.801224 0.006978 2,650 152 198 -576
2022-08-05 06:59:22 GMT 51.801224 0.006978 2,675 155 199 -256
2022-08-05 06:59:20 GMT 51.802261 0.006332 2,675 156 200 -192
2022-08-05 06:59:18 GMT 51.803787 0.005493 2,675 161 202 -192
2022-08-05 06:59:16 GMT 51.807220 0.004083 2,700 169 207 -320
2022-08-05 06:59:14 GMT 51.807220 0.004083 2,700 170 207 -320
2022-08-05 06:59:12 GMT 51.809288 0.003586 2,700 172 208 -384
2022-08-05 06:59:11 GMT 51.810287 0.003563 2,700 177 211 -320
2022-08-05 06:59:10 GMT 51.811523 0.003586 2,725 180 213 -320
2022-08-05 06:59:09 GMT 51.812176 0.003586 2,725 182 213 -256
2022-08-05 06:59:07 GMT 51.814270 0.003738 2,725 185 214 -256
2022-08-05 06:59:06 GMT 51.818043 0.004807 2,750 191 217 -512
2022-08-05 06:59:04 GMT 51.818878 0.005264 2,775 198 220 -896
2022-08-05 06:59:01 GMT 51.820274 0.005951 2,800 200 219 -1024
2022-08-05 06:59:00 GMT 51.821301 0.006485 2,800 201 219 -1088
2022-08-05 06:58:58 GMT 51.823349 0.007858 2,850 207 220 -1152
2022-08-05 06:58:57 GMT 51.824020 0.008537 2,875 208 220 -1152
2022-08-05 06:58:56 GMT 51.824890 0.009279 2,900 210 221 -1088
2022-08-05 06:58:55 GMT 51.825760 0.010096 2,900 212 221 -1088
2022-08-05 06:58:53 GMT 51.827316 0.011803 2,950 218 221 -960
2022-08-05 06:58:52 GMT 51.828327 0.013046 2,950 218 221 -960
2022-08-05 06:58:51 GMT 51.829166 0.014038 2,975 220 221 -896
2022-08-05 06:58:49 GMT 51.831074 0.016632 3,025 224 222 -896
2022-08-05 06:58:48 GMT 51.831776 0.017853 3,025 225 222 -832
2022-08-05 06:58:46 GMT 51.832985 0.020065 3,050 229 223 -768
2022-08-05 06:58:45 GMT 51.833637 0.021286 3,050 230 223 -704
2022-08-05 06:58:44 GMT 51.834335 0.022430 3,075 231 224 -640
2022-08-05 06:58:43 GMT 51.835876 0.025758 3,100 231 225 -576
2022-08-05 06:58:41 GMT 51.835876 0.025758 3,100 231 225 -576
2022-08-05 06:58:40 GMT 51.837406 0.028458 3,125 231 228 -576
2022-08-05 06:58:38 GMT 51.838104 0.029831 3,125 231 228 -576
2022-08-05 06:58:37 GMT 51.839314 0.032578 3,150 231 230 -576
2022-08-05 06:58:35 GMT 51.840012 0.033798 3,150 231 231 -576
2022-08-05 06:58:34 GMT 51.840683 0.035186 3,175 231 233 -640
2022-08-05 06:58:33 GMT 51.842056 0.037933 3,200 231 234 -768
2022-08-05 06:58:31 GMT 51.842743 0.039269 3,200 231 235 -832
2022-08-05 06:58:30 GMT 51.843456 0.040665 3,250 231 235 -1024
2022-08-05 06:58:29 GMT 51.844803 0.043203 3,250 231 236 -1152
2022-08-05 06:58:27 GMT 51.845490 0.044613 3,275 231 237 -1280
2022-08-05 06:58:26 GMT 51.846176 0.045950 3,300 231 237 -1280
2022-08-05 06:58:24 GMT 51.847733 0.049067 3,350 231 238 -1344
2022-08-05 06:58:19 GMT 51.851349 0.055971 3,475 231 238 -1600
2022-08-05 06:58:18 GMT 51.852863 0.059052 3,525 231 238 -1728
2022-08-05 06:58:16 GMT 51.853561 0.060425 3,600 231 238 -1664
2022-08-05 06:58:15 GMT 51.854233 0.061761 3,600 231 238 -1600
2022-08-05 06:58:14 GMT 51.855606 0.064508 3,650 231 238 -1344
2022-08-05 06:58:12 GMT 51.856308 0.065918 3,675 231 238 -1216
2022-08-05 06:58:10 GMT 51.858028 0.069122 3,725 231 238 -640
2022-08-05 06:58:07 GMT 51.859753 0.072403 3,725 231 238 -448
2022-08-05 06:58:06 GMT 51.860775 0.074615 3,725 231 239 -192
2022-08-05 06:58:04 GMT 51.862839 0.078760 3,725 231 239 0
2022-08-05 06:58:02 GMT 51.864532 0.082026 3,725 231 240 0
2022-08-05 06:58:00 GMT 51.864532 0.082026 3,750 231 240 0
2022-08-05 06:57:59 GMT 51.865768 0.084253 3,750 231 240 0
2022-08-05 06:57:58 GMT 51.866089 0.085144 3,750 231 240 0
2022-08-05 06:57:57 GMT 51.867645 0.088188 3,750 231 240 0
2022-08-05 06:57:54 GMT 51.869019 0.090934 3,750 231 240 0
2022-08-05 06:57:52 GMT 51.871399 0.095388 3,725 231 240 0
2022-08-05 06:57:51 GMT 51.871399 0.095388 3,725 231 240 0
2022-08-05 06:57:50 GMT 51.872089 0.096817 3,725 231 240 0
2022-08-05 06:57:48 GMT 51.873459 0.099545 3,725 231 240 0
2022-08-05 06:57:45 GMT 51.875347 0.103455 3,725 231 240 0
2022-08-05 06:57:43 GMT 51.876389 0.105409 3,725 231 240 0
2022-08-05 06:57:42 GMT 51.877068 0.106735 3,725 231 240 0
2022-08-05 06:57:41 GMT 51.878448 0.109121 3,725 231 240 0
2022-08-05 06:57:39 GMT 51.879303 0.110855 3,725 231 241 0
2022-08-05 06:57:38 GMT 51.880692 0.113649 3,725 231 241 0
2022-08-05 06:57:36 GMT 51.881699 0.115653 3,750 231 241 -640
2022-08-05 06:57:34 GMT 51.883587 0.119247 3,750 231 241 -640
2022-08-05 06:57:32 GMT 51.884659 0.121536 3,750 231 241 -640
2022-08-05 06:57:31 GMT 51.885681 0.123367 3,775 231 241 -768
2022-08-05 06:57:29 GMT 51.886505 0.125081 3,875 231 241 -1088
2022-08-05 06:57:26 GMT 51.889435 0.130574 3,875 231 241 -1088
2022-08-05 06:57:23 GMT 51.891499 0.134735 3,925 231 241 -1024
2022-08-05 06:57:19 GMT 51.893555 0.139008 4,000 230 243 -896
2022-08-05 06:57:15 GMT 51.896481 0.144549 4,050 226 245 -1216
2022-08-05 06:57:13 GMT 51.897831 0.146903 4,075 226 245 -1216
2022-08-05 06:57:11 GMT 51.899551 0.149460 4,250 224 246 -1344
2022-08-05 06:57:08 GMT 51.903187 0.154436 4,250 217 251 -1152
2022-08-05 06:57:05 GMT 51.905228 0.157013 4,250 217 251 -1152
2022-08-05 06:57:03 GMT 51.906769 0.158752 4,300 217 250 -1152
2022-08-05 06:57:01 GMT 51.908676 0.161028 4,350 217 250 -1152
2022-08-05 06:56:58 GMT 51.911427 0.164246 4,375 217 251 -1216
2022-08-05 06:56:57 GMT 51.912449 0.165658 4,425 217 251 -1280
2022-08-05 06:56:55 GMT 51.915009 0.168562 4,475 217 251 -1216
2022-08-05 06:56:52 GMT 51.917431 0.171465 4,500 217 252 -1152
2022-08-05 06:56:49 GMT 51.920151 0.174713 4,550 217 252 -1280
2022-08-05 06:56:46 GMT 51.923107 0.178135 4,625 217 253 -1216
2022-08-05 06:56:45 GMT 51.924637 0.180206 4,675 217 253 -1280
2022-08-05 06:56:42 GMT 51.927204 0.183158 4,725 217 253 -1344
2022-08-05 06:56:40 GMT 51.929443 0.185852 4,825 217 253 -1344
2022-08-05 06:56:37 GMT 51.932007 0.188980 4,900 217 253 -1408
2022-08-05 06:56:34 GMT 51.934608 0.192261 4,900 217 253 -1472
2022-08-05 06:56:32 GMT 51.937492 0.195478 5,000 217 253 -1536
2022-08-05 06:56:31 GMT 51.937492 0.195478 5,000 217 253 -1536
2022-08-05 06:56:29 GMT 51.938705 0.197205 5,025 217 253 -1536
2022-08-05 06:56:28 GMT 51.940239 0.198931 5,075 217 253 -1472
2022-08-05 06:56:27 GMT 51.941265 0.200108 5,100 217 253 -1472
2022-08-05 06:56:26 GMT 51.941776 0.200814 5,100 217 253 -1472
2022-08-05 06:56:25 GMT 51.943863 0.203247 5,175 217 253 -1536
2022-08-05 06:56:22 GMT 51.947826 0.208034 5,275 217 253 -1536
2022-08-05 06:56:20 GMT 51.947826 0.208034 5,275 217 253 -1536
2022-08-05 06:56:19 GMT 51.948666 0.209054 5,300 217 253 -1600
2022-08-05 06:56:18 GMT 51.952950 0.214233 5,450 217 251 -1792
2022-08-05 06:56:15 GMT 51.952950 0.214233 5,450 217 251 -1792
2022-08-05 06:56:12 GMT 51.955696 0.217451 5,550 217 251 -1792
2022-08-05 06:56:09 GMT 51.958786 0.221252 5,725 217 251 -1600
2022-08-05 06:56:06 GMT 51.960526 0.223160 5,725 217 251 -768
2022-08-05 06:56:03 GMT 51.963936 0.227260 5,725 217 251 -512
2022-08-05 06:56:00 GMT 51.966339 0.230179 5,725 217 253 -64
2022-08-05 06:55:59 GMT 51.967209 0.231171 5,725 217 253 0
2022-08-05 06:55:58 GMT 51.969086 0.233459 5,725 217 254 0
2022-08-05 06:55:55 GMT 51.971329 0.236206 5,725 217 254 -64
2022-08-05 06:55:53 GMT 51.973206 0.238419 5,750 217 254 -320
2022-08-05 06:55:52 GMT 51.974258 0.239639 5,750 217 255 -384
2022-08-05 06:55:51 GMT 51.974945 0.240479 5,750 217 255 -576
2022-08-05 06:55:48 GMT 51.977158 0.242876 5,775 217 255 -704
2022-08-05 06:55:47 GMT 51.978043 0.244053 5,800 217 256 -768
2022-08-05 06:55:45 GMT 51.980927 0.247506 5,825 217 256 -1088
2022-08-05 06:55:44 GMT 51.980927 0.247506 5,850 217 256 -1280
2022-08-05 06:55:43 GMT 51.981812 0.248526 5,850 217 256 -1344
2022-08-05 06:55:42 GMT 51.982838 0.249704 5,925 217 256 -1472
2022-08-05 06:55:39 GMT 51.985069 0.252450 5,950 217 256 -1472
2022-08-05 06:55:38 GMT 51.985931 0.253372 5,975 217 256 -1536
2022-08-05 06:55:37 GMT 51.987446 0.255197 6,050 217 256 -1600
2022-08-05 06:55:35 GMT 51.989685 0.257797 6,075 216 255 -1728
2022-08-05 06:55:32 GMT 51.992935 0.261765 6,175 216 255 -1792
2022-08-05 06:55:31 GMT 51.994308 0.263290 6,225 216 254 -1728
2022-08-05 06:55:29 GMT 51.995361 0.264359 6,250 216 255 -1728
2022-08-05 06:55:28 GMT 51.996197 0.265398 6,300 215 254 -1664
2022-08-05 06:55:27 GMT 51.998615 0.268145 6,350 215 254 -1664
2022-08-05 06:55:24 GMT 52.000153 0.269636 6,425 213 254 -1664
2022-08-05 06:55:23 GMT 52.002201 0.271676 6,450 210 254 -1856
2022-08-05 06:55:21 GMT 52.003273 0.272539 6,475 209 254 -1856
2022-08-05 06:55:19 GMT 52.005508 0.274423 6,550 207 254 -1920
2022-08-05 06:55:18 GMT 52.006531 0.275286 6,600 203 255 -1856
2022-08-05 06:55:17 GMT 52.007694 0.275992 6,600 201 255 -1792
2022-08-05 06:55:16 GMT 52.008766 0.276699 6,650 200 256 -1792
2022-08-05 06:55:14 GMT 52.011002 0.277719 6,700 195 255 -1792
2022-08-05 06:55:13 GMT 52.012165 0.278268 6,750 193 256 -1792
2022-08-05 06:55:12 GMT 52.014221 0.278931 6,800 189 256 -1728
2022-08-05 06:55:10 GMT 52.016819 0.279445 6,950 182 257 -1664
2022-08-05 06:55:07 GMT 52.019890 0.279602 6,950 147 261 -1280
2022-08-05 06:55:06 GMT 52.020950 0.279617 6,975 147 261 -1280
2022-08-05 06:55:04 GMT 52.022827 0.279465 7,000 173 257 -1600
2022-08-05 06:55:01 GMT 52.026596 0.278425 7,100 168 258 -1536
2022-08-05 06:55:00 GMT 52.027805 0.278033 7,125 165 259 -1472
2022-08-05 06:54:59 GMT 52.030041 0.277012 7,175 162 259 -1472
2022-08-05 06:54:56 GMT 52.034317 0.274277 7,275 156 259 -1472
2022-08-05 06:54:54 GMT 52.034317 0.274277 7,275 154 259 -1472
2022-08-05 06:54:51 GMT 52.037567 0.271225 7,350 147 261 -1280
2022-08-05 06:54:50 GMT 52.038792 0.270028 7,375 145 261 -1280
2022-08-05 06:54:48 GMT 52.040840 0.267753 7,400 142 262 -1216
2022-08-05 06:54:46 GMT 52.042374 0.265732 7,425 141 261 -1216
2022-08-05 06:54:45 GMT 52.043610 0.263824 7,475 137 262 -1216
2022-08-05 06:54:43 GMT 52.044983 0.261553 7,500 133 263 -1216
2022-08-05 06:54:42 GMT 52.045807 0.260239 7,500 133 263 -1216
2022-08-05 06:54:40 GMT 52.047546 0.256805 7,575 126 265 -1280
2022-08-05 06:54:38 GMT 52.048920 0.253525 7,625 121 266 -1408
2022-08-05 06:54:37 GMT 52.049606 0.251770 7,650 120 265 -1472
2022-08-05 06:54:36 GMT 52.050797 0.248337 7,700 117 265 -1472
2022-08-05 06:54:34 GMT 52.051300 0.246506 7,725 113 265 -1408
2022-08-05 06:54:32 GMT 52.052338 0.242562 7,750 113 265 -1408
2022-08-05 06:54:31 GMT 52.052711 0.240679 7,775 109 265 -1280
2022-08-05 06:54:28 GMT 52.053734 0.234950 7,850 103 266 -1216
2022-08-05 06:54:27 GMT 52.054230 0.231018 7,900 99 266 -1216
2022-08-05 06:54:24 GMT 52.054733 0.222626 7,975 93 266 -1280
2022-08-05 06:54:22 GMT 52.054733 0.222626 7,975 91 266 -1280
2022-08-05 06:54:21 GMT 52.054760 0.220747 8,000 89 266 -1280
2022-08-05 06:54:19 GMT 52.054760 0.217451 8,025 86 266 -1216
2022-08-05 06:54:18 GMT 52.054573 0.215411 8,100 83 266 -1216
2022-08-05 06:54:16 GMT 52.053875 0.208740 8,125 77 266 -1216
2022-08-05 06:54:13 GMT 52.053364 0.204973 8,175 70 266 -1216
2022-08-05 06:54:10 GMT 52.052170 0.199280 8,225 66 266 -1216
2022-08-05 06:54:09 GMT 52.050800 0.194772 8,275 63 266 -1280
2022-08-05 06:54:06 GMT 52.050289 0.193124 8,300 61 266 -1280
2022-08-05 06:54:05 GMT 52.049778 0.191398 8,325 59 266 -1216
2022-08-05 06:54:04 GMT 52.048756 0.188965 8,350 56 266 -1216
2022-08-05 06:54:02 GMT 52.047729 0.186386 8,400 54 266 -1216
2022-08-05 06:54:01 GMT 52.046844 0.184884 8,400 51 266 -1216
2022-08-05 06:54:00 GMT 52.044983 0.181274 8,450 47 266 -1344
2022-08-05 06:53:59 GMT 52.044983 0.181274 8,475 46 266 -1344
2022-08-05 06:53:58 GMT 52.043747 0.179214 8,500 44 265 -1344
2022-08-05 06:53:57 GMT 52.042740 0.177841 8,525 42 266 -1344
2022-08-05 06:53:53 GMT 52.039307 0.173035 8,600 38 265 -1344
2022-08-05 06:53:51 GMT 52.038094 0.171465 8,625 37 266 -1344
2022-08-05 06:53:49 GMT 52.036057 0.169067 8,675 37 266 -1472
2022-08-05 06:53:48 GMT 52.035023 0.167698 8,750 37 266 -1664
2022-08-05 06:53:46 GMT 52.031063 0.162912 8,800 37 265 -1664
2022-08-05 06:53:43 GMT 52.030014 0.161667 8,875 37 265 -1664
2022-08-05 06:53:42 GMT 52.029015 0.160479 8,875 37 264 -1600
2022-08-05 06:53:41 GMT 52.026085 0.156869 8,950 37 265 -1536
2022-08-05 06:53:39 GMT 52.026085 0.156869 8,950 37 265 -1408
2022-08-05 06:53:37 GMT 52.024384 0.154648 9,000 37 265 -1408
2022-08-05 06:53:36 GMT 52.023010 0.152893 9,025 37 265 -1280
2022-08-05 06:53:35 GMT 52.021271 0.150681 9,075 37 265 -1024
2022-08-05 06:53:32 GMT 52.019241 0.148080 9,100 37 266 -768
2022-08-05 06:53:31 GMT 52.017151 0.145569 9,125 37 267 -640
2022-08-05 06:53:28 GMT 52.013744 0.141096 9,150 38 270 -512
2022-08-05 06:53:26 GMT 52.013744 0.141096 9,175 38 270 -512
2022-08-05 06:53:25 GMT 52.012676 0.139840 9,175 38 270 -576
2022-08-05 06:53:23 GMT 52.010441 0.137094 9,250 38 272 -768
2022-08-05 06:53:22 GMT 52.009781 0.136108 9,200 38 272 -832
2022-08-05 06:53:21 GMT 52.008728 0.134888 9,225 38 274 -832
2022-08-05 06:53:20 GMT 52.005295 0.130463 9,250 38 274 -832
2022-08-05 06:53:18 GMT 52.005295 0.130463 9,275 38 275 -832
2022-08-05 06:53:16 GMT 52.003418 0.127869 9,300 38 276 -832
2022-08-05 06:53:14 GMT 52.001362 0.125323 9,325 38 278 -768
2022-08-05 06:53:13 GMT 51.999313 0.122733 9,350 38 278 -768
2022-08-05 06:53:10 GMT 51.997269 0.119829 9,400 38 280 -512
2022-08-05 06:53:07 GMT 51.994171 0.115814 9,400 38 282 -448
2022-08-05 06:53:06 GMT 51.992939 0.114336 9,400 38 284 -448
2022-08-05 06:53:05 GMT 51.990372 0.111008 9,425 38 284 -448
2022-08-05 06:53:03 GMT 51.990372 0.111008 9,425 38 284 -512
2022-08-05 06:53:00 GMT 51.986931 0.106567 9,450 38 287 -512
2022-08-05 06:52:58 GMT 51.984879 0.103836 9,475 38 288 -512
2022-08-05 06:52:57 GMT 51.983860 0.102487 9,475 38 289 -576
2022-08-05 06:52:56 GMT 51.982838 0.101074 9,500 38 290 -704
2022-08-05 06:52:54 GMT 51.980927 0.098642 9,525 38 291 -896
2022-08-05 06:52:53 GMT 51.979889 0.097275 9,525 38 291 -1024
2022-08-05 06:52:52 GMT 51.978691 0.095895 9,550 38 292 -1152
2022-08-05 06:52:50 GMT 51.976318 0.092678 9,600 38 292 -1408
2022-08-05 06:52:48 GMT 51.974579 0.090408 9,650 38 292 -1600
2022-08-05 06:52:46 GMT 51.972176 0.087498 9,700 38 293 -1792
2022-08-05 06:52:45 GMT 51.971149 0.086164 9,775 38 291 -2112
2022-08-05 06:52:43 GMT 51.969429 0.083888 9,875 38 291 -2112
2022-08-05 06:52:41 GMT 51.966869 0.080671 9,875 38 291 -2112
2022-08-05 06:52:39 GMT 51.964447 0.077532 10,075 38 291 -2176
2022-08-05 06:52:36 GMT 51.960526 0.072784 10,125 38 288 -2240
2022-08-05 06:52:33 GMT 51.958256 0.069842 10,200 37 287 -2304
2022-08-05 06:52:28 GMT 51.954159 0.064505 10,375 37 280 -2688
2022-08-05 06:52:26 GMT 51.952251 0.062151 10,450 37 280 -2688
2022-08-05 06:52:25 GMT 51.951412 0.061053 10,475 37 280 -2688
2022-08-05 06:52:24 GMT 51.950390 0.059875 10,575 37 280 -2688
2022-08-05 06:52:22 GMT 51.947479 0.056305 10,650 37 277 -2176
2022-08-05 06:52:20 GMT 51.944199 0.052185 10,825 37 277 -2176
2022-08-05 06:52:17 GMT 51.943359 0.050773 10,825 37 277 -2176
2022-08-05 06:52:16 GMT 51.941124 0.048026 10,900 37 276 -1856
2022-08-05 06:52:14 GMT 51.939404 0.045986 10,950 37 276 -1536
2022-08-05 06:52:12 GMT 51.937317 0.043411 11,000 37 276 -1344
2022-08-05 06:52:11 GMT 51.936813 0.042725 11,050 35 276 -896
2022-08-05 06:52:09 GMT 51.933746 0.039139 11,050 35 276 -896
2022-08-05 06:52:08 GMT 51.932693 0.037918 11,100 33 276 -896
2022-08-05 06:52:06 GMT 51.931351 0.036569 11,100 31 276 -832
2022-08-05 06:52:05 GMT 51.930279 0.035470 11,100 29 275 -832
2022-08-05 06:52:04 GMT 51.929115 0.034450 11,150 28 276 -832
2022-08-05 06:52:02 GMT 51.926010 0.031891 11,175 25 275 -960
2022-08-05 06:52:00 GMT 51.922073 0.029144 11,250 23 275 -960
2022-08-05 06:51:58 GMT 51.919144 0.027084 11,250 23 275 -960
2022-08-05 06:51:56 GMT 51.919144 0.027084 11,250 23 276 -960
2022-08-05 06:51:55 GMT 51.917953 0.026398 11,275 23 277 -960
2022-08-05 06:51:53 GMT 51.913284 0.022964 11,325 23 278 -960
2022-08-05 06:51:51 GMT 51.913284 0.022964 11,325 23 278 -896
2022-08-05 06:51:50 GMT 51.912094 0.022278 11,350 23 279 -896
2022-08-05 06:51:48 GMT 51.909702 0.020560 11,375 23 280 -896
2022-08-05 06:51:47 GMT 51.908493 0.019697 11,400 23 281 -960
2022-08-05 06:51:45 GMT 51.905914 0.017853 11,425 23 282 -960
2022-08-05 06:51:43 GMT 51.904022 0.016636 11,475 23 283 -960
2022-08-05 06:51:40 GMT 51.900101 0.013885 11,525 23 284 -960
2022-08-05 06:51:39 GMT 51.898716 0.012870 11,550 23 285 -960
2022-08-05 06:51:36 GMT 51.895798 0.010757 11,600 23 285 -960
2022-08-05 06:51:34 GMT 51.893051 0.008908 11,600 23 287 -960
2022-08-05 06:51:32 GMT 51.890121 0.006829 11,650 23 288 -1024
2022-08-05 06:51:31 GMT 51.887032 0.004578 11,700 23 289 -960
2022-08-05 06:51:28 GMT 51.884983 0.003204 11,725 23 289 -1024
2022-08-05 06:51:27 GMT 51.884125 0.002524 11,725 23 290 -1024
2022-08-05 06:51:26 GMT 51.882561 0.001526 11,750 23 290 -1024
2022-08-05 06:51:24 GMT 51.880840 0.000153 11,775 23 291 -1024
2022-08-05 06:51:23 GMT 51.879677 -0.000687 11,800 23 291 -1024
2022-08-05 06:51:21 GMT 51.876930 -0.002594 11,850 23 292 -960
2022-08-05 06:51:19 GMT 51.874695 -0.004157 11,850 23 293 -960
2022-08-05 06:51:18 GMT 51.872635 -0.005716 11,875 23 293 -960
2022-08-05 06:51:16 GMT 51.868149 -0.008759 11,950 23 295 -1024
2022-08-05 06:51:14 GMT 51.868149 -0.008759 11,950 23 296 -1024
2022-08-05 06:51:12 GMT 51.864395 -0.011506 12,000 23 299 -1088
2022-08-05 06:51:09 GMT 51.861786 -0.013213 12,050 23 299 -1088
2022-08-05 06:51:08 GMT 51.858032 -0.015960 12,075 23 300 -1088
2022-08-05 06:51:06 GMT 51.858032 -0.015960 12,125 23 300 -1088
2022-08-05 06:51:04 GMT 51.855469 -0.017741 12,125 23 301 -1088
2022-08-05 06:51:02 GMT 51.852859 -0.019597 12,150 23 301 -1088
2022-08-05 06:51:01 GMT 51.851326 -0.020599 12,175 23 302 -1088
2022-08-05 06:51:00 GMT 51.850479 -0.021305 12,200 23 302 -1088
2022-08-05 06:50:59 GMT 51.849106 -0.022344 12,225 23 303 -1024
2022-08-05 06:50:58 GMT 51.847916 -0.023235 12,250 23 303 -960
2022-08-05 06:50:56 GMT 51.844807 -0.025406 12,275 23 304 -576
2022-08-05 06:50:54 GMT 51.840363 -0.028505 12,300 23 305 -384
2022-08-05 06:50:52 GMT 51.840363 -0.028505 12,300 23 304 -320
2022-08-05 06:50:50 GMT 51.837753 -0.030212 12,325 23 304 -256
2022-08-05 06:50:48 GMT 51.834148 -0.032806 12,325 23 304 -128
2022-08-05 06:50:47 GMT 51.834148 -0.032806 12,325 23 304 -128
2022-08-05 06:50:46 GMT 51.832809 -0.033850 12,350 23 303 -128
2022-08-05 06:50:44 GMT 51.829540 -0.036087 12,350 23 302 -256
2022-08-05 06:50:42 GMT 51.827492 -0.037460 12,350 23 302 -256
2022-08-05 06:50:41 GMT 51.825577 -0.038823 12,350 23 302 -256
2022-08-05 06:50:39 GMT 51.820602 -0.042419 12,375 23 302 -384
2022-08-05 06:50:37 GMT 51.820602 -0.042419 12,375 23 303 -448
2022-08-05 06:50:35 GMT 51.815620 -0.045853 12,425 23 305 -576
2022-08-05 06:50:33 GMT 51.815620 -0.045853 12,425 23 306 -640
2022-08-05 06:50:31 GMT 51.813400 -0.047583 12,425 23 307 -896
2022-08-05 06:50:29 GMT 51.809967 -0.049958 12,475 23 308 -1152
2022-08-05 06:50:27 GMT 51.808594 -0.050997 12,500 23 308 -1280
2022-08-05 06:50:26 GMT 51.807404 -0.051888 12,550 23 309 -1472
2022-08-05 06:50:25 GMT 51.802414 -0.055451 12,600 23 309 -1600
2022-08-05 06:50:23 GMT 51.802414 -0.055451 12,650 23 309 -1664
2022-08-05 06:50:22 GMT 51.801041 -0.056342 12,675 23 309 -1856
2022-08-05 06:50:21 GMT 51.798115 -0.058365 12,750 23 309 -2176
2022-08-05 06:50:18 GMT 51.795555 -0.060272 12,850 23 308 -2944
2022-08-05 06:50:15 GMT 51.792110 -0.062714 12,975 23 305 -3648
2022-08-05 06:50:14 GMT 51.788315 -0.065250 13,175 23 304 -3648
2022-08-05 06:50:12 GMT 51.788315 -0.065250 13,175 23 302 -3648
2022-08-05 06:50:10 GMT 51.785408 -0.067291 13,300 23 300 -3648
2022-08-05 06:50:07 GMT 51.782684 -0.069184 13,500 23 299 -3648
2022-08-05 06:50:05 GMT 51.780102 -0.070953 13,675 22 290 -3712
2022-08-05 06:50:03 GMT 51.777168 -0.073013 14,025 22 290 -3712
2022-08-05 06:50:01 GMT 51.773758 -0.075420 14,025 22 290 -3712
2022-08-05 06:49:58 GMT 51.770645 -0.077424 14,050 22 288 -3776
2022-08-05 06:49:57 GMT 51.769302 -0.078278 14,150 20 284 -3648
2022-08-05 06:49:55 GMT 51.767029 -0.079651 14,350 20 282 -3648
2022-08-05 06:49:53 GMT 51.764133 -0.081406 14,475 19 279 -3392
2022-08-05 06:49:51 GMT 51.761902 -0.082620 14,475 17 275 -2496
2022-08-05 06:49:50 GMT 51.760689 -0.083313 14,525 17 275 -2496
2022-08-05 06:49:48 GMT 51.758453 -0.084457 14,650 17 275 -2496
2022-08-05 06:49:46 GMT 51.756226 -0.085515 14,700 16 273 -2304
2022-08-05 06:49:44 GMT 51.753662 -0.086703 14,775 15 272 -1920
2022-08-05 06:49:43 GMT 51.752449 -0.087204 14,800 15 272 -1728
2022-08-05 06:49:40 GMT 51.749542 -0.088633 14,850 14 272 -1344
2022-08-05 06:49:39 GMT 51.746109 -0.089969 14,900 13 272 -640
2022-08-05 06:49:37 GMT 51.744579 -0.090485 14,925 13 273 -448
2022-08-05 06:49:36 GMT 51.743698 -0.091019 14,925 12 273 -256
2022-08-05 06:49:34 GMT 51.741119 -0.091899 14,925 12 273 -64
2022-08-05 06:49:33 GMT 51.739925 -0.092239 14,925 10 274 0
2022-08-05 06:49:31 GMT 51.738190 -0.092716 14,925 10 274 0
2022-08-05 06:49:30 GMT 51.736156 -0.093384 14,925 10 275 0
2022-08-05 06:49:29 GMT 51.734940 -0.093755 14,925 9 275 0
2022-08-05 06:49:27 GMT 51.732376 -0.094423 14,925 8 276 0
2022-08-05 06:49:26 GMT 51.731174 -0.094757 14,925 8 277 0
2022-08-05 06:49:25 GMT 51.729778 -0.095139 14,925 8 277 0
2022-08-05 06:49:23 GMT 51.727406 -0.095673 14,925 7 278 0
2022-08-05 06:49:22 GMT 51.726006 -0.095825 14,925 6 279 -64
2022-08-05 06:49:21 GMT 51.725006 -0.096130 14,925 6 279 -64
2022-08-05 06:49:19 GMT 51.722260 -0.096650 14,925 6 280 -64
2022-08-05 06:49:18 GMT 51.720703 -0.096873 14,925 6 281 0
2022-08-05 06:49:17 GMT 51.718277 -0.097392 14,925 6 282 0
2022-08-05 06:49:15 GMT 51.716766 -0.097689 14,925 6 283 0
2022-08-05 06:49:13 GMT 51.714184 -0.098190 14,925 6 283 0
2022-08-05 06:49:12 GMT 51.712784 -0.098357 14,925 6 284 0
2022-08-05 06:49:11 GMT 51.711594 -0.098580 14,925 6 285 0
2022-08-05 06:49:09 GMT 51.709900 -0.098877 14,925 6 286 0
2022-08-05 06:49:08 GMT 51.708160 -0.099248 14,925 6 287 0
2022-08-05 06:49:06 GMT 51.706467 -0.099619 14,925 6 287 0
2022-08-05 06:49:04 GMT 51.702499 -0.100250 14,925 6 290 0
2022-08-05 06:49:02 GMT 51.700451 -0.100632 14,925 6 290 0
2022-08-05 06:49:01 GMT 51.699417 -0.100955 14,925 6 291 -64
2022-08-05 06:49:00 GMT 51.698029 -0.101166 14,925 6 292 -64
2022-08-05 06:48:59 GMT 51.693924 -0.101846 14,925 6 294 -64
2022-08-05 06:48:57 GMT 51.693924 -0.101846 14,925 6 294 -64
2022-08-05 06:48:56 GMT 51.692535 -0.102158 14,925 6 295 -64
2022-08-05 06:48:53 GMT 51.688251 -0.102844 14,925 6 297 0
2022-08-05 06:48:52 GMT 51.686905 -0.103226 14,925 6 297 0
2022-08-05 06:48:50 GMT 51.683784 -0.103683 14,925 6 298 0
2022-08-05 06:48:48 GMT 51.680851 -0.104218 14,925 6 301 64
2022-08-05 06:48:46 GMT 51.678131 -0.104741 14,925 6 301 64
2022-08-05 06:48:44 GMT 51.675568 -0.105261 14,900 6 304 0
2022-08-05 06:48:42 GMT 51.672470 -0.105743 14,900 6 304 0
2022-08-05 06:48:41 GMT 51.671074 -0.106125 14,900 6 309 -64
2022-08-05 06:48:39 GMT 51.668518 -0.106449 14,900 6 309 -64
2022-08-05 06:48:37 GMT 51.665768 -0.106964 14,900 6 309 -64
2022-08-05 06:48:34 GMT 51.658539 -0.108379 14,900 6 315 0
2022-08-05 06:48:32 GMT 51.658539 -0.108379 14,900 6 317 0
2022-08-05 06:48:30 GMT 51.655293 -0.109024 14,900 6 319 0
2022-08-05 06:48:27 GMT 51.650826 -0.109711 14,900 6 323 -64
2022-08-05 06:48:25 GMT 51.647919 -0.110383 14,900 6 326 -192
2022-08-05 06:48:24 GMT 51.646355 -0.110550 14,925 6 327 -256
2022-08-05 06:48:22 GMT 51.640350 -0.111771 14,950 6 332 -896
2022-08-05 06:48:20 GMT 51.640350 -0.111771 14,950 6 332 -896
2022-08-05 06:48:19 GMT 51.638809 -0.111942 14,950 6 332 -896
2022-08-05 06:48:18 GMT 51.637253 -0.112313 15,000 6 334 -1088
2022-08-05 06:48:16 GMT 51.634186 -0.112833 15,025 6 334 -1152
2022-08-05 06:48:15 GMT 51.632629 -0.113129 15,025 6 335 -1152
2022-08-05 06:48:13 GMT 51.629562 -0.113649 15,050 6 336 -1152
2022-08-05 06:48:12 GMT 51.628014 -0.113983 15,100 6 338 -1152
2022-08-05 06:48:09 GMT 51.623360 -0.114899 15,150 6 338 -1152
2022-08-05 06:48:08 GMT 51.621124 -0.115204 15,175 6 340 -1216
2022-08-05 06:48:07 GMT 51.619263 -0.115579 15,200 6 342 -1280
2022-08-05 06:48:05 GMT 51.616142 -0.116043 15,250 6 342 -1280
2022-08-05 06:48:03 GMT 51.613583 -0.116577 15,250 6 343 -1280
2022-08-05 06:48:02 GMT 51.612045 -0.116959 15,300 6 344 -1280
2022-08-05 06:48:01 GMT 51.610474 -0.117064 15,325 6 345 -1280
2022-08-05 06:47:59 GMT 51.608929 -0.117416 15,375 6 346 -1344
2022-08-05 06:47:57 GMT 51.605667 -0.117955 15,400 6 346 -1344
2022-08-05 06:47:56 GMT 51.603806 -0.118484 15,425 6 347 -1408
2022-08-05 06:47:55 GMT 51.601227 -0.118845 15,450 6 348 -1344
2022-08-05 06:47:54 GMT 51.599339 -0.119171 15,475 6 349 -1344
2022-08-05 06:47:53 GMT 51.598114 -0.119513 15,500 6 350 -1280
2022-08-05 06:47:51 GMT 51.591610 -0.120544 15,575 6 351 -1088
2022-08-05 06:47:49 GMT 51.591610 -0.120544 15,575 6 351 -1088
2022-08-05 06:47:47 GMT 51.589050 -0.121078 15,650 6 352 -1088
2022-08-05 06:47:45 GMT 51.585068 -0.121740 15,650 6 352 -1088
2022-08-05 06:47:44 GMT 51.583557 -0.122112 15,675 6 352 -1088
2022-08-05 06:47:42 GMT 51.581322 -0.122452 15,700 6 352 -1152
2022-08-05 06:47:41 GMT 51.579601 -0.122757 15,725 6 352 -1152
2022-08-05 06:47:40 GMT 51.574768 -0.123596 15,775 6 353 -1216
2022-08-05 06:47:38 GMT 51.574768 -0.123596 15,775 6 353 -1280
2022-08-05 06:47:37 GMT 51.573223 -0.123978 15,800 6 353 -1280
2022-08-05 06:47:35 GMT 51.569962 -0.124487 15,875 6 355 -1344
2022-08-05 06:47:33 GMT 51.566051 -0.125198 15,950 6 355 -1344
2022-08-05 06:47:31 GMT 51.562775 -0.125823 15,950 6 357 -1280
2022-08-05 06:47:30 GMT 51.559162 -0.126343 16,000 6 358 -1280
2022-08-05 06:47:27 GMT 51.554169 -0.127234 16,050 6 359 -1152
2022-08-05 06:47:25 GMT 51.552135 -0.127563 16,075 6 359 -1152
2022-08-05 06:47:23 GMT 51.547852 -0.128403 16,125 6 359 -1152
2022-08-05 06:47:21 GMT 51.546268 -0.128784 16,150 6 359 -1152
2022-08-05 06:47:20 GMT 51.544594 -0.128937 16,175 6 359 -1152
2022-08-05 06:47:18 GMT 51.541660 -0.129471 16,225 6 359 -1152
2022-08-05 06:47:17 GMT 51.539940 -0.129776 16,225 6 360 -1152
2022-08-05 06:47:15 GMT 51.536316 -0.130500 16,400 6 360 -1216
2022-08-05 06:47:12 GMT 51.531006 -0.131539 16,350 6 360 -1280
2022-08-05 06:47:09 GMT 51.520527 -0.133438 16,425 6 360 -1216
2022-08-05 06:47:06 GMT 51.520527 -0.133438 16,525 6 361 -1216
2022-08-05 06:47:03 GMT 51.517128 -0.134125 16,525 6 361 -1216
2022-08-05 06:47:01 GMT 51.508190 -0.135651 16,625 6 362 -1216
2022-08-05 06:46:58 GMT 51.508190 -0.135651 16,600 6 362 -1216
2022-08-05 06:46:56 GMT 51.504230 -0.136337 16,675 6 363 -1216
2022-08-05 06:46:53 GMT 51.498734 -0.137329 16,825 6 364 -1216
2022-08-05 06:46:50 GMT 51.495155 -0.138016 16,825 6 365 -1280
2022-08-05 06:46:48 GMT 51.491684 -0.138740 16,825 6 365 -1280
2022-08-05 06:46:46 GMT 51.487427 -0.139389 16,900 6 366 -1344
2022-08-05 06:46:43 GMT 51.481747 -0.140457 16,975 6 367 -1280
2022-08-05 06:46:40 GMT 51.477951 -0.141338 17,025 6 368 -1280
2022-08-05 06:46:38 GMT 51.473511 -0.142006 17,125 6 368 -1280
2022-08-05 06:46:35 GMT 51.470249 -0.142670 17,100 6 369 -1280
2022-08-05 06:46:33 GMT 51.466141 -0.143342 17,250 6 369 -1280
2022-08-05 06:46:30 GMT 51.461311 -0.144424 17,225 6 369 -1280
2022-08-05 06:46:28 GMT 51.457352 -0.145049 17,275 6 370 -1280
2022-08-05 06:46:26 GMT 51.454605 -0.145569 17,350 6 370 -1280
2022-08-05 06:46:24 GMT 51.451172 -0.146311 17,400 6 369 -1216
2022-08-05 06:46:22 GMT 51.447067 -0.146942 17,400 6 369 -1216
2022-08-05 06:46:20 GMT 51.444672 -0.147499 17,475 6 369 -1280
2022-08-05 06:46:18 GMT 51.440735 -0.148315 17,525 6 369 -1216
2022-08-05 06:46:16 GMT 51.437290 -0.148849 17,525 6 369 -1280
2022-08-05 06:46:14 GMT 51.432121 -0.149918 17,625 6 370 -1280
2022-08-05 06:46:11 GMT 51.428009 -0.150765 17,675 6 370 -1344
2022-08-05 06:46:08 GMT 51.424068 -0.151443 17,725 7 370 -1344
2022-08-05 06:46:06 GMT 51.420639 -0.152101 17,750 7 371 -1344
2022-08-05 06:46:03 GMT 51.414806 -0.153351 18,000 7 371 -1344
2022-08-05 06:46:01 GMT 51.407593 -0.154848 18,175 7 371 -1344
2022-08-05 06:45:59 GMT 51.407593 -0.154848 18,050 7 371 -1344
2022-08-05 06:45:56 GMT 51.403122 -0.155716 18,025 7 372 -1344
2022-08-05 06:45:53 GMT 51.392670 -0.157817 18,250 7 372 -1344
2022-08-05 06:45:50 GMT 51.388870 -0.158634 18,175 7 371 -1344
2022-08-05 06:45:47 GMT 51.388870 -0.158634 18,200 7 371 -1280
2022-08-05 06:45:45 GMT 51.383709 -0.159683 18,250 7 369 -1280
2022-08-05 06:45:43 GMT 51.380814 -0.160341 18,425 7 366 -1344
2022-08-05 06:45:40 GMT 51.375328 -0.161591 18,400 7 366 -1344
2022-08-05 06:45:37 GMT 51.371704 -0.162271 18,425 7 365 -1344
2022-08-05 06:45:35 GMT 51.367088 -0.163269 18,450 7 364 -1344
2022-08-05 06:45:33 GMT 51.360062 -0.164642 18,600 7 355 -1216
2022-08-05 06:45:31 GMT 51.355042 -0.165686 18,625 7 351 -1152
2022-08-05 06:45:28 GMT 51.355042 -0.165686 18,650 7 355 -1216
2022-08-05 06:45:25 GMT 51.350235 -0.166725 18,725 7 349 -1152
2022-08-05 06:45:22 GMT 51.346985 -0.167393 18,775 7 346 -1152
2022-08-05 06:45:20 GMT 51.343552 -0.168061 18,800 7 346 -1152
2022-08-05 06:45:17 GMT 51.337189 -0.169472 18,925 7 336 -960
2022-08-05 06:45:14 GMT 51.332932 -0.170288 18,975 7 331 -896
2022-08-05 06:45:11 GMT 51.328125 -0.171204 18,975 5 321 -768
2022-08-05 06:45:08 GMT 51.324169 -0.171890 19,000 5 321 -768
2022-08-05 06:45:05 GMT 51.321579 -0.172367 19,075 0 308 -384
2022-08-05 06:45:03 GMT 51.317467 -0.172729 19,075 1 309 -384
2022-08-05 06:45:01 GMT 51.313881 -0.172577 19,100 357 299 -256
2022-08-05 06:44:58 GMT 51.309410 -0.172043 19,125 354 292 -512
2022-08-05 06:44:55 GMT 51.305779 -0.171204 19,175 350 284 -1024
2022-08-05 06:44:52 GMT 51.302708 -0.170135 19,175 346 277 -1664
2022-08-05 06:44:50 GMT 51.300980 -0.169472 19,225 346 277 -1664
2022-08-05 06:44:48 GMT 51.296860 -0.167393 19,400 339 266 -2752
2022-08-05 06:44:45 GMT 51.294655 -0.166016 19,450 338 265 -2816
2022-08-05 06:44:43 GMT 51.291908 -0.164108 19,525 335 261 -2944
2022-08-05 06:44:41 GMT 51.290497 -0.162791 19,750 330 255 -2560
2022-08-05 06:44:38 GMT 51.284321 -0.156555 19,825 325 250 -1088
2022-08-05 06:44:35 GMT 51.284321 -0.156555 19,850 326 251 -1536
2022-08-05 06:44:33 GMT 51.281433 -0.153512 19,950 325 250 -960
2022-08-05 06:44:30 GMT 51.279694 -0.151285 19,950 325 250 -192
2022-08-05 06:44:27 GMT 51.276764 -0.148019 19,950 325 250 0
2022-08-05 06:44:24 GMT 51.273331 -0.144233 19,950 325 250 0
2022-08-05 06:44:22 GMT 51.271957 -0.142525 19,950 325 250 0
2022-08-05 06:44:17 GMT 51.267189 -0.137024 19,950 325 252 0
2022-08-05 06:44:14 GMT 51.264084 -0.133543 19,950 325 254 0
2022-08-05 06:44:12 GMT 51.263214 -0.132578 19,950 325 253 0
2022-08-05 06:44:10 GMT 51.260624 -0.129623 19,950 325 253 0
2022-08-05 06:44:08 GMT 51.258434 -0.127029 19,950 325 253 0
2022-08-05 06:44:05 GMT 51.255844 -0.124116 19,950 325 253 0
2022-08-05 06:44:03 GMT 51.253780 -0.121918 19,950 325 254 0
2022-08-05 06:44:00 GMT 51.251034 -0.118637 19,950 325 254 0
2022-08-05 06:43:58 GMT 51.249313 -0.116730 19,950 325 254 0
2022-08-05 06:43:55 GMT 51.245869 -0.112839 19,950 325 255 64
2022-08-05 06:43:52 GMT 51.241608 -0.108007 19,950 325 256 64
2022-08-05 06:43:50 GMT 51.241608 -0.108007 19,950 325 256 64
2022-08-05 06:43:48 GMT 51.239861 -0.105972 19,950 325 257 0
2022-08-05 06:43:46 GMT 51.237808 -0.103850 19,950 325 258 0
2022-08-05 06:43:44 GMT 51.235245 -0.100807 19,950 325 258 0
2022-08-05 06:43:42 GMT 51.233532 -0.098877 19,950 325 260 0
2022-08-05 06:43:38 GMT 51.229759 -0.094452 19,950 325 261 0
2022-08-05 06:43:36 GMT 51.227875 -0.092567 19,950 325 262 0
2022-08-05 06:43:34 GMT 51.226318 -0.090637 19,950 325 263 0
2022-08-05 06:43:32 GMT 51.223572 -0.087594 19,925 325 265 0
2022-08-05 06:43:29 GMT 51.220459 -0.084105 19,925 325 265 0
2022-08-05 06:43:26 GMT 51.217896 -0.081210 19,950 325 266 -64
2022-08-05 06:43:24 GMT 51.216339 -0.079354 19,950 325 267 -64
2022-08-05 06:43:22 GMT 51.213455 -0.076088 19,950 325 268 0
2022-08-05 06:43:19 GMT 51.207596 -0.069407 19,950 325 269 0
2022-08-05 06:43:16 GMT 51.207596 -0.069407 19,950 325 270 0
2022-08-05 06:43:14 GMT 51.205032 -0.066438 19,925 325 270 0
2022-08-05 06:43:11 GMT 51.202946 -0.064087 19,925 325 270 0
2022-08-05 06:43:09 GMT 51.199860 -0.060648 19,925 325 272 0
2022-08-05 06:43:06 GMT 51.196102 -0.056152 19,925 325 277 0
2022-08-05 06:43:04 GMT 51.196102 -0.056152 19,925 325 274 0
2022-08-05 06:43:02 GMT 51.193542 -0.053224 19,925 325 275 0
2022-08-05 06:43:00 GMT 51.191818 -0.051193 19,925 325 277 0
2022-08-05 06:42:57 GMT 51.188049 -0.046921 19,925 325 278 0
2022-08-05 06:42:54 GMT 51.185116 -0.043640 19,925 325 280 0
2022-08-05 06:42:51 GMT 51.182045 -0.040207 19,925 325 281 0
2022-08-05 06:42:49 GMT 51.177063 -0.034332 19,925 325 283 0
2022-08-05 06:42:47 GMT 51.177063 -0.034332 19,925 325 283 0
2022-08-05 06:42:44 GMT 51.173943 -0.030899 19,925 325 288 0
2022-08-05 06:42:41 GMT 51.169476 -0.025787 19,925 325 291 64
2022-08-05 06:42:39 GMT 51.169476 -0.025787 19,925 325 290 0
2022-08-05 06:42:36 GMT 51.165703 -0.021667 19,925 325 293 64
2022-08-05 06:42:34 GMT 51.163471 -0.019073 19,925 325 294 0
2022-08-05 06:42:32 GMT 51.160908 -0.016022 19,925 325 295 -128
2022-08-05 06:42:30 GMT 51.159374 -0.014267 19,925 325 297 -192
2022-08-05 06:42:28 GMT 51.157288 -0.011877 19,925 325 298 -128
2022-08-05 06:42:26 GMT 51.155594 -0.009799 19,925 325 298 -64
2022-08-05 06:42:24 GMT 51.153183 -0.007248 19,925 325 302 64
2022-08-05 06:42:22 GMT 51.148727 -0.002078 19,925 325 303 64
2022-08-05 06:42:19 GMT 51.146484 0.000520 19,925 325 306 0
2022-08-05 06:42:16 GMT 51.142365 0.005122 19,925 325 306 0
2022-08-05 06:42:13 GMT 51.140808 0.006978 19,925 325 306 0
2022-08-05 06:42:11 GMT 51.137028 0.011139 19,925 325 308 0
2022-08-05 06:42:09 GMT 51.135178 0.013213 19,925 325 309 0
2022-08-05 06:42:02 GMT 51.126926 0.022812 19,925 325 313 0
2022-08-05 06:41:58 GMT 51.121944 0.028152 19,925 325 316 0
2022-08-05 06:41:56 GMT 51.120392 0.029990 19,900 325 319 0
2022-08-05 06:41:53 GMT 51.116451 0.034332 19,900 325 318 0
2022-08-05 06:41:51 GMT 51.111145 0.040131 19,900 325 320 0
2022-08-05 06:41:49 GMT 51.111145 0.040131 19,900 325 320 0
2022-08-05 06:41:46 GMT 51.104069 0.048218 19,925 325 323 0
2022-08-05 06:41:43 GMT 51.100983 0.051665 19,925 325 324 0
2022-08-05 06:41:40 GMT 51.100983 0.051665 19,925 325 324 0
2022-08-05 06:41:38 GMT 51.097549 0.055600 19,925 325 325 0
2022-08-05 06:41:35 GMT 51.094479 0.058823 19,900 325 327 0
2022-08-05 06:41:33 GMT 51.090866 0.063171 19,900 325 328 0
2022-08-05 06:41:30 GMT 51.086426 0.068130 19,900 325 329 0
2022-08-05 06:41:28 GMT 51.083130 0.071708 19,900 325 329 0
2022-08-05 06:41:26 GMT 51.079376 0.076014 19,900 325 331 0
2022-08-05 06:41:23 GMT 51.079376 0.076014 19,900 325 332 0
2022-08-05 06:41:21 GMT 51.076977 0.078735 19,900 325 333 -64
2022-08-05 06:41:18 GMT 51.073700 0.082546 19,900 325 334 -64
2022-08-05 06:41:15 GMT 51.068363 0.088577 19,900 325 336 0
2022-08-05 06:41:12 GMT 51.065277 0.091973 19,900 325 337 0
2022-08-05 06:41:10 GMT 51.063583 0.094052 19,900 325 339 64
2022-08-05 06:41:07 GMT 51.059471 0.098648 19,900 325 347 0
2022-08-05 06:41:04 GMT 51.053093 0.105896 19,900 325 344 0
2022-08-05 06:41:02 GMT 51.053093 0.105896 19,900 325 344 0
2022-08-05 06:41:00 GMT 51.049835 0.109482 19,875 325 347 0
2022-08-05 06:40:58 GMT 51.048115 0.111542 19,875 325 360 0
2022-08-05 06:40:56 GMT 51.045738 0.114136 19,875 326 353 0
2022-08-05 06:40:54 GMT 51.042114 0.118103 19,875 322 368 -640
2022-08-05 06:40:51 GMT 51.038849 0.121841 19,875 325 358 0
2022-08-05 06:40:49 GMT 51.035961 0.124969 19,875 325 362 -64
2022-08-05 06:40:47 GMT 51.028561 0.133514 19,900 324 365 -320
2022-08-05 06:40:44 GMT 51.025131 0.137849 19,925 321 369 -704
2022-08-05 06:40:42 GMT 51.025131 0.137849 19,925 321 369 -704
2022-08-05 06:40:39 GMT 51.023254 0.140224 19,950 321 369 -960
2022-08-05 06:40:37 GMT 51.018585 0.146608 20,050 318 371 -1664
2022-08-05 06:40:34 GMT 51.014828 0.152054 20,150 318 372 -2048
2022-08-05 06:40:31 GMT 51.011757 0.156555 20,200 318 372 -2432
2022-08-05 06:40:29 GMT 51.009521 0.159970 20,275 318 372 -2560
2022-08-05 06:40:27 GMT 51.006264 0.164795 20,425 317 376 -2496
2022-08-05 06:40:24 GMT 51.003002 0.169601 21,675 317 381 -2432
2022-08-05 06:40:22 GMT 51.000595 0.173035 20,975 317 374 -2560
2022-08-05 06:40:20 GMT 50.996815 0.178528 20,750 317 374 -2560
2022-08-05 06:40:17 GMT 50.993553 0.183792 22,650 317 376 -2496
2022-08-05 06:40:14 GMT 50.989746 0.189143 20,975 317 376 -2496
2022-08-05 06:40:12 GMT 50.987183 0.192780 21,100 317 377 -2496
2022-08-05 06:40:09 GMT 50.984619 0.196492 21,125 317 377 -2496
2022-08-05 06:40:07 GMT 50.978760 0.205251 21,275 317 378 -2496
2022-08-05 06:40:05 GMT 50.975166 0.210571 21,400 317 381 -2432
2022-08-05 06:40:02 GMT 50.975166 0.210571 21,450 317 379 -2496
2022-08-05 06:40:00 GMT 50.972931 0.214005 21,575 317 379 -2432
2022-08-05 06:39:58 GMT 50.969833 0.218687 21,625 317 379 -2432
2022-08-05 06:39:55 GMT 50.965202 0.225525 21,775 317 381 -2432
2022-08-05 06:39:52 GMT 50.961960 0.230342 21,875 317 382 -2496
2022-08-05 06:39:50 GMT 50.960083 0.233088 21,975 317 383 -2496
2022-08-05 06:39:48 GMT 50.958023 0.236206 22,050 317 383 -2496
2022-08-05 06:39:46 GMT 50.953892 0.242386 22,200 318 384 -2560
2022-08-05 06:39:43 GMT 50.946854 0.252686 22,300 317 384 -2624
2022-08-05 06:39:41 GMT 50.946854 0.252686 22,375 317 385 -2624
2022-08-05 06:39:39 GMT 50.942207 0.259552 22,875 317 385 -2752
2022-08-05 06:39:36 GMT 50.942207 0.259552 22,550 317 385 -2752
2022-08-05 06:39:34 GMT 50.937744 0.266047 22,800 317 385 -2944
2022-08-05 06:39:31 GMT 50.934341 0.271225 22,800 318 386 -2944
2022-08-05 06:39:29 GMT 50.932434 0.273767 22,900 318 386 -3008
2022-08-05 06:39:27 GMT 50.930191 0.277182 22,950 318 386 -2944
2022-08-05 06:39:25 GMT 50.926937 0.281830 23,200 318 387 -2624
2022-08-05 06:39:22 GMT 50.920933 0.290756 23,300 318 387 -2176
2022-08-05 06:39:18 GMT 50.918015 0.295072 23,400 318 389 -1664
2022-08-05 06:39:16 GMT 50.914043 0.300751 23,475 318 391 -1216
2022-08-05 06:39:13 GMT 50.907898 0.309844 23,550 318 394 -1024
2022-08-05 06:39:10 GMT 50.907898 0.309844 23,525 318 396 -1152
2022-08-05 06:39:08 GMT 50.905151 0.313630 23,650 318 399 -1856
2022-08-05 06:39:06 GMT 50.900822 0.319977 23,975 318 401 -2240
2022-08-05 06:39:03 GMT 50.894485 0.329219 23,850 318 404 -2688
2022-08-05 06:39:01 GMT 50.894485 0.329219 24,025 318 406 -3072
2022-08-05 06:38:58 GMT 50.891739 0.333153 24,025 318 406 -3072
2022-08-05 06:38:56 GMT 50.887299 0.339537 24,275 318 409 -3840
2022-08-05 06:38:53 GMT 50.883179 0.345698 24,350 318 409 -4032
2022-08-05 06:38:50 GMT 50.879562 0.350820 24,800 318 410 -4288
2022-08-05 06:38:48 GMT 50.875591 0.356522 24,725 318 410 -4288
2022-08-05 06:38:45 GMT 50.873016 0.360099 24,925 318 410 -4288
2022-08-05 06:38:42 GMT 50.868576 0.366632 25,350 318 412 -3904
2022-08-05 06:38:39 GMT 50.864273 0.372644 25,325 318 414 -3840
2022-08-05 06:38:37 GMT 50.861717 0.376282 25,425 318 414 -3840
2022-08-05 06:38:35 GMT 50.858086 0.381546 25,850 318 415 -3840
2022-08-05 06:38:32 GMT 50.854156 0.387268 25,750 318 417 -3712
2022-08-05 06:38:30 GMT 50.850723 0.392242 25,975 318 420 -3840
2022-08-05 06:38:27 GMT 50.846451 0.398407 26,075 318 420 -3840
2022-08-05 06:38:24 GMT 50.842304 0.404053 26,275 318 421 -4352
2022-08-05 06:38:22 GMT 50.840240 0.407014 26,475 318 421 -4352
2022-08-05 06:38:19 GMT 50.832184 0.418520 26,750 318 421 -4672
2022-08-05 06:38:17 GMT 50.828758 0.423431 26,900 318 421 -5824
2022-08-05 06:38:14 GMT 50.824104 0.430145 27,175 318 419 -6400
2022-08-05 06:38:12 GMT 50.824104 0.430145 27,375 318 418 -6656
2022-08-05 06:38:09 GMT 50.817581 0.439453 27,750 318 415 -6592
2022-08-05 06:38:07 GMT 50.817581 0.439453 27,900 318 414 -6592
2022-08-05 06:38:04 GMT 50.812794 0.446320 28,475 318 412 -6080
2022-08-05 06:38:01 GMT 50.809673 0.450745 28,725 319 411 -6016
2022-08-05 06:37:58 GMT 50.805405 0.456749 28,775 319 410 -5376
2022-08-05 06:37:55 GMT 50.800270 0.463943 29,200 319 410 -4224
2022-08-05 06:37:52 GMT 50.796310 0.469437 29,375 319 412 -2880
2022-08-05 06:37:49 GMT 50.793228 0.473897 29,450 319 413 -2496
2022-08-05 06:37:47 GMT 50.789795 0.478722 29,600 318 415 -1984
2022-08-05 06:37:44 GMT 50.785324 0.485229 29,575 318 416 -2240
2022-08-05 06:37:42 GMT 50.781555 0.490599 29,875 318 414 -3392
2022-08-05 06:37:39 GMT 50.777939 0.495869 29,825 318 416 -3264
2022-08-05 06:37:36 GMT 50.774139 0.501214 29,975 318 414 -3392
2022-08-05 06:37:33 GMT 50.770382 0.506363 30,125 318 413 -2752
2022-08-05 06:37:31 GMT 50.767963 0.509949 30,200 318 412 -1792
2022-08-05 06:37:29 GMT 50.764206 0.515318 30,475 318 409 -896
2022-08-05 06:37:27 GMT 50.760235 0.520935 30,400 318 411 -1600
2022-08-05 06:37:24 GMT 50.757999 0.524063 30,450 318 410 -1088
2022-08-05 06:37:22 GMT 50.753578 0.530548 30,475 318 410 -1088
2022-08-05 06:37:19 GMT 50.749603 0.536103 30,575 318 409 -832
2022-08-05 06:37:16 GMT 50.746674 0.540186 30,575 318 409 -832
2022-08-05 06:37:14 GMT 50.743103 0.545308 30,675 318 409 -832
2022-08-05 06:37:12 GMT 50.741196 0.548096 30,650 318 409 -832
2022-08-05 06:37:10 GMT 50.736374 0.554958 30,700 318 409 -832
2022-08-05 06:37:07 GMT 50.732941 0.559783 30,725 318 409 -832
2022-08-05 06:37:05 GMT 50.731567 0.561639 30,750 318 406 -768
2022-08-05 06:37:03 GMT 50.725227 0.570908 30,800 318 407 -768
2022-08-05 06:37:01 GMT 50.725227 0.570908 31,125 318 406 -768
2022-08-05 06:36:58 GMT 50.720245 0.578156 30,850 318 406 -768
2022-08-05 06:36:55 GMT 50.716660 0.583267 30,950 318 406 -768
2022-08-05 06:36:52 GMT 50.709778 0.593262 30,950 318 403 -704
2022-08-05 06:36:50 GMT 50.707024 0.597153 31,000 318 404 -768
2022-08-05 06:36:48 GMT 50.702927 0.603180 31,000 318 404 -704
2022-08-05 06:36:45 GMT 50.702927 0.603180 31,025 318 403 -704
2022-08-05 06:36:42 GMT 50.697601 0.610780 31,100 318 401 -896
2022-08-05 06:36:39 GMT 50.693481 0.616571 31,125 318 402 -960
2022-08-05 06:36:37 GMT 50.689682 0.622064 31,175 318 402 -1152
2022-08-05 06:36:35 GMT 50.689682 0.622064 31,425 318 404 -1216
2022-08-05 06:36:32 GMT 50.684738 0.629264 31,275 318 405 -1536
2022-08-05 06:36:29 GMT 50.679749 0.636316 31,350 318 407 -2112
2022-08-05 06:36:26 GMT 50.675812 0.641958 31,450 318 407 -2560
2022-08-05 06:36:23 GMT 50.672699 0.646263 31,550 318 408 -3136
2022-08-05 06:36:21 GMT 50.669632 0.650723 31,750 318 407 -3392
2022-08-05 06:36:18 GMT 50.665512 0.656722 31,775 318 407 -3392
2022-08-05 06:36:16 GMT 50.661209 0.662577 32,250 318 407 -3008
2022-08-05 06:36:13 GMT 50.657959 0.667419 32,150 318 407 -3072
2022-08-05 06:36:11 GMT 50.656036 0.670166 32,825 318 407 -3008
2022-08-05 06:36:08 GMT 50.651768 0.676179 32,450 318 407 -2368
2022-08-05 06:36:05 GMT 50.647659 0.682164 32,500 318 407 -2944
2022-08-05 06:36:02 GMT 50.642853 0.688886 32,800 318 407 -2112
2022-08-05 06:35:59 GMT 50.639057 0.694514 32,800 318 407 -2048
2022-08-05 06:35:57 GMT 50.633240 0.702764 32,900 318 406 -1472
2022-08-05 06:35:55 GMT 50.633240 0.702764 33,000 318 407 -1216
2022-08-05 06:35:52 GMT 50.629284 0.708767 32,975 318 407 -1152
2022-08-05 06:35:50 GMT 50.626511 0.712377 33,050 318 407 -896
2022-08-05 06:35:47 GMT 50.619507 0.722351 33,100 318 405 -960
2022-08-05 06:35:45 GMT 50.616760 0.726254 33,200 318 405 -960
2022-08-05 06:35:43 GMT 50.616760 0.726254 33,125 318 405 -960
2022-08-05 06:35:40 GMT 50.611778 0.733857 33,275 318 405 -960
2022-08-05 06:35:37 GMT 50.607822 0.738831 33,225 318 405 -960
2022-08-05 06:35:34 GMT 50.600418 0.749600 33,275 318 405 -960
2022-08-05 06:35:32 GMT 50.600418 0.749600 33,325 318 404 -960
2022-08-05 06:35:29 GMT 50.598541 0.752347 33,400 318 404 -1024
2022-08-05 06:35:27 GMT 50.595108 0.756972 33,400 318 404 -1024
2022-08-05 06:35:25 GMT 50.588608 0.766586 33,475 318 405 -1024
2022-08-05 06:35:22 GMT 50.588608 0.766586 33,625 318 404 -1024
2022-08-05 06:35:20 GMT 50.584122 0.772946 33,550 318 404 -1088
2022-08-05 06:35:17 GMT 50.578812 0.780318 33,600 318 405 -1024
2022-08-05 06:35:13 GMT 50.574677 0.786339 33,700 318 405 -1088
2022-08-05 06:35:10 GMT 50.570580 0.792203 33,800 318 405 -1152
2022-08-05 06:35:06 GMT 50.566299 0.798216 33,800 318 405 -1088
2022-08-05 06:35:04 GMT 50.563553 0.802150 33,800 318 406 -1088
2022-08-05 06:35:02 GMT 50.560246 0.806753 33,825 318 406 -1024
2022-08-05 06:35:00 GMT 50.557159 0.811254 33,925 318 406 -832
2022-08-05 06:34:57 GMT 50.552704 0.817591 33,925 319 407 -128
2022-08-05 06:34:55 GMT 50.550655 0.820337 33,925 319 407 -384
2022-08-05 06:34:52 GMT 50.543427 0.830480 33,925 319 407 0
2022-08-05 06:34:50 GMT 50.543427 0.830480 33,925 319 407 0
2022-08-05 06:34:47 GMT 50.539158 0.836446 33,925 319 407 0
2022-08-05 06:34:45 GMT 50.532440 0.845947 33,950 319 407 0
2022-08-05 06:34:42 GMT 50.532440 0.845947 33,950 319 407 0
2022-08-05 06:34:40 GMT 50.525436 0.855705 33,950 319 407 0
2022-08-05 06:34:38 GMT 50.525436 0.855705 33,950 319 407 64
2022-08-05 06:34:35 GMT 50.520081 0.863294 33,925 319 407 64
2022-08-05 06:34:30 GMT 50.514771 0.870667 33,925 319 408 0
2022-08-05 06:34:27 GMT 50.510468 0.876666 33,925 319 407 -64
2022-08-05 06:34:24 GMT 50.507736 0.880911 33,925 319 407 0
2022-08-05 06:34:22 GMT 50.503452 0.886404 33,925 319 407 -64
2022-08-05 06:34:20 GMT 50.501541 0.889170 33,925 319 407 0
2022-08-05 06:34:17 GMT 50.495911 0.897093 33,925 319 407 0
2022-08-05 06:34:14 GMT 50.493164 0.901027 33,925 319 407 0
2022-08-05 06:34:12 GMT 50.489719 0.905630 33,925 319 407 0
2022-08-05 06:34:09 GMT 50.486618 0.909986 33,925 319 407 0
2022-08-05 06:34:07 GMT 50.481812 0.916636 33,925 319 408 0
2022-08-05 06:34:04 GMT 50.479572 0.919882 33,925 319 408 0
2022-08-05 06:34:01 GMT 50.473751 0.928122 33,925 319 408 0
2022-08-05 06:33:58 GMT 50.469452 0.933982 33,925 319 408 0
2022-08-05 06:33:55 GMT 50.465839 0.939108 33,925 319 408 0
2022-08-05 06:33:51 GMT 50.460205 0.946848 33,925 319 408 0
2022-08-05 06:33:48 GMT 50.457600 0.950466 33,925 319 408 0
2022-08-05 06:33:46 GMT 50.453339 0.956316 33,925 319 408 0
2022-08-05 06:33:44 GMT 50.449722 0.961448 33,925 319 408 0
2022-08-05 06:33:41 GMT 50.446983 0.965386 33,925 319 408 0
2022-08-05 06:33:39 GMT 50.443027 0.970880 33,925 319 408 0
2022-08-05 06:33:36 GMT 50.439056 0.976410 33,925 319 408 0
2022-08-05 06:33:33 GMT 50.435120 0.981903 33,925 319 408 0
2022-08-05 06:33:30 GMT 50.431686 0.986673 33,925 319 408 0
2022-08-05 06:33:28 GMT 50.428970 0.990477 33,925 319 408 0
2022-08-05 06:33:26 GMT 50.425186 0.995636 33,925 319 409 0
2022-08-05 06:33:24 GMT 50.422440 0.999539 33,925 319 409 0
2022-08-05 06:33:21 GMT 50.418121 1.005397 33,925 319 409 0
2022-08-05 06:33:19 GMT 50.414200 1.010887 33,925 319 409 0
2022-08-05 06:33:16 GMT 50.411419 1.014825 33,925 319 409 0
2022-08-05 06:33:14 GMT 50.403214 1.026138 33,925 319 409 0
2022-08-05 06:33:11 GMT 50.403214 1.026138 33,925 319 409 0
2022-08-05 06:33:09 GMT 50.401505 1.028558 33,950 319 409 0
2022-08-05 06:33:06 GMT 50.393921 1.039220 33,950 319 409 0
2022-08-05 06:33:04 GMT 50.393921 1.039220 33,950 319 409 0
2022-08-05 06:33:02 GMT 50.391541 1.042328 33,950 319 408 0
2022-08-05 06:32:59 GMT 50.382278 1.055356 33,950 319 408 0
2022-08-05 06:32:56 GMT 50.382278 1.055356 33,950 319 408 0
2022-08-05 06:32:52 GMT 50.377945 1.061193 33,950 319 408 0
2022-08-05 06:32:49 GMT 50.372314 1.068926 33,925 319 408 0
2022-08-05 06:32:46 GMT 50.368195 1.074925 33,925 319 408 0
2022-08-05 06:32:43 GMT 50.360092 1.085912 33,925 319 409 -64
2022-08-05 06:32:40 GMT 50.360092 1.085912 33,950 319 409 -64
2022-08-05 06:32:38 GMT 50.357883 1.088983 33,950 319 409 0
2022-08-05 06:32:36 GMT 50.353741 1.094847 33,950 319 408 0
2022-08-05 06:32:33 GMT 50.349457 1.100637 33,950 319 409 0
2022-08-05 06:32:30 GMT 50.342102 1.110955 33,950 319 409 0
2022-08-05 06:32:28 GMT 50.342102 1.110955 33,950 319 409 0
2022-08-05 06:32:25 GMT 50.337296 1.117497 33,950 319 409 0
2022-08-05 06:32:22 GMT 50.334187 1.121793 33,950 319 409 0
2022-08-05 06:32:19 GMT 50.331253 1.125737 33,950 319 409 0
2022-08-05 06:32:16 GMT 50.325249 1.133967 33,950 319 410 64
2022-08-05 06:32:13 GMT 50.317196 1.145325 33,925 319 410 64
2022-08-05 06:32:10 GMT 50.317196 1.145325 33,925 319 410 64
2022-08-05 06:32:08 GMT 50.314774 1.148360 33,925 319 410 0
2022-08-05 06:32:06 GMT 50.311523 1.153203 33,925 319 410 0
2022-08-05 06:32:03 GMT 50.307770 1.158335 33,925 319 410 0
2022-08-05 06:32:01 GMT 50.305527 1.161443 33,925 319 410 0
2022-08-05 06:31:58 GMT 50.301224 1.167297 33,925 319 410 0
2022-08-05 06:31:55 GMT 50.296783 1.173658 33,925 319 410 0
2022-08-05 06:31:52 GMT 50.292477 1.179471 33,950 319 410 0
2022-08-05 06:31:49 GMT 50.287682 1.186152 33,950 319 410 0
2022-08-05 06:31:47 GMT 50.284752 1.190087 33,950 319 410 0
2022-08-05 06:31:45 GMT 50.280792 1.195431 33,925 319 410 0
2022-08-05 06:31:42 GMT 50.278244 1.199028 33,925 319 410 64
2022-08-05 06:31:40 GMT 50.275497 1.203003 33,925 319 410 0
2022-08-05 06:31:36 GMT 50.270325 1.210014 33,925 319 410 0
2022-08-05 06:31:34 GMT 50.266735 1.215177 33,925 319 410 0
2022-08-05 06:31:32 GMT 50.264648 1.217748 33,925 319 410 -64
2022-08-05 06:31:29 GMT 50.259521 1.224759 33,950 319 409 64
2022-08-05 06:31:26 GMT 50.255219 1.230758 33,950 319 409 0
2022-08-05 06:31:24 GMT 50.252472 1.234589 33,925 319 409 64
2022-08-05 06:31:21 GMT 50.247345 1.241600 33,925 319 410 0
2022-08-05 06:31:17 GMT 50.241131 1.250214 33,925 319 410 0
2022-08-05 06:31:14 GMT 50.238235 1.254104 33,925 319 410 0
2022-08-05 06:31:11 GMT 50.234612 1.259271 33,925 319 410 0
2022-08-05 06:31:09 GMT 50.230499 1.264584 33,925 319 409 0
2022-08-05 06:31:07 GMT 50.227753 1.268560 33,925 319 410 0
2022-08-05 06:31:05 GMT 50.224323 1.273152 33,925 319 410 0
2022-08-05 06:31:02 GMT 50.217484 1.282654 33,925 319 410 0
2022-08-05 06:31:00 GMT 50.217484 1.282654 33,925 319 410 0
2022-08-05 06:30:58 GMT 50.214733 1.286588 33,925 319 410 0
2022-08-05 06:30:54 GMT 50.209030 1.294291 33,925 319 410 0
2022-08-05 06:30:50 GMT 50.202168 1.303736 33,925 319 410 0
2022-08-05 06:30:47 GMT 50.199608 1.307150 33,925 319 410 0
2022-08-05 06:30:44 GMT 50.195297 1.313011 33,925 319 410 -64
2022-08-05 06:30:41 GMT 50.191727 1.318143 33,925 319 410 0
2022-08-05 06:30:38 GMT 50.187084 1.324372 33,925 319 410 -64
2022-08-05 06:30:36 GMT 50.183453 1.329346 33,925 319 410 -64
2022-08-05 06:30:34 GMT 50.180878 1.332960 33,925 319 409 -64
2022-08-05 06:30:31 GMT 50.176609 1.338773 33,925 319 409 0
2022-08-05 06:30:29 GMT 50.174561 1.341344 33,925 319 409 0
2022-08-05 06:30:27 GMT 50.170231 1.347161 33,925 319 410 0
2022-08-05 06:30:24 GMT 50.166832 1.351986 33,925 319 409 0
2022-08-05 06:30:21 GMT 50.159958 1.361221 33,925 319 410 0
2022-08-05 06:30:19 GMT 50.159958 1.361221 33,925 319 410 0
2022-08-05 06:30:17 GMT 50.156845 1.365557 33,925 319 411 64
2022-08-05 06:30:15 GMT 50.153427 1.370173 33,925 319 410 -64
2022-08-05 06:30:13 GMT 50.150681 1.373959 33,925 319 410 -64
2022-08-05 06:30:11 GMT 50.148258 1.377225 33,925 319 410 64
2022-08-05 06:30:08 GMT 50.144348 1.382570 33,950 319 411 64
2022-08-05 06:30:05 GMT 50.140903 1.387172 33,950 319 411 64
2022-08-05 06:30:02 GMT 50.135410 1.394521 33,925 319 411 64
2022-08-05 06:29:59 GMT 50.129379 1.402781 33,925 319 411 64
2022-08-05 06:29:57 GMT 50.129379 1.402781 33,925 319 411 64
2022-08-05 06:29:54 GMT 50.124252 1.409647 33,925 319 411 0
2022-08-05 06:29:51 GMT 50.120316 1.415140 33,950 319 411 0
2022-08-05 06:29:47 GMT 50.112900 1.425115 33,925 319 411 0
2022-08-05 06:29:44 GMT 50.109650 1.429379 33,925 319 411 0
2022-08-05 06:29:41 GMT 50.105713 1.434872 33,950 319 411 0
2022-08-05 06:29:38 GMT 50.101753 1.440397 33,925 319 410 64
2022-08-05 06:29:35 GMT 50.096786 1.446943 33,925 319 410 64
2022-08-05 06:29:33 GMT 50.094536 1.449973 33,925 319 411 0
2022-08-05 06:29:30 GMT 50.090256 1.455837 33,925 319 411 0
2022-08-05 06:29:27 GMT 50.083923 1.464448 33,925 319 411 -64
2022-08-05 06:29:23 GMT 50.079620 1.470289 33,925 319 411 -64
2022-08-05 06:29:20 GMT 50.074448 1.477155 33,925 319 411 -64
2022-08-05 06:29:17 GMT 50.071701 1.481058 33,925 319 411 0
2022-08-05 06:29:13 GMT 50.066208 1.488431 33,925 319 411 0
2022-08-05 06:29:10 GMT 50.061401 1.495008 33,925 319 411 0
2022-08-05 06:29:07 GMT 50.057621 1.500153 33,925 319 411 0
2022-08-05 06:29:04 GMT 50.052502 1.506983 33,925 319 411 0
2022-08-05 06:29:01 GMT 50.048538 1.512499 33,925 319 411 0
2022-08-05 06:28:59 GMT 50.045612 1.516410 33,925 319 411 0
2022-08-05 06:28:56 GMT 50.039604 1.524501 33,925 319 411 0
2022-08-05 06:28:53 GMT 50.036720 1.528436 33,950 319 411 64
2022-08-05 06:28:50 GMT 50.033249 1.533099 33,925 320 411 0
2022-08-05 06:28:47 GMT 50.027252 1.541122 33,925 319 411 0
2022-08-05 06:28:43 GMT 50.022472 1.547810 33,925 320 411 0
2022-08-05 06:28:40 GMT 50.018330 1.553155 33,925 320 411 0
2022-08-05 06:28:37 GMT 50.014389 1.558685 33,925 320 411 0
2022-08-05 06:28:34 GMT 50.010086 1.564468 33,925 320 413 0
2022-08-05 06:28:32 GMT 50.007156 1.568298 33,925 319 412 0
2022-08-05 06:28:30 GMT 50.004272 1.572201 33,925 319 412 0
2022-08-05 06:28:27 GMT 49.999802 1.578394 33,925 319 412 0
2022-08-05 06:28:24 GMT 49.995335 1.584258 33,925 320 413 0
2022-08-05 06:28:20 GMT 49.989670 1.591933 33,925 320 413 0
2022-08-05 06:28:17 GMT 49.985367 1.597788 33,925 320 413 0
2022-08-05 06:28:13 GMT 49.981064 1.603643 33,925 320 413 0
2022-08-05 06:28:09 GMT 49.971130 1.616869 33,925 320 413 0
2022-08-05 06:28:07 GMT 49.971130 1.616869 33,950 320 413 0
2022-08-05 06:28:04 GMT 49.965122 1.624937 33,925 320 413 64
2022-08-05 06:28:01 GMT 49.962189 1.628872 33,925 320 413 64
2022-08-05 06:27:59 GMT 49.952412 1.641936 33,925 320 414 0
2022-08-05 06:27:56 GMT 49.952412 1.641936 33,925 320 414 0
2022-08-05 06:27:53 GMT 49.948967 1.646539 33,925 320 414 0
2022-08-05 06:27:51 GMT 49.947433 1.648617 33,925 320 414 0
2022-08-05 06:27:46 GMT 49.941425 1.656709 33,925 320 414 -64
2022-08-05 06:27:42 GMT 49.935608 1.664429 33,950 320 414 0
2022-08-05 06:27:39 GMT 49.930801 1.670934 33,925 320 414 0
2022-08-05 06:27:36 GMT 49.926682 1.676427 33,925 320 414 0
2022-08-05 06:27:34 GMT 49.923412 1.680537 33,925 320 414 64
2022-08-05 06:27:32 GMT 49.919640 1.685659 33,925 320 414 0
2022-08-05 06:27:30 GMT 49.917755 1.688425 33,925 320 414 64
2022-08-05 06:27:27 GMT 49.912937 1.694641 33,925 320 414 0
2022-08-05 06:27:23 GMT 49.907272 1.702375 33,925 320 414 0
2022-08-05 06:27:21 GMT 49.903999 1.706667 33,925 319 415 0
2022-08-05 06:27:18 GMT 49.900043 1.712160 33,925 319 414 -64
2022-08-05 06:27:16 GMT 49.893539 1.721384 33,925 316 412 0
2022-08-05 06:27:14 GMT 49.893539 1.721384 33,925 315 411 0
2022-08-05 06:27:11 GMT 49.890079 1.726709 33,925 315 411 0
2022-08-05 06:27:09 GMT 49.886856 1.731720 33,925 315 410 0
2022-08-05 06:27:07 GMT 49.885471 1.733761 33,925 314 410 0
2022-08-05 06:27:05 GMT 49.881840 1.739774 33,925 314 410 0
2022-08-05 06:27:03 GMT 49.879990 1.742851 33,925 314 411 64
2022-08-05 06:27:01 GMT 49.877243 1.747477 33,925 314 411 0
2022-08-05 06:26:58 GMT 49.873627 1.753476 33,925 314 411 0
2022-08-05 06:26:55 GMT 49.869316 1.760336 33,925 314 411 0
2022-08-05 06:26:53 GMT 49.863174 1.770655 33,925 313 412 -64
2022-08-05 06:26:50 GMT 49.863174 1.770655 33,925 313 412 -64
2022-08-05 06:26:47 GMT 49.853027 1.787519 33,950 314 413 -64
2022-08-05 06:26:42 GMT 49.853027 1.787519 33,950 314 413 0
2022-08-05 06:26:39 GMT 49.848404 1.795180 33,950 314 414 -64
2022-08-05 06:26:35 GMT 49.842545 1.804649 33,925 314 413 0
2022-08-05 06:26:32 GMT 49.839989 1.808958 33,950 314 414 0
2022-08-05 06:26:29 GMT 49.836365 1.815129 33,925 314 414 -128
2022-08-05 06:26:26 GMT 49.831566 1.822840 33,950 314 414 -128
2022-08-05 06:26:23 GMT 49.827606 1.829224 33,950 314 414 -128
2022-08-05 06:26:21 GMT 49.824162 1.834865 33,950 314 414 0
2022-08-05 06:26:18 GMT 49.821625 1.839126 33,950 314 414 64
2022-08-05 06:26:14 GMT 49.815598 1.849118 33,950 314 416 -64
2022-08-05 06:26:11 GMT 49.807892 1.861460 33,950 314 415 -64
2022-08-05 06:26:08 GMT 49.807892 1.861460 33,925 314 415 0
2022-08-05 06:26:05 GMT 49.803772 1.868543 33,925 314 415 -64
2022-08-05 06:26:02 GMT 49.799999 1.874505 33,925 314 416 -64
2022-08-05 06:25:59 GMT 49.795856 1.881409 33,925 314 415 -64
2022-08-05 06:25:56 GMT 49.792099 1.887408 33,950 314 415 -64
2022-08-05 06:25:54 GMT 49.789154 1.892172 33,950 314 415 0
2022-08-05 06:25:49 GMT 49.782124 1.903901 33,950 314 416 0
2022-08-05 06:25:47 GMT 49.780426 1.906417 33,950 314 416 0
2022-08-05 06:25:43 GMT 49.775436 1.914512 33,950 314 417 0
2022-08-05 06:25:40 GMT 49.770813 1.922385 33,950 314 416 0
2022-08-05 06:25:38 GMT 49.768906 1.925354 33,950 314 416 0
2022-08-05 06:25:35 GMT 49.764450 1.932726 33,925 314 416 0
2022-08-05 06:25:32 GMT 49.760155 1.939607 33,950 314 416 0
2022-08-05 06:25:30 GMT 49.754837 1.948194 33,950 314 416 0
2022-08-05 06:25:27 GMT 49.754837 1.948194 33,950 314 417 0
2022-08-05 06:25:24 GMT 49.749493 1.956903 33,950 314 417 -64
2022-08-05 06:25:21 GMT 49.744537 1.964963 33,950 314 417 64
2022-08-05 06:25:17 GMT 49.740742 1.971007 33,950 314 418 64
2022-08-05 06:25:14 GMT 49.736801 1.977539 33,925 314 417 128
2022-08-05 06:25:12 GMT 49.733711 1.982141 33,950 314 418 0
2022-08-05 06:25:08 GMT 49.724121 1.997777 33,925 314 418 0
2022-08-05 06:25:01 GMT 49.718769 2.006341 33,950 314 418 0
2022-08-05 06:24:58 GMT 49.714855 2.012873 33,950 314 418 0
2022-08-05 06:24:55 GMT 49.712265 2.017148 33,950 314 418 0
2022-08-05 06:24:53 GMT 49.708992 2.022301 33,925 314 418 0
2022-08-05 06:24:50 GMT 49.705032 2.028857 33,925 314 418 0
2022-08-05 06:24:47 GMT 49.700592 2.036229 33,925 314 418 0
2022-08-05 06:24:44 GMT 49.696468 2.042715 33,925 314 418 0
2022-08-05 06:24:41 GMT 49.691849 2.050468 33,925 314 418 0
2022-08-05 06:24:38 GMT 49.688416 2.056106 33,925 314 418 0
2022-08-05 06:24:36 GMT 49.685486 2.060948 33,925 314 418 0
2022-08-05 06:24:30 GMT 49.678268 2.072630 33,925 314 418 0
2022-08-05 06:24:26 GMT 49.672440 2.082198 33,950 314 418 0
2022-08-05 06:24:22 GMT 49.667606 2.089926 33,950 314 418 0
2022-08-05 06:24:20 GMT 49.663696 2.096509 33,925 314 418 0
2022-08-05 06:24:17 GMT 49.661278 2.100244 33,925 314 418 0
2022-08-05 06:24:15 GMT 49.658527 2.104550 33,925 314 418 0
2022-08-05 06:24:13 GMT 49.654907 2.110748 33,925 314 418 0
2022-08-05 06:24:10 GMT 49.650803 2.117095 33,925 314 419 0
2022-08-05 06:24:06 GMT 49.646519 2.124147 33,950 314 418 0
2022-08-05 06:24:03 GMT 49.639488 2.135802 33,950 314 419 0
2022-08-05 06:24:01 GMT 49.639488 2.135802 33,925 314 418 0
2022-08-05 06:23:56 GMT 49.629341 2.152058 33,925 314 419 0
2022-08-05 06:23:51 GMT 49.626068 2.157440 33,925 314 418 -64
2022-08-05 06:23:48 GMT 49.618729 2.169429 33,950 314 419 128
2022-08-05 06:23:44 GMT 49.616306 2.173363 33,950 314 418 0
2022-08-05 06:23:40 GMT 49.611145 2.181653 33,950 314 419 128
2022-08-05 06:23:38 GMT 49.608253 2.186279 33,925 314 419 64
2022-08-05 06:23:35 GMT 49.602585 2.195386 33,925 314 420 0
2022-08-05 06:23:33 GMT 49.602585 2.195386 33,925 314 419 0
2022-08-05 06:23:31 GMT 49.599472 2.200518 33,925 314 420 0
2022-08-05 06:23:28 GMT 49.594849 2.207891 33,925 314 420 0
2022-08-05 06:23:25 GMT 49.591400 2.213522 33,925 314 420 0
2022-08-05 06:23:22 GMT 49.587616 2.219527 33,925 314 420 0
2022-08-05 06:23:18 GMT 49.582836 2.227478 33,925 314 420 0
2022-08-05 06:23:16 GMT 49.579559 2.232610 33,925 314 420 0
2022-08-05 06:23:13 GMT 49.575619 2.238984 33,925 314 420 0
2022-08-05 06:23:11 GMT 49.572685 2.243735 33,925 314 420 0
2022-08-05 06:23:07 GMT 49.568069 2.251113 33,950 314 420 0
2022-08-05 06:23:05 GMT 49.565144 2.255983 33,925 314 420 0
2022-08-05 06:23:02 GMT 49.560333 2.263690 33,925 314 420 0
2022-08-05 06:23:00 GMT 49.558777 2.266219 33,925 314 420 0
2022-08-05 06:22:57 GMT 49.553322 2.274838 33,925 314 420 0
2022-08-05 06:22:54 GMT 49.549713 2.281036 33,925 314 420 0
2022-08-05 06:22:49 GMT 49.542664 2.292167 33,925 314 420 0
2022-08-05 06:22:46 GMT 49.538704 2.298666 33,925 314 420 0
2022-08-05 06:22:43 GMT 49.533024 2.307797 33,925 314 420 0
2022-08-05 06:22:41 GMT 49.533024 2.307797 33,925 314 420 0
2022-08-05 06:22:35 GMT 49.524784 2.321159 33,925 314 420 -128
2022-08-05 06:22:33 GMT 49.517754 2.332516 33,950 314 420 0
2022-08-05 06:22:30 GMT 49.517754 2.332516 33,950 314 420 0
2022-08-05 06:22:26 GMT 49.512123 2.341573 33,950 314 420 0
2022-08-05 06:22:23 GMT 49.509018 2.346738 33,950 314 421 0
2022-08-05 06:22:21 GMT 49.506775 2.350207 33,950 314 420 0
2022-08-05 06:22:17 GMT 49.500092 2.360976 33,950 314 420 0
2022-08-05 06:22:15 GMT 49.498528 2.363545 33,950 314 420 0
2022-08-05 06:22:13 GMT 49.494247 2.370597 33,925 314 420 0
2022-08-05 06:22:09 GMT 49.488922 2.379191 33,950 314 420 0
2022-08-05 06:22:06 GMT 49.486195 2.383662 33,950 314 420 0
2022-08-05 06:22:04 GMT 49.482563 2.389675 33,950 314 420 0
2022-08-05 06:22:01 GMT 49.478977 2.395316 33,950 314 420 0
2022-08-05 06:21:59 GMT 49.476562 2.399139 33,950 314 420 0
2022-08-05 06:21:57 GMT 49.473995 2.403556 33,925 314 420 0
2022-08-05 06:21:55 GMT 49.470200 2.409620 33,925 314 420 64
2022-08-05 06:21:53 GMT 49.466263 2.416125 33,925 314 420 0
2022-08-05 06:21:48 GMT 49.461987 2.423005 33,925 314 420 0
2022-08-05 06:21:44 GMT 49.455795 2.432952 33,925 314 420 0
2022-08-05 06:21:42 GMT 49.453903 2.436001 33,925 314 420 0
2022-08-05 06:21:39 GMT 49.449089 2.443938 33,925 314 421 0
2022-08-05 06:21:36 GMT 49.445847 2.449084 33,925 314 421 0
2022-08-05 06:21:34 GMT 49.442917 2.453854 33,925 314 421 0
2022-08-05 06:21:29 GMT 49.436752 2.463833 33,925 314 421 0
2022-08-05 06:21:27 GMT 49.434174 2.468093 33,925 314 421 0
2022-08-05 06:21:25 GMT 49.430374 2.474164 33,925 314 421 0
2022-08-05 06:21:22 GMT 49.425583 2.482043 33,925 314 421 0
2022-08-05 06:21:18 GMT 49.422684 2.486854 33,925 314 421 0
2022-08-05 06:21:15 GMT 49.416645 2.496282 33,925 314 421 0
2022-08-05 06:21:13 GMT 49.414082 2.500546 33,925 314 421 0
2022-08-05 06:21:09 GMT 49.408077 2.510159 33,925 314 422 0
2022-08-05 06:21:06 GMT 49.404831 2.515306 33,925 314 421 0
2022-08-05 06:21:03 GMT 49.401901 2.520165 33,925 314 422 0
2022-08-05 06:20:59 GMT 49.396591 2.528687 33,925 314 422 0
2022-08-05 06:20:56 GMT 49.391087 2.537336 33,925 314 422 0
2022-08-05 06:20:53 GMT 49.388527 2.541600 33,925 314 422 0
2022-08-05 06:20:50 GMT 49.383545 2.549479 33,925 314 422 0
2022-08-05 06:20:48 GMT 49.380611 2.554104 33,925 315 422 0
2022-08-05 06:20:44 GMT 49.375443 2.562350 33,925 315 422 0
2022-08-05 06:20:42 GMT 49.372559 2.566998 33,925 315 422 0
2022-08-05 06:20:38 GMT 49.364319 2.580026 33,925 314 423 -64
2022-08-05 06:20:35 GMT 49.364319 2.580026 33,925 315 422 0
2022-08-05 06:20:33 GMT 49.358643 2.588970 33,925 314 423 0
2022-08-05 06:20:31 GMT 49.358643 2.588970 33,925 314 423 0
2022-08-05 06:20:25 GMT 49.349888 2.602892 33,925 314 423 0
2022-08-05 06:20:22 GMT 49.346443 2.608386 33,925 314 423 0
2022-08-05 06:20:20 GMT 49.343697 2.612650 33,925 314 423 0
2022-08-05 06:20:16 GMT 49.337173 2.623127 33,925 314 422 0
2022-08-05 06:20:14 GMT 49.334248 2.627756 33,925 314 423 0
2022-08-05 06:20:11 GMT 49.324142 2.643730 33,925 314 423 0
2022-08-05 06:20:06 GMT 49.324142 2.643730 33,925 314 423 0
2022-08-05 06:20:04 GMT 49.317947 2.653691 33,925 314 423 0
2022-08-05 06:20:01 GMT 49.317947 2.653691 33,925 314 423 0
2022-08-05 06:19:59 GMT 49.314697 2.658832 33,925 314 423 0
2022-08-05 06:19:55 GMT 49.309013 2.667943 33,925 314 423 0
2022-08-05 06:19:53 GMT 49.306778 2.671368 33,925 314 423 0
2022-08-05 06:19:51 GMT 49.304031 2.675664 33,925 314 423 -64
2022-08-05 06:19:49 GMT 49.302498 2.678423 33,950 314 423 -64
2022-08-05 06:19:46 GMT 49.297005 2.687025 33,950 314 423 0
2022-08-05 06:19:44 GMT 49.294445 2.691289 33,950 314 423 0
2022-08-05 06:19:42 GMT 49.291183 2.696421 33,950 314 423 0
2022-08-05 06:19:40 GMT 49.289276 2.699529 33,925 314 424 64
2022-08-05 06:19:35 GMT 49.283615 2.708623 33,925 314 424 64
2022-08-05 06:19:33 GMT 49.275730 2.721140 33,925 314 424 0
2022-08-05 06:19:30 GMT 49.275730 2.721140 33,925 314 424 0
2022-08-05 06:19:27 GMT 49.271076 2.728512 33,925 314 425 0
2022-08-05 06:19:24 GMT 49.267303 2.734512 33,925 314 425 0
2022-08-05 06:19:22 GMT 49.264572 2.738976 33,925 314 425 0
2022-08-05 06:19:20 GMT 49.261810 2.743329 33,925 314 425 0
2022-08-05 06:19:18 GMT 49.258575 2.748413 33,925 314 424 0
2022-08-05 06:19:15 GMT 49.255295 2.753593 33,925 314 424 0
2022-08-05 06:19:13 GMT 49.250153 2.761864 33,925 314 425 0
2022-08-05 06:19:11 GMT 49.250153 2.761864 33,925 314 424 0
2022-08-05 06:19:09 GMT 49.247406 2.766160 33,925 314 424 0
2022-08-05 06:19:06 GMT 49.240025 2.777806 33,925 314 425 0
2022-08-05 06:19:04 GMT 49.240025 2.777806 33,925 314 425 0
2022-08-05 06:19:02 GMT 49.236767 2.782938 33,925 314 425 0
2022-08-05 06:18:59 GMT 49.232807 2.789443 33,925 314 425 0
2022-08-05 06:18:54 GMT 49.225967 2.800140 33,925 315 425 0
2022-08-05 06:18:52 GMT 49.223373 2.804049 33,925 315 425 0
2022-08-05 06:18:49 GMT 49.219437 2.810387 33,925 315 425 0
2022-08-05 06:18:45 GMT 49.211700 2.822430 33,925 315 425 0
2022-08-05 06:18:43 GMT 49.211700 2.822430 33,925 315 425 0
2022-08-05 06:18:41 GMT 49.208092 2.828112 33,925 315 425 0
2022-08-05 06:18:39 GMT 49.206207 2.831022 33,925 315 425 0
2022-08-05 06:18:35 GMT 49.200176 2.840472 33,925 315 425 0
2022-08-05 06:18:32 GMT 49.195541 2.847853 33,925 315 425 0
2022-08-05 06:18:29 GMT 49.192448 2.852470 33,925 315 425 0
2022-08-05 06:18:24 GMT 49.184769 2.864468 33,925 315 425 0
2022-08-05 06:18:22 GMT 49.182018 2.868805 33,925 315 425 0
2022-08-05 06:18:19 GMT 49.177876 2.875310 33,925 315 425 0
2022-08-05 06:18:15 GMT 49.172897 2.882827 33,925 315 425 0
2022-08-05 06:18:13 GMT 49.170151 2.887164 33,925 315 425 0
2022-08-05 06:18:11 GMT 49.167389 2.891447 33,925 315 425 0
2022-08-05 06:18:09 GMT 49.163960 2.897138 33,925 315 425 0
2022-08-05 06:18:06 GMT 49.160374 2.902631 33,925 315 425 0
2022-08-05 06:18:04 GMT 49.157639 2.906870 33,925 315 425 0
2022-08-05 06:18:01 GMT 49.153996 2.912533 33,925 315 425 0
2022-08-05 06:17:58 GMT 49.145245 2.926266 33,925 314 425 0
2022-08-05 06:17:55 GMT 49.145245 2.926266 33,925 314 425 0
2022-08-05 06:17:53 GMT 49.143009 2.929736 33,925 314 425 0
2022-08-05 06:17:51 GMT 49.140610 2.933490 33,925 314 425 0
2022-08-05 06:17:47 GMT 49.134979 2.942575 33,925 314 425 0
2022-08-05 06:17:45 GMT 49.131886 2.947372 33,925 314 425 0
2022-08-05 06:17:43 GMT 49.129486 2.951167 33,925 314 425 0
2022-08-05 06:17:41 GMT 49.126373 2.955956 33,925 314 425 0
2022-08-05 06:17:37 GMT 49.121750 2.963210 33,925 315 425 0
2022-08-05 06:17:35 GMT 49.117779 2.969706 33,925 315 425 0
2022-08-05 06:17:32 GMT 49.114380 2.974900 33,925 315 425 0
2022-08-05 06:17:30 GMT 49.111122 2.980042 33,925 315 425 0
2022-08-05 06:17:27 GMT 49.107330 2.986028 33,925 315 425 0
2022-08-05 06:17:25 GMT 49.104233 2.990811 33,925 315 425 0
2022-08-05 06:17:23 GMT 49.101669 2.995148 33,925 315 425 0
2022-08-05 06:17:21 GMT 49.098927 2.999412 33,925 315 425 0
2022-08-05 06:17:18 GMT 49.090668 3.012296 33,925 315 426 64
2022-08-05 06:17:15 GMT 49.090668 3.012296 33,925 315 426 64
2022-08-05 06:17:12 GMT 49.086548 3.018635 33,925 315 426 64
2022-08-05 06:17:10 GMT 49.082958 3.024276 33,925 315 426 64
2022-08-05 06:17:07 GMT 49.080185 3.028564 33,925 315 426 0
2022-08-05 06:17:02 GMT 49.072994 3.039744 33,925 315 426 0
2022-08-05 06:17:00 GMT 49.070572 3.043565 33,925 315 426 0
2022-08-05 06:16:56 GMT 49.066132 3.050396 33,925 315 427 0
2022-08-05 06:16:53 GMT 49.060612 3.058970 33,925 315 427 0
2022-08-05 06:16:51 GMT 49.057541 3.063812 33,925 315 427 0
2022-08-05 06:16:46 GMT 49.051208 3.073566 33,925 315 427 0
2022-08-05 06:16:44 GMT 49.048973 3.077039 33,925 315 427 0
2022-08-05 06:16:41 GMT 49.043976 3.084764 33,925 315 427 0
2022-08-05 06:16:39 GMT 49.039856 3.091243 33,925 315 427 -64
2022-08-05 06:16:35 GMT 49.035736 3.097581 33,925 315 427 -64
2022-08-05 06:16:33 GMT 49.032822 3.102409 33,925 315 427 -64
2022-08-05 06:16:31 GMT 49.030609 3.105821 33,925 315 427 -64
2022-08-05 06:16:29 GMT 49.028687 3.108779 33,925 315 427 -64
2022-08-05 06:16:27 GMT 49.024567 3.115258 33,950 315 427 -128
2022-08-05 06:16:24 GMT 49.021507 3.119900 33,950 315 427 -128
2022-08-05 06:16:22 GMT 49.017365 3.126478 33,950 315 427 -64
2022-08-05 06:16:20 GMT 49.014816 3.130188 33,950 315 427 0
2022-08-05 06:16:17 GMT 49.010696 3.136738 33,950 315 427 64
2022-08-05 06:16:12 GMT 49.004143 3.147077 33,925 315 427 64
2022-08-05 06:16:10 GMT 49.000885 3.152209 33,925 315 427 64
2022-08-05 06:16:08 GMT 48.999344 3.154273 33,925 315 427 0
2022-08-05 06:16:04 GMT 48.993347 3.163710 33,925 315 427 0
2022-08-05 06:16:02 GMT 48.990597 3.167966 33,925 315 427 0
2022-08-05 06:16:00 GMT 48.987350 3.173147 33,925 315 427 0
2022-08-05 06:15:58 GMT 48.985291 3.176246 33,950 315 427 0
2022-08-05 06:15:53 GMT 48.978928 3.186035 33,950 315 427 0
2022-08-05 06:15:51 GMT 48.974815 3.192540 33,950 315 427 0
2022-08-05 06:15:48 GMT 48.970673 3.199045 33,950 315 427 0
2022-08-05 06:15:44 GMT 48.964668 3.208514 33,950 315 427 64
2022-08-05 06:15:41 GMT 48.959686 3.216248 33,925 315 428 0
2022-08-05 06:15:37 GMT 48.956955 3.220543 33,925 315 428 0
2022-08-05 06:15:34 GMT 48.952148 3.227727 33,950 315 428 -64
2022-08-05 06:15:31 GMT 48.947159 3.235474 33,950 315 428 0
2022-08-05 06:15:29 GMT 48.945282 3.238572 33,950 315 428 0
2022-08-05 06:15:27 GMT 48.943039 3.241953 33,950 315 428 0
2022-08-05 06:15:24 GMT 48.938087 3.249712 33,950 315 428 0
2022-08-05 06:15:21 GMT 48.933430 3.257085 33,950 315 428 0
2022-08-05 06:15:18 GMT 48.929489 3.263080 33,950 315 428 0
2022-08-05 06:15:15 GMT 48.922443 3.274215 33,925 315 428 0
2022-08-05 06:15:13 GMT 48.922443 3.274215 33,925 315 428 0
2022-08-05 06:15:11 GMT 48.919006 3.279419 33,925 315 428 0
2022-08-05 06:15:09 GMT 48.916767 3.282816 33,925 315 429 64
2022-08-05 06:15:07 GMT 48.910767 3.292236 33,925 314 429 128
2022-08-05 06:15:04 GMT 48.910767 3.292236 33,925 315 429 64
2022-08-05 06:15:01 GMT 48.905266 3.300886 33,925 315 429 0
2022-08-05 06:14:57 GMT 48.901337 3.306885 33,925 315 429 0
2022-08-05 06:14:54 GMT 48.896027 3.315125 33,925 315 429 0
2022-08-05 06:14:51 GMT 48.892418 3.320618 33,925 315 429 0
2022-08-05 06:14:49 GMT 48.889160 3.325759 33,925 315 429 0
2022-08-05 06:14:47 GMT 48.885902 3.330881 33,925 315 428 0
2022-08-05 06:14:44 GMT 48.882431 3.336041 33,925 315 428 0
2022-08-05 06:14:40 GMT 48.877487 3.343788 33,925 315 429 0
2022-08-05 06:14:36 GMT 48.871307 3.353225 33,925 315 429 0
2022-08-05 06:14:33 GMT 48.868027 3.358347 33,925 315 429 0
2022-08-05 06:14:30 GMT 48.863556 3.365213 33,925 315 428 0
2022-08-05 06:14:28 GMT 48.860809 3.369550 33,925 315 429 0
2022-08-05 06:14:25 GMT 48.854141 3.379986 33,925 315 429 0
2022-08-05 06:14:20 GMT 48.850021 3.386324 33,925 315 429 0
2022-08-05 06:14:17 GMT 48.845028 3.394053 33,925 315 429 -64
2022-08-05 06:14:14 GMT 48.840374 3.401425 33,925 315 429 -64
2022-08-05 06:14:10 GMT 48.836288 3.407945 33,950 315 429 -128
2022-08-05 06:14:07 GMT 48.831619 3.415199 33,950 315 428 0
2022-08-05 06:14:04 GMT 48.826813 3.422593 33,950 315 428 128
2022-08-05 06:14:02 GMT 48.822220 3.429975 33,925 314 429 128
2022-08-05 06:13:58 GMT 48.818913 3.435107 33,925 314 429 64
2022-08-05 06:13:54 GMT 48.812580 3.445081 33,925 314 429 -64
2022-08-05 06:13:52 GMT 48.809834 3.449346 33,925 314 429 -128
2022-08-05 06:13:50 GMT 48.807789 3.452454 33,950 314 429 0
2022-08-05 06:13:47 GMT 48.803650 3.458933 33,950 314 429 0
2022-08-05 06:13:44 GMT 48.798847 3.466692 33,925 314 428 64
2022-08-05 06:13:42 GMT 48.796600 3.470130 33,950 314 429 64
2022-08-05 06:13:40 GMT 48.794380 3.473559 33,925 314 428 64
2022-08-05 06:13:37 GMT 48.789734 3.480905 33,925 314 428 64
2022-08-05 06:13:34 GMT 48.785614 3.487455 33,925 314 429 64
2022-08-05 06:13:30 GMT 48.780647 3.495170 33,925 314 429 64
2022-08-05 06:13:26 GMT 48.775177 3.503723 33,925 314 429 0
2022-08-05 06:13:23 GMT 48.771057 3.510276 33,925 314 429 -64
2022-08-05 06:13:19 GMT 48.766068 3.518160 33,925 314 429 64
2022-08-05 06:13:16 GMT 48.761093 3.525889 33,925 314 429 0
2022-08-05 06:13:13 GMT 48.758148 3.530696 33,925 314 429 64
2022-08-05 06:13:11 GMT 48.750778 3.542387 33,925 314 430 0
2022-08-05 06:13:08 GMT 48.750778 3.542387 33,925 314 430 0
2022-08-05 06:13:06 GMT 48.748058 3.546705 33,925 314 430 -64
2022-08-05 06:13:03 GMT 48.743916 3.553210 33,925 315 429 -64
2022-08-05 06:13:01 GMT 48.741348 3.556965 33,925 315 429 -64
2022-08-05 06:12:59 GMT 48.738602 3.561401 33,925 316 435 0
2022-08-05 06:12:57 GMT 48.734482 3.567810 33,925 315 430 0
2022-08-05 06:12:54 GMT 48.731735 3.572106 33,925 315 430 0
2022-08-05 06:12:52 GMT 48.729675 3.575134 33,925 315 430 0
2022-08-05 06:12:50 GMT 48.725876 3.581191 33,925 315 431 0
2022-08-05 06:12:47 GMT 48.720596 3.589421 33,925 315 431 0
2022-08-05 06:12:43 GMT 48.717133 3.594572 33,925 315 432 0
2022-08-05 06:12:41 GMT 48.709606 3.606045 33,925 315 432 64
2022-08-05 06:12:39 GMT 48.709606 3.606045 33,925 315 432 64
2022-08-05 06:12:37 GMT 48.706303 3.611249 33,925 315 432 64
2022-08-05 06:12:33 GMT 48.701706 3.618094 33,925 315 433 0
2022-08-05 06:12:30 GMT 48.697224 3.625127 33,925 315 434 -64
2022-08-05 06:12:28 GMT 48.695873 3.627151 33,925 315 434 -64
2022-08-05 06:12:25 GMT 48.686234 3.641756 33,925 315 434 -64
2022-08-05 06:12:22 GMT 48.686234 3.641756 33,925 315 434 0
2022-08-05 06:12:16 GMT 48.672691 3.662350 33,950 316 434 0
2022-08-05 06:12:12 GMT 48.672691 3.662350 33,950 316 434 64
2022-08-05 06:12:09 GMT 48.667709 3.669723 33,925 316 435 0
2022-08-05 06:12:05 GMT 48.661880 3.678659 33,925 316 434 0
2022-08-05 06:12:03 GMT 48.658958 3.682950 33,925 316 434 0
2022-08-05 06:12:01 GMT 48.656021 3.687251 33,925 316 434 0
2022-08-05 06:11:58 GMT 48.650894 3.694787 33,925 316 435 0
2022-08-05 06:11:55 GMT 48.643845 3.705491 33,925 316 435 0
2022-08-05 06:11:52 GMT 48.643845 3.705491 33,950 316 435 0
2022-08-05 06:11:50 GMT 48.640915 3.709717 33,925 316 435 0
2022-08-05 06:11:47 GMT 48.636986 3.715764 33,925 316 436 0
2022-08-05 06:11:44 GMT 48.631493 3.723859 33,950 316 436 0
2022-08-05 06:11:41 GMT 48.626999 3.730211 33,925 316 434 0
2022-08-05 06:11:38 GMT 48.623253 3.735641 33,925 315 433 0
2022-08-05 06:11:36 GMT 48.620499 3.739788 33,950 316 434 0
2022-08-05 06:11:32 GMT 48.615341 3.747711 33,950 314 432 0
2022-08-05 06:11:30 GMT 48.611568 3.753855 33,925 312 430 0
2022-08-05 06:11:25 GMT 48.605896 3.763803 33,925 310 427 0
2022-08-05 06:11:23 GMT 48.602829 3.769296 33,950 309 426 0
2022-08-05 06:11:19 GMT 48.598164 3.778791 33,950 306 423 0
2022-08-05 06:11:15 GMT 48.594391 3.787031 33,925 304 421 0
2022-08-05 06:11:12 GMT 48.591156 3.794368 33,950 303 421 64
2022-08-05 06:11:09 GMT 48.588226 3.801903 33,925 300 418 0
2022-08-05 06:11:06 GMT 48.585663 3.808453 33,950 298 416 0
2022-08-05 06:11:03 GMT 48.582230 3.818946 33,925 296 414 -64
2022-08-05 06:10:59 GMT 48.579483 3.828383 33,925 293 411 0
2022-08-05 06:10:55 GMT 48.576553 3.840074 33,950 289 407 0
2022-08-05 06:10:53 GMT 48.575180 3.846553 33,950 287 406 64
2022-08-05 06:10:51 GMT 48.574310 3.850849 33,925 287 406 0
2022-08-05 06:10:47 GMT 48.572605 3.859598 33,925 287 406 0
2022-08-05 06:10:44 GMT 48.570557 3.869934 33,925 287 406 0
2022-08-05 06:10:42 GMT 48.569530 3.875210 33,925 287 406 -64
2022-08-05 06:10:40 GMT 48.568497 3.880709 33,950 287 406 0
2022-08-05 06:10:37 GMT 48.566940 3.888949 33,950 287 406 0
2022-08-05 06:10:33 GMT 48.563339 3.907302 33,925 286 405 0
2022-08-05 06:10:30 GMT 48.563339 3.907302 33,950 286 405 64
2022-08-05 06:10:28 GMT 48.562130 3.913879 33,950 286 405 64
2022-08-05 06:10:23 GMT 48.559570 3.927401 33,925 286 405 -64
2022-08-05 06:10:19 GMT 48.557831 3.937190 33,925 286 405 -64
2022-08-05 06:10:17 GMT 48.556641 3.943176 33,925 286 405 -64
2022-08-05 06:10:13 GMT 48.554398 3.955078 33,925 287 405 -64
2022-08-05 06:10:09 GMT 48.552681 3.964330 33,925 287 404 0
2022-08-05 06:10:07 GMT 48.551651 3.969656 33,950 287 404 0
2022-08-05 06:10:03 GMT 48.549271 3.982192 33,950 287 404 0
2022-08-05 06:10:00 GMT 48.547699 3.990278 33,950 287 404 0
2022-08-05 06:09:57 GMT 48.546162 3.997795 33,950 287 404 64
2022-08-05 06:09:54 GMT 48.543419 4.012395 33,925 287 404 0
2022-08-05 06:09:51 GMT 48.543419 4.012395 33,950 287 404 64
2022-08-05 06:09:49 GMT 48.542038 4.018883 33,925 287 404 64
2022-08-05 06:09:46 GMT 48.540668 4.026489 33,925 287 404 64
2022-08-05 06:09:42 GMT 48.538624 4.036753 33,925 287 404 0
2022-08-05 06:09:39 GMT 48.536900 4.045860 33,925 287 403 -64
2022-08-05 06:09:36 GMT 48.535362 4.053449 33,925 287 403 -64
2022-08-05 06:09:34 GMT 48.533981 4.060998 33,925 287 403 -64
2022-08-05 06:09:30 GMT 48.531731 4.071591 33,950 287 402 -64
2022-08-05 06:09:27 GMT 48.527298 4.094238 33,950 287 402 64
2022-08-05 06:09:21 GMT 48.527298 4.094238 33,950 287 402 0
2022-08-05 06:09:17 GMT 48.525215 4.104911 33,925 287 402 0
2022-08-05 06:09:13 GMT 48.523354 4.114524 33,925 294 403 0
2022-08-05 06:09:11 GMT 48.519722 4.132233 33,925 294 403 0
2022-08-05 06:09:07 GMT 48.519722 4.132233 33,925 287 401 0
2022-08-05 06:09:05 GMT 48.519196 4.135437 33,925 287 401 0
2022-08-05 06:09:02 GMT 48.517162 4.145098 33,925 287 401 0
2022-08-05 06:09:00 GMT 48.516464 4.148857 33,925 287 400 0
2022-08-05 06:08:57 GMT 48.514927 4.156952 33,925 287 401 0
2022-08-05 06:08:54 GMT 48.513390 4.164830 33,925 287 401 0
2022-08-05 06:08:51 GMT 48.509766 4.182481 33,925 287 400 0
2022-08-05 06:08:48 GMT 48.508759 4.187833 33,925 287 401 0
2022-08-05 06:08:46 GMT 48.508759 4.187833 33,925 287 400 0
2022-08-05 06:08:41 GMT 48.505989 4.201765 33,925 287 400 0
2022-08-05 06:08:37 GMT 48.503941 4.212534 33,925 287 400 0
2022-08-05 06:08:32 GMT 48.501381 4.225761 33,925 287 400 0
2022-08-05 06:08:27 GMT 48.499146 4.237109 33,925 287 400 0
2022-08-05 06:08:24 GMT 48.497749 4.243975 33,925 287 400 0
2022-08-05 06:08:22 GMT 48.494339 4.262132 33,925 310 419 0
2022-08-05 06:08:18 GMT 48.494339 4.262132 33,925 287 400 0
2022-08-05 06:08:14 GMT 48.492256 4.272814 33,925 287 400 64
2022-08-05 06:08:11 GMT 48.490540 4.280724 33,925 287 400 0
2022-08-05 06:08:09 GMT 48.489532 4.286006 33,925 287 400 0
2022-08-05 06:08:04 GMT 48.487106 4.298894 33,950 292 402 -64
2022-08-05 06:08:01 GMT 48.485550 4.306993 33,925 287 400 -64
2022-08-05 06:07:57 GMT 48.483177 4.318639 33,950 287 399 0
2022-08-05 06:07:52 GMT 48.479546 4.337865 33,925 287 399 128
2022-08-05 06:07:47 GMT 48.475113 4.360164 33,925 287 399 0
2022-08-05 06:07:41 GMT 48.475113 4.360164 33,925 287 399 -64
2022-08-05 06:07:39 GMT 48.473740 4.367065 33,925 288 399 -128
2022-08-05 06:07:35 GMT 48.470982 4.380292 33,950 296 406 0
2022-08-05 06:07:29 GMT 48.467880 4.392982 33,950 290 401 -128
2022-08-05 06:07:26 GMT 48.462418 4.410288 33,950 300 409 64
2022-08-05 06:07:22 GMT 48.462418 4.410288 33,950 308 418 0
2022-08-05 06:07:18 GMT 48.458458 4.419901 33,925 309 419 0
2022-08-05 06:07:16 GMT 48.456711 4.423687 33,925 309 419 0
2022-08-05 06:07:11 GMT 48.450394 4.436223 33,950 310 419 0
2022-08-05 06:07:07 GMT 48.445751 4.444837 33,925 310 419 64
2022-08-05 06:07:02 GMT 48.437851 4.459252 33,925 310 419 0
2022-08-05 06:06:58 GMT 48.433228 4.467822 33,925 310 419 0
2022-08-05 06:06:54 GMT 48.429611 4.474534 33,925 310 419 -64
2022-08-05 06:06:50 GMT 48.425125 4.482563 33,925 310 419 0
2022-08-05 06:06:47 GMT 48.421543 4.489433 33,950 310 419 -64
2022-08-05 06:06:44 GMT 48.418098 4.495793 33,925 310 419 0
2022-08-05 06:06:41 GMT 48.412975 4.505262 33,925 310 419 0
2022-08-05 06:06:38 GMT 48.410019 4.510522 33,925 310 419 0
2022-08-05 06:06:36 GMT 48.407112 4.516031 33,925 310 419 0
2022-08-05 06:06:32 GMT 48.398685 4.531354 33,925 310 419 0
2022-08-05 06:06:28 GMT 48.394775 4.538510 33,925 310 419 0
2022-08-05 06:06:26 GMT 48.394775 4.538510 33,925 310 419 0
2022-08-05 06:06:22 GMT 48.389603 4.548129 33,925 310 419 0
2022-08-05 06:06:19 GMT 48.386673 4.553481 33,925 310 419 0
2022-08-05 06:06:15 GMT 48.381363 4.563411 33,925 310 419 0
2022-08-05 06:06:11 GMT 48.375183 4.574749 33,925 310 419 0
2022-08-05 06:06:05 GMT 48.369545 4.585057 33,925 310 419 0
2022-08-05 06:06:01 GMT 48.364380 4.594468 33,950 310 419 64
2022-08-05 06:05:58 GMT 48.360764 4.601159 33,950 310 419 0
2022-08-05 06:05:55 GMT 48.357330 4.607567 33,925 310 419 0
2022-08-05 06:05:50 GMT 48.350143 4.620596 33,925 310 419 64
2022-08-05 06:05:48 GMT 48.348408 4.623871 33,925 310 419 0
2022-08-05 06:05:44 GMT 48.343781 4.632287 33,925 310 419 0
2022-08-05 06:05:40 GMT 48.338608 4.641724 33,925 310 419 0
2022-08-05 06:05:37 GMT 48.335377 4.647723 33,925 310 419 0
2022-08-05 06:05:33 GMT 48.329544 4.658344 33,925 310 419 -64
2022-08-05 06:05:30 GMT 48.326439 4.664347 33,925 310 419 -64
2022-08-05 06:05:27 GMT 48.323364 4.669682 33,925 310 419 -128
2022-08-05 06:05:22 GMT 48.316288 4.682706 33,925 310 419 64
2022-08-05 06:05:18 GMT 48.312889 4.689066 33,925 310 419 64
2022-08-05 06:05:14 GMT 48.307022 4.699895 33,925 310 419 -64
2022-08-05 06:05:11 GMT 48.303764 4.705762 33,925 310 419 -64
2022-08-05 06:05:08 GMT 48.299156 4.714147 33,925 310 419 -64
2022-08-05 06:05:05 GMT 48.296219 4.719614 33,925 310 419 -64
2022-08-05 06:05:02 GMT 48.291779 4.727713 33,950 310 419 -128
2022-08-05 06:04:59 GMT 48.287148 4.736264 33,950 310 419 0
2022-08-05 06:04:55 GMT 48.277699 4.753249 33,950 310 419 64
2022-08-05 06:04:51 GMT 48.277699 4.753249 33,950 310 419 64
2022-08-05 06:04:46 GMT 48.273056 4.761869 33,925 310 420 0
2022-08-05 06:04:43 GMT 48.268936 4.769616 33,925 310 420 0
2022-08-05 06:04:40 GMT 48.261017 4.783842 33,925 310 420 0
2022-08-05 06:04:37 GMT 48.261017 4.783842 33,925 310 420 0
2022-08-05 06:04:34 GMT 48.257263 4.790673 33,925 310 421 0
2022-08-05 06:04:31 GMT 48.253304 4.797917 33,925 310 421 0
2022-08-05 06:04:27 GMT 48.248833 4.806013 33,925 310 421 0
2022-08-05 06:04:23 GMT 48.244400 4.814054 33,925 310 421 0
2022-08-05 06:04:20 GMT 48.239944 4.822131 33,950 310 421 64
2022-08-05 06:04:16 GMT 48.235977 4.829336 33,925 310 421 0
2022-08-05 06:04:12 GMT 48.229282 4.841501 33,925 310 421 64
2022-08-05 06:04:07 GMT 48.223091 4.852704 33,925 310 421 64
2022-08-05 06:04:04 GMT 48.220345 4.857619 33,950 310 421 0
2022-08-05 06:04:00 GMT 48.215561 4.866028 33,950 310 421 0
2022-08-05 06:03:57 GMT 48.211407 4.873810 33,950 310 421 0
2022-08-05 06:03:54 GMT 48.208145 4.879592 33,925 310 421 64
2022-08-05 06:03:50 GMT 48.198746 4.896650 33,925 310 421 64
2022-08-05 06:03:47 GMT 48.198746 4.896650 33,925 310 421 0
2022-08-05 06:03:44 GMT 48.194962 4.903283 33,925 310 422 0
2022-08-05 06:03:42 GMT 48.193390 4.906046 33,925 310 422 0
2022-08-05 06:03:37 GMT 48.186687 4.918044 33,925 310 422 -64
2022-08-05 06:03:34 GMT 48.183102 4.924405 33,925 310 422 0
2022-08-05 06:03:30 GMT 48.178116 4.933354 33,925 310 421 0
2022-08-05 06:03:27 GMT 48.174362 4.940045 33,925 310 421 0
2022-08-05 06:03:23 GMT 48.170380 4.947087 33,925 310 421 0
2022-08-05 06:03:19 GMT 48.162689 4.960961 33,950 310 421 0
2022-08-05 06:03:16 GMT 48.151356 4.980891 33,950 310 421 0
2022-08-05 06:03:10 GMT 48.151356 4.980891 33,950 310 420 0
2022-08-05 06:03:07 GMT 48.149277 4.984497 33,950 310 420 0
2022-08-05 06:03:04 GMT 48.143784 4.994316 33,950 310 421 0
2022-08-05 06:02:59 GMT 48.139664 5.001869 33,950 310 421 0
2022-08-05 06:02:54 GMT 48.133850 5.012169 33,950 310 421 128
2022-08-05 06:02:51 GMT 48.128498 5.022090 33,950 310 421 128
2022-08-05 06:02:46 GMT 48.121468 5.034626 33,925 310 421 128
2022-08-05 06:02:40 GMT 48.115646 5.045260 33,975 310 421 64
2022-08-05 06:02:36 GMT 48.109818 5.055565 33,925 310 421 0
2022-08-05 06:02:30 GMT 48.103127 5.067796 33,925 310 421 0
2022-08-05 06:02:25 GMT 48.097778 5.077538 33,925 310 421 0
2022-08-05 06:02:20 GMT 48.090744 5.090050 33,925 310 421 0
2022-08-05 06:02:17 GMT 48.087669 5.095896 33,925 310 421 64
2022-08-05 06:02:14 GMT 48.083202 5.103995 33,925 310 421 0
2022-08-05 06:02:10 GMT 48.078220 5.112939 33,975 310 421 64
2022-08-05 06:02:04 GMT 48.065838 5.135404 33,925 310 421 0
2022-08-05 06:02:00 GMT 48.065838 5.135404 33,925 310 421 64
2022-08-05 06:01:53 GMT 48.051453 5.161308 33,925 310 422 0
2022-08-05 06:01:48 GMT 48.051453 5.161308 33,925 310 422 0
2022-08-05 06:01:44 GMT 48.046284 5.170758 33,925 310 422 0
2022-08-05 06:01:40 GMT 48.041290 5.179848 33,925 310 422 -128
2022-08-05 06:01:37 GMT 48.036324 5.188786 33,925 310 422 0
2022-08-05 06:01:33 GMT 48.032738 5.195477 33,925 310 422 -128
2022-08-05 06:01:27 GMT 48.025150 5.208858 33,950 310 421 -64
2022-08-05 06:01:24 GMT 48.021561 5.215759 33,925 310 421 0
2022-08-05 06:01:20 GMT 48.015373 5.226886 33,950 310 420 128
2022-08-05 06:01:12 GMT 48.007141 5.241646 33,925 310 419 192
2022-08-05 06:01:07 GMT 48.000992 5.252803 33,925 310 417 -576
2022-08-05 06:01:02 GMT 47.994614 5.264282 34,025 310 417 -576
2022-08-05 06:00:57 GMT 47.988422 5.275269 34,000 311 417 0
2022-08-05 06:00:54 GMT 47.980553 5.289354 34,025 311 417 320
2022-08-05 06:00:51 GMT 47.980553 5.289354 34,050 311 417 320
2022-08-05 06:00:48 GMT 47.976929 5.295547 34,025 311 417 320
2022-08-05 06:00:43 GMT 47.970592 5.306889 33,950 311 417 320
2022-08-05 06:00:39 GMT 47.965611 5.315622 33,975 311 418 320
2022-08-05 06:00:33 GMT 47.958069 5.328850 33,950 311 419 64
2022-08-05 06:00:31 GMT 47.955975 5.332454 33,925 311 419 0
2022-08-05 06:00:28 GMT 47.951553 5.340341 33,925 311 419 64
2022-08-05 06:00:24 GMT 47.944149 5.353581 33,925 310 420 64
2022-08-05 06:00:21 GMT 47.944149 5.353581 33,925 310 420 0
2022-08-05 06:00:14 GMT 47.934860 5.369911 33,925 310 420 0
2022-08-05 06:00:11 GMT 47.931625 5.375695 33,925 310 420 0
2022-08-05 06:00:07 GMT 47.926117 5.385498 33,925 311 419 0
2022-08-05 06:00:02 GMT 47.919945 5.396470 33,950 307 418 0
2022-08-05 05:59:58 GMT 47.914948 5.405273 33,925 311 420 0
2022-08-05 05:59:55 GMT 47.911194 5.411934 33,925 308 418 0
2022-08-05 05:59:52 GMT 47.907421 5.418443 33,925 288 405 0
2022-08-05 05:59:45 GMT 47.899155 5.433907 33,925 307 418 0
2022-08-05 05:59:41 GMT 47.894524 5.443726 33,925 305 416 0
2022-08-05 05:59:35 GMT 47.887482 5.459999 33,950 288 405 0
2022-08-05 05:59:32 GMT 47.884235 5.468445 33,950 299 412 0
2022-08-05 05:59:27 GMT 47.880466 5.478868 33,925 288 405 0
2022-08-05 05:59:21 GMT 47.875671 5.493507 33,925 294 408 0
2022-08-05 05:59:16 GMT 47.871716 5.506897 33,925 288 405 0
2022-08-05 05:59:10 GMT 47.868084 5.521616 33,950 288 407 0
2022-08-05 05:59:05 GMT 47.865524 5.533799 33,925 288 405 0
2022-08-05 05:59:01 GMT 47.862762 5.547066 33,925 288 405 0
2022-08-05 05:58:58 GMT 47.861389 5.553932 33,925 288 405 0
2022-08-05 05:58:55 GMT 47.856258 5.578449 33,925 288 405 0
2022-08-05 05:58:48 GMT 47.856258 5.578449 33,925 288 405 0
2022-08-05 05:58:44 GMT 47.853836 5.589638 33,925 288 405 0
2022-08-05 05:58:39 GMT 47.851273 5.602341 33,925 288 407 0
2022-08-05 05:58:36 GMT 47.849232 5.611901 33,925 288 405 0
2022-08-05 05:58:32 GMT 47.846809 5.623099 33,925 288 406 64
2022-08-05 05:58:29 GMT 47.845272 5.630493 33,925 288 406 0
2022-08-05 05:58:26 GMT 47.843365 5.639578 33,925 288 408 0
2022-08-05 05:58:19 GMT 47.839966 5.656058 33,925 288 406 64
2022-08-05 05:58:16 GMT 47.837730 5.666692 33,925 288 406 64
2022-08-05 05:58:13 GMT 47.835983 5.674576 33,925 288 406 0
2022-08-05 05:58:10 GMT 47.834290 5.682678 33,925 288 407 0
2022-08-05 05:58:04 GMT 47.831543 5.696068 33,925 288 407 0
2022-08-05 05:57:59 GMT 47.828430 5.710281 33,925 288 407 0
2022-08-05 05:57:56 GMT 47.826744 5.718877 33,925 288 408 64
2022-08-05 05:57:53 GMT 47.824677 5.727997 33,925 288 408 0
2022-08-05 05:57:47 GMT 47.821564 5.743103 33,925 288 411 0
2022-08-05 05:57:44 GMT 47.820042 5.750427 33,925 288 409 0
2022-08-05 05:57:41 GMT 47.817993 5.760216 33,925 288 410 0
2022-08-05 05:57:39 GMT 47.816597 5.767118 33,925 288 410 0
2022-08-05 05:57:36 GMT 47.815750 5.770912 33,925 288 410 0
2022-08-05 05:57:33 GMT 47.813690 5.780663 33,925 288 410 0
2022-08-05 05:57:29 GMT 47.811802 5.789795 33,925 288 411 0
2022-08-05 05:57:26 GMT 47.809895 5.798880 33,925 288 413 0
2022-08-05 05:57:23 GMT 47.808357 5.806415 33,925 288 412 0
2022-08-05 05:57:20 GMT 47.806309 5.816204 33,925 288 413 0
2022-08-05 05:57:17 GMT 47.804585 5.824796 33,925 288 413 0
2022-08-05 05:57:14 GMT 47.802540 5.834585 33,925 288 414 -64
2022-08-05 05:57:10 GMT 47.800816 5.842614 33,925 288 413 0
2022-08-05 05:57:07 GMT 47.799278 5.849656 33,925 288 414 0
2022-08-05 05:57:04 GMT 47.795654 5.867180 33,925 288 414 -64
2022-08-05 05:57:01 GMT 47.795654 5.867180 33,925 288 414 -64
2022-08-05 05:56:57 GMT 47.793594 5.877480 33,925 288 414 -64
2022-08-05 05:56:55 GMT 47.792576 5.881770 33,925 288 415 0
2022-08-05 05:56:51 GMT 47.790161 5.893822 33,925 288 415 128
2022-08-05 05:56:47 GMT 47.787922 5.904095 33,925 288 415 128
2022-08-05 05:56:44 GMT 47.785858 5.914421 33,925 288 416 0
2022-08-05 05:56:40 GMT 47.782288 5.931381 33,925 288 416 -128
2022-08-05 05:56:37 GMT 47.782288 5.931381 33,925 288 416 -64
2022-08-05 05:56:34 GMT 47.780731 5.938934 33,950 288 416 -128
2022-08-05 05:56:31 GMT 47.778332 5.950435 33,950 288 416 64
2022-08-05 05:56:28 GMT 47.777298 5.955963 33,950 288 416 0
2022-08-05 05:56:25 GMT 47.775238 5.965233 33,950 288 416 64
2022-08-05 05:56:22 GMT 47.771988 5.981026 33,925 288 416 64
2022-08-05 05:56:19 GMT 47.771988 5.981026 33,925 288 416 64
2022-08-05 05:56:16 GMT 47.770065 5.990295 33,925 288 417 0
2022-08-05 05:56:12 GMT 47.767159 6.003324 33,950 288 417 -64
2022-08-05 05:56:08 GMT 47.765297 6.012620 33,950 288 417 -64
2022-08-05 05:56:03 GMT 47.762695 6.024628 33,950 288 417 0
2022-08-05 05:55:59 GMT 47.760315 6.035931 33,950 288 417 0
2022-08-05 05:55:55 GMT 47.757568 6.048467 33,950 288 418 0
2022-08-05 05:55:51 GMT 47.755661 6.057199 33,950 288 418 128
2022-08-05 05:55:47 GMT 47.749832 6.084023 33,925 288 420 0
2022-08-05 05:55:42 GMT 47.749832 6.084023 33,925 288 418 64
2022-08-05 05:55:38 GMT 47.747955 6.092743 33,925 288 418 0
2022-08-05 05:55:35 GMT 47.745884 6.101990 33,925 288 419 0
2022-08-05 05:55:31 GMT 47.743835 6.111286 33,925 288 419 0
2022-08-05 05:55:28 GMT 47.741741 6.120582 33,925 289 419 0
2022-08-05 05:55:24 GMT 47.739532 6.130852 33,925 289 419 -64
2022-08-05 05:55:20 GMT 47.737473 6.140121 33,925 289 419 -64
2022-08-05 05:55:17 GMT 47.732849 6.160936 33,925 289 419 0
2022-08-05 05:55:13 GMT 47.732849 6.160936 33,925 289 419 -64
2022-08-05 05:55:10 GMT 47.730755 6.170161 33,950 289 419 -64
2022-08-05 05:55:06 GMT 47.728546 6.180496 33,925 289 419 0
2022-08-05 05:55:00 GMT 47.725121 6.195726 33,925 289 419 0
2022-08-05 05:54:57 GMT 47.723373 6.203979 33,925 288 419 0
2022-08-05 05:54:53 GMT 47.720627 6.216682 33,925 288 419 0
2022-08-05 05:54:50 GMT 47.718929 6.224248 33,925 288 419 0
2022-08-05 05:54:47 GMT 47.717560 6.230965 33,925 288 420 0
2022-08-05 05:54:44 GMT 47.715134 6.241951 33,925 288 420 0
2022-08-05 05:54:40 GMT 47.713436 6.250023 33,925 288 420 0
2022-08-05 05:54:36 GMT 47.710327 6.264404 33,925 288 420 0
2022-08-05 05:54:31 GMT 47.707943 6.275940 33,925 288 420 0
2022-08-05 05:54:28 GMT 47.706406 6.282982 33,925 288 420 0
2022-08-05 05:54:25 GMT 47.704357 6.292419 33,925 288 420 0
2022-08-05 05:54:22 GMT 47.701767 6.304436 33,925 288 420 0
2022-08-05 05:54:19 GMT 47.700897 6.308693 33,925 288 420 0
2022-08-05 05:54:16 GMT 47.699379 6.315941 33,925 288 420 0
2022-08-05 05:54:13 GMT 47.696957 6.326928 33,925 288 420 0
2022-08-05 05:54:09 GMT 47.692490 6.347140 33,925 288 420 0
2022-08-05 05:54:06 GMT 47.692490 6.347140 33,925 288 420 0
2022-08-05 05:54:02 GMT 47.690964 6.354904 33,925 289 420 0
2022-08-05 05:54:00 GMT 47.689728 6.360397 33,925 288 420 0
2022-08-05 05:53:57 GMT 47.687347 6.371384 33,925 288 420 0
2022-08-05 05:53:54 GMT 47.686298 6.376155 33,925 288 420 0
2022-08-05 05:53:51 GMT 47.684235 6.386147 33,925 288 420 0
2022-08-05 05:53:48 GMT 47.681828 6.397142 33,925 288 420 -64
2022-08-05 05:53:44 GMT 47.680290 6.404114 33,950 288 420 0
2022-08-05 05:53:40 GMT 47.677734 6.416359 33,950 288 420 0
2022-08-05 05:53:37 GMT 47.676010 6.424607 33,950 288 420 0
2022-08-05 05:53:34 GMT 47.674301 6.432152 33,925 288 420 0
2022-08-05 05:53:31 GMT 47.672562 6.440392 33,925 288 420 0
2022-08-05 05:53:29 GMT 47.671738 6.444305 33,925 288 421 0
2022-08-05 05:53:26 GMT 47.669167 6.456299 33,925 288 420 0
2022-08-05 05:53:23 GMT 47.667770 6.462848 33,925 288 421 0
2022-08-05 05:53:20 GMT 47.665535 6.472778 33,925 288 421 0
2022-08-05 05:53:16 GMT 47.663811 6.481581 33,925 288 421 0
2022-08-05 05:53:11 GMT 47.660553 6.496300 33,925 288 420 0
2022-08-05 05:53:08 GMT 47.658504 6.506301 33,925 288 421 0
2022-08-05 05:53:05 GMT 47.657318 6.511803 33,925 288 420 0
2022-08-05 05:53:00 GMT 47.654205 6.525536 33,925 288 421 0
2022-08-05 05:52:57 GMT 47.650772 6.542015 33,925 288 421 0
2022-08-05 05:52:54 GMT 47.650772 6.542015 33,925 288 421 0
2022-08-05 05:52:50 GMT 47.648209 6.553482 33,925 288 421 0
2022-08-05 05:52:47 GMT 47.646309 6.562218 33,925 289 420 0
2022-08-05 05:52:43 GMT 47.644260 6.571021 33,925 288 421 0
2022-08-05 05:52:40 GMT 47.641838 6.582008 33,925 289 420 0
2022-08-05 05:52:37 GMT 47.640656 6.587334 33,925 289 420 0
2022-08-05 05:52:34 GMT 47.638767 6.596093 33,950 289 420 0
2022-08-05 05:52:30 GMT 47.635696 6.609826 33,925 289 420 64
2022-08-05 05:52:27 GMT 47.634476 6.615280 33,925 289 420 64
2022-08-05 05:52:25 GMT 47.632950 6.622361 33,925 289 420 64
2022-08-05 05:52:20 GMT 47.629829 6.636587 33,925 289 421 0
2022-08-05 05:52:17 GMT 47.628296 6.643089 33,925 289 420 0
2022-08-05 05:52:14 GMT 47.626759 6.650320 33,925 289 421 0
2022-08-05 05:52:10 GMT 47.622101 6.671096 33,925 289 421 -64
2022-08-05 05:52:07 GMT 47.620380 6.678631 33,925 289 420 0
2022-08-05 05:52:05 GMT 47.620380 6.678631 33,925 289 421 -64
2022-08-05 05:52:02 GMT 47.619030 6.685181 33,925 289 421 0
2022-08-05 05:51:59 GMT 47.617126 6.693420 33,925 289 421 0
2022-08-05 05:51:56 GMT 47.614048 6.707153 33,925 289 421 0
2022-08-05 05:51:54 GMT 47.614048 6.707153 33,925 289 421 -64
2022-08-05 05:51:51 GMT 47.612320 6.714706 33,925 289 421 -64
2022-08-05 05:51:49 GMT 47.610790 6.721872 33,925 289 420 -64
2022-08-05 05:51:46 GMT 47.609573 6.727203 33,950 289 420 -64
2022-08-05 05:51:44 GMT 47.607697 6.735443 33,925 289 421 -64
2022-08-05 05:51:41 GMT 47.606140 6.742516 33,950 289 420 0
2022-08-05 05:51:39 GMT 47.605110 6.746944 33,950 289 420 0
2022-08-05 05:51:36 GMT 47.603062 6.756240 33,950 289 420 0
2022-08-05 05:51:33 GMT 47.601524 6.762719 33,950 289 420 64
2022-08-05 05:51:29 GMT 47.598919 6.774621 33,925 289 420 64
2022-08-05 05:51:26 GMT 47.596684 6.784551 33,925 289 420 0
2022-08-05 05:51:23 GMT 47.594822 6.792649 33,925 289 421 0
2022-08-05 05:51:19 GMT 47.592587 6.802368 33,925 289 421 0
2022-08-05 05:51:16 GMT 47.590538 6.811664 33,925 289 421 0
2022-08-05 05:51:13 GMT 47.587280 6.825943 33,950 289 420 0
2022-08-05 05:51:10 GMT 47.584671 6.837410 33,925 289 421 -64
2022-08-05 05:51:07 GMT 47.584671 6.837410 33,925 289 421 -64
2022-08-05 05:51:04 GMT 47.583511 6.842370 33,925 289 421 0
2022-08-05 05:51:01 GMT 47.581413 6.852159 33,925 289 421 0
2022-08-05 05:50:58 GMT 47.579865 6.858696 33,925 289 421 0
2022-08-05 05:50:55 GMT 47.578342 6.865751 33,925 289 421 0
2022-08-05 05:50:52 GMT 47.576294 6.874484 33,950 289 420 -64
2022-08-05 05:50:49 GMT 47.574387 6.883780 33,950 289 420 -64
2022-08-05 05:50:46 GMT 47.571808 6.894745 33,950 289 420 128
2022-08-05 05:50:43 GMT 47.570251 6.901817 33,950 289 420 64
2022-08-05 05:50:39 GMT 47.567871 6.912804 33,925 289 420 128
2022-08-05 05:50:36 GMT 47.566498 6.919327 33,925 289 420 128
2022-08-05 05:50:32 GMT 47.563385 6.933403 33,925 289 420 0
2022-08-05 05:50:28 GMT 47.561676 6.941106 33,925 289 420 -64
2022-08-05 05:50:25 GMT 47.559303 6.951599 33,925 289 420 0
2022-08-05 05:50:22 GMT 47.558090 6.957585 33,925 289 420 -64
2022-08-05 05:50:19 GMT 47.556046 6.966881 33,925 289 420 -64
2022-08-05 05:50:13 GMT 47.550339 6.992455 33,950 289 420 -64
2022-08-05 05:50:09 GMT 47.550339 6.992455 33,950 289 420 -64
2022-08-05 05:50:05 GMT 47.547272 7.006668 33,950 289 420 0
2022-08-05 05:50:02 GMT 47.546223 7.010968 33,950 289 420 0
2022-08-05 05:49:59 GMT 47.544525 7.018684 33,950 289 420 0
2022-08-05 05:49:57 GMT 47.542824 7.026743 33,950 289 420 0
2022-08-05 05:49:54 GMT 47.541275 7.033310 33,950 289 420 64
2022-08-05 05:49:51 GMT 47.539192 7.042588 33,950 289 420 64
2022-08-05 05:49:48 GMT 47.538345 7.047043 33,950 288 420 64
2022-08-05 05:49:46 GMT 47.536285 7.056313 33,925 288 420 0
2022-08-05 05:49:43 GMT 47.534584 7.064561 33,925 288 420 0
2022-08-05 05:49:40 GMT 47.532349 7.074303 33,925 288 420 0
2022-08-05 05:49:37 GMT 47.531113 7.079796 33,925 288 420 0
2022-08-05 05:49:34 GMT 47.528732 7.090645 33,925 288 420 0
2022-08-05 05:49:31 GMT 47.527359 7.096619 33,925 288 421 0
2022-08-05 05:49:28 GMT 47.525986 7.103142 33,925 288 421 0
2022-08-05 05:49:25 GMT 47.523735 7.113647 33,925 288 421 0
2022-08-05 05:49:22 GMT 47.520309 7.129440 33,925 288 421 0
2022-08-05 05:49:19 GMT 47.520309 7.129440 33,925 288 420 0
2022-08-05 05:49:17 GMT 47.519119 7.134933 33,925 288 420 0
2022-08-05 05:49:14 GMT 47.517929 7.140427 33,925 288 420 0
2022-08-05 05:49:12 GMT 47.514149 7.157241 33,925 288 420 -64
2022-08-05 05:49:09 GMT 47.514149 7.157241 33,925 288 420 0
2022-08-05 05:49:07 GMT 47.512939 7.162743 33,950 288 420 0
2022-08-05 05:49:04 GMT 47.511215 7.170974 33,925 288 420 64
2022-08-05 05:49:02 GMT 47.510010 7.176270 33,925 289 420 128
2022-08-05 05:48:59 GMT 47.508133 7.184509 33,925 289 419 64
2022-08-05 05:48:57 GMT 47.506943 7.190002 33,925 289 420 0
2022-08-05 05:48:54 GMT 47.505211 7.198087 33,925 289 420 0
2022-08-05 05:48:51 GMT 47.503830 7.204079 33,925 289 420 0
2022-08-05 05:48:48 GMT 47.499710 7.222618 33,925 289 420 0
2022-08-05 05:48:45 GMT 47.499710 7.222618 33,925 289 420 0
2022-08-05 05:48:43 GMT 47.497993 7.230201 33,925 289 420 0
2022-08-05 05:48:38 GMT 47.495434 7.241187 33,925 289 420 0
2022-08-05 05:48:35 GMT 47.494038 7.247667 33,925 289 419 0
2022-08-05 05:48:32 GMT 47.491802 7.257315 33,925 289 419 0
2022-08-05 05:48:29 GMT 47.489567 7.267104 33,925 289 419 -64
2022-08-05 05:48:27 GMT 47.489090 7.269859 33,925 289 419 -64
2022-08-05 05:48:24 GMT 47.486168 7.282386 33,950 289 418 -64
2022-08-05 05:48:21 GMT 47.484604 7.289429 33,950 289 418 -64
2022-08-05 05:48:18 GMT 47.483597 7.293686 33,950 289 418 0
2022-08-05 05:48:15 GMT 47.481003 7.304993 33,950 289 418 0
2022-08-05 05:48:12 GMT 47.478928 7.314285 33,950 289 417 0
2022-08-05 05:48:08 GMT 47.477230 7.321824 33,950 289 417 0
2022-08-05 05:48:06 GMT 47.475697 7.328726 33,950 289 417 0
2022-08-05 05:48:03 GMT 47.473434 7.338524 33,925 289 417 0
2022-08-05 05:48:00 GMT 47.472252 7.344008 33,925 289 417 0
2022-08-05 05:47:57 GMT 47.470001 7.354111 33,925 289 418 0
2022-08-05 05:47:54 GMT 47.468124 7.362350 33,950 289 417 0
2022-08-05 05:47:51 GMT 47.466934 7.367157 33,950 289 417 0
2022-08-05 05:47:48 GMT 47.464874 7.376289 33,950 289 417 0
2022-08-05 05:47:45 GMT 47.462986 7.384996 33,925 289 417 0
2022-08-05 05:47:41 GMT 47.459911 7.398376 33,950 289 417 64
2022-08-05 05:47:38 GMT 47.458702 7.403870 33,925 289 417 64
2022-08-05 05:47:36 GMT 47.456982 7.411476 33,925 289 417 64
2022-08-05 05:47:33 GMT 47.455261 7.418999 33,950 289 417 0
2022-08-05 05:47:30 GMT 47.453384 7.427101 33,950 290 419 0
2022-08-05 05:47:27 GMT 47.451462 7.435135 33,925 289 417 0
2022-08-05 05:47:23 GMT 47.449081 7.445984 33,925 289 417 0
2022-08-05 05:47:20 GMT 47.447205 7.454018 33,925 289 417 0
2022-08-05 05:47:17 GMT 47.445831 7.460541 33,925 289 417 0
2022-08-05 05:47:14 GMT 47.442535 7.474960 33,925 289 417 0
2022-08-05 05:47:12 GMT 47.442535 7.474960 33,925 289 417 0
2022-08-05 05:47:09 GMT 47.441338 7.480492 33,925 289 417 64
2022-08-05 05:47:06 GMT 47.438965 7.490616 33,925 289 417 64
2022-08-05 05:47:03 GMT 47.437592 7.497139 33,925 289 417 64
2022-08-05 05:47:00 GMT 47.435669 7.505173 33,925 289 416 0
2022-08-05 05:46:57 GMT 47.432098 7.521515 33,925 289 417 0
2022-08-05 05:46:54 GMT 47.432098 7.521515 33,925 289 416 0
2022-08-05 05:46:52 GMT 47.430176 7.530098 33,925 289 417 0
2022-08-05 05:46:49 GMT 47.429005 7.535424 33,925 289 417 0
2022-08-05 05:46:46 GMT 47.427429 7.542458 33,925 289 417 0
2022-08-05 05:46:43 GMT 47.425049 7.552757 33,925 289 417 0
2022-08-05 05:46:40 GMT 47.423676 7.559074 33,925 289 417 0
2022-08-05 05:46:37 GMT 47.421616 7.568344 33,925 289 417 0
2022-08-05 05:46:34 GMT 47.419739 7.576411 33,925 289 417 0
2022-08-05 05:46:32 GMT 47.418686 7.581253 33,925 289 417 0
2022-08-05 05:46:30 GMT 47.417316 7.587257 33,925 289 417 0
2022-08-05 05:46:27 GMT 47.415272 7.595849 33,925 289 417 64
2022-08-05 05:46:24 GMT 47.413559 7.603363 33,925 289 417 64
2022-08-05 05:46:21 GMT 47.411312 7.612962 33,925 289 418 64
2022-08-05 05:46:18 GMT 47.410103 7.618455 33,925 289 418 64
2022-08-05 05:46:15 GMT 47.407700 7.629318 33,925 289 418 -64
2022-08-05 05:46:12 GMT 47.406006 7.636185 33,925 289 418 0
2022-08-05 05:46:10 GMT 47.404984 7.640428 33,925 289 418 -128
2022-08-05 05:46:07 GMT 47.402573 7.650742 33,950 289 418 -128
2022-08-05 05:46:04 GMT 47.400833 7.658295 33,950 289 418 -192
2022-08-05 05:46:01 GMT 47.399303 7.664795 33,950 289 418 -64
2022-08-05 05:45:58 GMT 47.397400 7.672920 33,950 289 418 0
2022-08-05 05:45:55 GMT 47.395844 7.679924 33,950 290 419 0
2022-08-05 05:45:52 GMT 47.393784 7.688507 33,950 290 419 64
2022-08-05 05:45:50 GMT 47.391037 7.700386 33,925 289 418 0
2022-08-05 05:45:47 GMT 47.391037 7.700386 33,925 289 418 0
2022-08-05 05:45:44 GMT 47.388474 7.711716 33,925 289 418 0
2022-08-05 05:45:41 GMT 47.386082 7.721276 33,925 289 418 0
2022-08-05 05:45:38 GMT 47.384357 7.728882 33,925 289 419 0
2022-08-05 05:45:35 GMT 47.383484 7.732658 33,925 289 419 0
2022-08-05 05:45:32 GMT 47.379704 7.748742 33,925 289 419 64
2022-08-05 05:45:30 GMT 47.379704 7.748742 33,925 290 419 0
2022-08-05 05:45:27 GMT 47.376957 7.760080 33,925 290 419 0
2022-08-05 05:45:24 GMT 47.375793 7.765617 33,925 290 419 -64
2022-08-05 05:45:22 GMT 47.373184 7.776947 33,925 289 419 -128
2022-08-05 05:45:20 GMT 47.373184 7.776947 33,925 289 419 -128
2022-08-05 05:45:18 GMT 47.372349 7.780151 33,950 289 419 -128
2022-08-05 05:45:15 GMT 47.370441 7.788743 33,950 289 419 -64
2022-08-05 05:45:12 GMT 47.368378 7.797340 33,950 289 419 -64
2022-08-05 05:45:09 GMT 47.366669 7.804871 33,950 289 419 0
2022-08-05 05:45:06 GMT 47.364441 7.814713 33,950 289 419 0
2022-08-05 05:45:03 GMT 47.362385 7.823252 33,950 289 419 0
2022-08-05 05:45:00 GMT 47.361176 7.828604 33,950 289 418 64
2022-08-05 05:44:58 GMT 47.359825 7.834097 33,925 289 418 0
2022-08-05 05:44:55 GMT 47.356380 7.849731 33,925 289 418 64
2022-08-05 05:44:52 GMT 47.356380 7.849731 33,925 289 418 64
2022-08-05 05:44:50 GMT 47.354324 7.858315 33,925 289 418 0
2022-08-05 05:44:47 GMT 47.352238 7.867549 33,925 289 418 0
2022-08-05 05:44:44 GMT 47.351212 7.872391 33,925 289 418 0
2022-08-05 05:44:41 GMT 47.349518 7.879944 33,925 289 418 0
2022-08-05 05:44:38 GMT 47.347458 7.889214 33,925 289 418 0
2022-08-05 05:44:35 GMT 47.345394 7.897761 33,925 289 418 0
2022-08-05 05:44:32 GMT 47.343998 7.904311 33,925 289 418 0
2022-08-05 05:44:30 GMT 47.342834 7.909593 33,925 289 418 0
2022-08-05 05:44:27 GMT 47.340740 7.918396 33,925 289 418 0
2022-08-05 05:44:24 GMT 47.339401 7.924713 33,925 289 418 0
2022-08-05 05:44:21 GMT 47.335419 7.942085 33,925 289 418 0
2022-08-05 05:44:18 GMT 47.335419 7.942085 33,925 289 418 0
2022-08-05 05:44:15 GMT 47.333385 7.951144 33,925 289 418 0
2022-08-05 05:44:12 GMT 47.331474 7.959383 33,950 289 418 0
2022-08-05 05:44:09 GMT 47.329788 7.966942 33,950 289 418 0
2022-08-05 05:44:06 GMT 47.327892 7.975511 33,925 289 418 64
2022-08-05 05:44:03 GMT 47.326172 7.983078 33,925 289 418 0
2022-08-05 05:44:00 GMT 47.323750 7.993399 33,925 289 418 64
2022-08-05 05:43:57 GMT 47.320312 8.009033 33,925 289 419 0
2022-08-05 05:43:54 GMT 47.320312 8.009033 33,925 289 419 0
2022-08-05 05:43:51 GMT 47.318626 8.016076 33,925 289 419 0
2022-08-05 05:43:49 GMT 47.317245 8.022560 33,925 289 419 0
2022-08-05 05:43:45 GMT 47.315369 8.030663 33,950 289 419 0
2022-08-05 05:43:42 GMT 47.313629 8.038216 33,925 289 419 0
2022-08-05 05:43:39 GMT 47.310883 8.050575 33,950 289 419 0
2022-08-05 05:43:36 GMT 47.309502 8.056570 33,925 289 419 0
2022-08-05 05:43:33 GMT 47.307632 8.065132 33,925 289 418 0
2022-08-05 05:43:30 GMT 47.305733 8.073895 33,950 289 418 0
2022-08-05 05:43:27 GMT 47.303871 8.082487 33,950 289 418 0
2022-08-05 05:43:24 GMT 47.300766 8.096031 33,950 289 418 0
2022-08-05 05:43:21 GMT 47.300766 8.096031 33,950 289 418 64
2022-08-05 05:43:18 GMT 47.298889 8.104600 33,950 289 418 64
2022-08-05 05:43:15 GMT 47.296795 8.113192 33,925 289 418 0
2022-08-05 05:43:12 GMT 47.295090 8.121300 33,925 289 418 0
2022-08-05 05:43:09 GMT 47.292847 8.131050 33,925 289 418 0
2022-08-05 05:43:06 GMT 47.291161 8.138616 33,925 289 418 0
2022-08-05 05:43:03 GMT 47.289764 8.145165 33,925 289 418 0
2022-08-05 05:43:00 GMT 47.285660 8.162842 33,925 289 419 0
2022-08-05 05:42:57 GMT 47.285660 8.162842 33,925 289 419 0
2022-08-05 05:42:54 GMT 47.281540 8.180695 33,925 289 419 0
2022-08-05 05:42:50 GMT 47.281540 8.180695 33,925 289 419 64
2022-08-05 05:42:47 GMT 47.279663 8.188758 33,925 289 419 64
2022-08-05 05:42:44 GMT 47.277237 8.199028 33,925 289 419 64
2022-08-05 05:42:40 GMT 47.275192 8.208125 33,925 289 420 0
2022-08-05 05:42:38 GMT 47.274170 8.211937 33,925 289 420 -64
2022-08-05 05:42:35 GMT 47.271564 8.223267 33,925 289 420 -64
2022-08-05 05:42:31 GMT 47.269699 8.231295 33,925 289 420 -64
2022-08-05 05:42:29 GMT 47.267807 8.239403 33,925 289 420 0
2022-08-05 05:42:26 GMT 47.266617 8.244896 33,925 289 420 -64
2022-08-05 05:42:23 GMT 47.264694 8.252930 33,925 289 420 0
2022-08-05 05:42:19 GMT 47.261810 8.265289 33,925 289 420 0
2022-08-05 05:42:15 GMT 47.258854 8.277846 33,925 289 420 0
2022-08-05 05:42:12 GMT 47.257690 8.283142 33,925 289 420 0
2022-08-05 05:42:09 GMT 47.255951 8.290215 33,925 289 420 0
2022-08-05 05:42:07 GMT 47.254074 8.298248 33,950 289 420 0
2022-08-05 05:42:04 GMT 47.252010 8.307002 33,925 289 420 0
2022-08-05 05:42:01 GMT 47.250801 8.312354 33,925 289 420 0
2022-08-05 05:41:59 GMT 47.249588 8.317131 33,925 289 420 0
2022-08-05 05:41:57 GMT 47.248077 8.324203 33,950 289 420 0
2022-08-05 05:41:54 GMT 47.246006 8.333482 33,950 289 419 0
2022-08-05 05:41:51 GMT 47.244099 8.341018 33,950 289 419 0
2022-08-05 05:41:48 GMT 47.242561 8.347849 33,925 289 420 0
2022-08-05 05:41:45 GMT 47.240326 8.357145 33,925 289 420 64
2022-08-05 05:41:42 GMT 47.238605 8.364680 33,925 289 420 0
2022-08-05 05:41:39 GMT 47.237091 8.371033 33,925 289 420 0
2022-08-05 05:41:36 GMT 47.234695 8.381864 33,925 289 420 0
2022-08-05 05:41:33 GMT 47.232971 8.388907 33,925 289 420 0
2022-08-05 05:41:30 GMT 47.231064 8.396935 33,925 289 420 -64
2022-08-05 05:41:27 GMT 47.229355 8.404541 33,950 289 420 0
2022-08-05 05:41:24 GMT 47.227291 8.413767 33,950 289 420 0
2022-08-05 05:41:21 GMT 47.224545 8.425105 33,950 289 420 64
2022-08-05 05:41:19 GMT 47.224545 8.425105 33,950 289 420 64
2022-08-05 05:41:16 GMT 47.222488 8.434204 33,925 289 420 64
2022-08-05 05:41:13 GMT 47.220612 8.442307 33,925 289 420 0
2022-08-05 05:41:10 GMT 47.218369 8.451576 33,925 289 421 -64
2022-08-05 05:41:06 GMT 47.215942 8.462357 33,925 289 421 -64
2022-08-05 05:41:03 GMT 47.214069 8.470459 33,925 289 421 -64
2022-08-05 05:40:59 GMT 47.212189 8.478493 33,950 289 421 -64
2022-08-05 05:40:56 GMT 47.210129 8.486595 33,925 290 421 64
2022-08-05 05:40:53 GMT 47.207703 8.497375 33,925 290 421 64
2022-08-05 05:40:50 GMT 47.204132 8.512482 33,925 290 422 64
2022-08-05 05:40:47 GMT 47.204132 8.512482 33,925 290 422 0
2022-08-05 05:40:44 GMT 47.201874 8.521729 33,925 290 422 0
2022-08-05 05:40:41 GMT 47.199326 8.532600 33,925 290 422 -64
2022-08-05 05:40:39 GMT 47.199326 8.532600 33,925 290 422 -64
2022-08-05 05:40:37 GMT 47.197769 8.539124 33,925 290 422 0
2022-08-05 05:40:34 GMT 47.195892 8.547157 33,925 290 422 0
2022-08-05 05:40:31 GMT 47.193310 8.557997 33,925 290 422 0
2022-08-05 05:40:28 GMT 47.191772 8.564529 33,925 290 422 0
2022-08-05 05:40:24 GMT 47.189026 8.575815 33,925 290 422 0
2022-08-05 05:40:21 GMT 47.186783 8.585472 33,925 290 421 0
2022-08-05 05:40:18 GMT 47.185768 8.589759 33,925 290 421 0
2022-08-05 05:40:15 GMT 47.182835 8.601732 33,925 290 422 -64
2022-08-05 05:40:12 GMT 47.181625 8.607084 33,925 290 422 0
2022-08-05 05:40:09 GMT 47.179916 8.614105 33,925 290 422 0
2022-08-05 05:40:06 GMT 47.177341 8.624901 33,925 290 422 0
2022-08-05 05:40:03 GMT 47.175797 8.631271 33,925 290 422 -64
2022-08-05 05:40:00 GMT 47.173370 8.641090 33,925 290 422 0
2022-08-05 05:39:57 GMT 47.172035 8.646381 33,925 290 422 -64
2022-08-05 05:39:54 GMT 47.170303 8.653450 33,925 290 422 0
2022-08-05 05:39:51 GMT 47.168076 8.663213 33,925 290 422 0
2022-08-05 05:39:48 GMT 47.166031 8.671312 33,925 290 423 0
2022-08-05 05:39:45 GMT 47.164124 8.679337 33,925 290 423 0
2022-08-05 05:39:42 GMT 47.161560 8.690186 33,925 290 423 0
2022-08-05 05:39:37 GMT 47.158127 8.704262 33,925 290 423 0
2022-08-05 05:39:34 GMT 47.156719 8.709552 33,925 290 423 0
2022-08-05 05:39:31 GMT 47.154510 8.719368 33,925 290 423 0
2022-08-05 05:39:28 GMT 47.153133 8.724694 33,925 290 423 0
2022-08-05 05:39:25 GMT 47.149338 8.740448 33,925 290 423 0
2022-08-05 05:39:22 GMT 47.149338 8.740448 33,925 290 423 0
2022-08-05 05:39:19 GMT 47.146244 8.752794 33,925 290 423 0
2022-08-05 05:39:16 GMT 47.145081 8.758146 33,925 290 424 0
2022-08-05 05:39:13 GMT 47.142654 8.767914 33,925 290 424 0
2022-08-05 05:39:10 GMT 47.141098 8.774437 33,925 290 423 0
2022-08-05 05:39:07 GMT 47.138901 8.783020 33,925 290 424 0
2022-08-05 05:39:04 GMT 47.137665 8.788513 33,925 290 424 0
2022-08-05 05:39:01 GMT 47.135258 8.798288 33,925 290 423 0
2022-08-05 05:38:58 GMT 47.132698 8.809134 33,925 290 423 0
2022-08-05 05:38:55 GMT 47.131348 8.815155 33,925 289 424 0
2022-08-05 05:38:52 GMT 47.129440 8.823219 33,925 289 424 0
2022-08-05 05:38:49 GMT 47.127579 8.831247 33,925 289 424 0
2022-08-05 05:38:46 GMT 47.125488 8.839531 33,925 289 424 0
2022-08-05 05:38:43 GMT 47.123932 8.846535 33,925 289 424 0
2022-08-05 05:38:40 GMT 47.121525 8.856812 33,925 289 424 0
2022-08-05 05:38:37 GMT 47.119492 8.865417 33,925 289 424 0
2022-08-05 05:38:34 GMT 47.118126 8.871460 33,925 289 424 0
2022-08-05 05:38:32 GMT 47.116058 8.879494 33,925 289 424 0
2022-08-05 05:38:29 GMT 47.112633 8.894278 33,925 289 424 0
2022-08-05 05:38:26 GMT 47.112633 8.894278 33,925 289 424 0
2022-08-05 05:38:23 GMT 47.110565 8.903526 33,925 289 424 0
2022-08-05 05:38:20 GMT 47.109009 8.909912 33,925 289 424 0
2022-08-05 05:38:17 GMT 47.107635 8.915886 33,925 289 424 0
2022-08-05 05:38:14 GMT 47.105232 8.926180 33,925 289 424 0
2022-08-05 05:38:11 GMT 47.102673 8.937167 33,925 289 424 0
2022-08-05 05:38:08 GMT 47.100948 8.944209 33,925 289 424 0
2022-08-05 05:38:05 GMT 47.098892 8.952827 33,925 289 424 0
2022-08-05 05:38:02 GMT 47.097702 8.958321 33,925 289 424 0
2022-08-05 05:37:59 GMT 47.093735 8.975126 33,925 289 424 0
2022-08-05 05:37:57 GMT 47.093735 8.975126 33,925 289 424 0
2022-08-05 05:37:54 GMT 47.092346 8.980637 33,925 289 424 0
2022-08-05 05:37:52 GMT 47.091156 8.985924 33,925 289 424 0
2022-08-05 05:37:49 GMT 47.089127 8.994704 33,925 289 424 0
2022-08-05 05:37:47 GMT 47.088425 8.997451 33,925 289 424 0
2022-08-05 05:37:44 GMT 47.085846 9.008789 33,925 289 424 0
2022-08-05 05:37:42 GMT 47.084473 9.014763 33,925 289 424 0
2022-08-05 05:37:39 GMT 47.082916 9.021286 33,925 289 425 0
2022-08-05 05:37:36 GMT 47.081024 9.029353 33,925 289 425 0
2022-08-05 05:37:33 GMT 47.079163 9.036942 33,925 289 425 0
2022-08-05 05:37:31 GMT 47.076042 9.049988 33,925 289 425 0
2022-08-05 05:37:28 GMT 47.074181 9.058721 33,925 289 424 0
2022-08-05 05:37:26 GMT 47.074181 9.058721 33,925 289 424 0
2022-08-05 05:37:23 GMT 47.071060 9.071754 33,925 289 424 0
2022-08-05 05:37:21 GMT 47.071060 9.071754 33,925 289 425 0
2022-08-05 05:37:18 GMT 47.069340 9.078792 33,925 290 425 0
2022-08-05 05:37:15 GMT 47.066620 9.090843 33,925 289 425 0
2022-08-05 05:37:12 GMT 47.065933 9.093590 33,925 289 425 0
2022-08-05 05:37:09 GMT 47.063335 9.104356 33,925 290 425 0
2022-08-05 05:37:06 GMT 47.060776 9.115202 33,925 290 425 0
2022-08-05 05:37:02 GMT 47.059067 9.122910 33,925 290 425 0
2022-08-05 05:36:59 GMT 47.057701 9.128230 33,925 290 425 0
2022-08-05 05:36:56 GMT 47.055450 9.138016 33,925 290 426 0
2022-08-05 05:36:53 GMT 47.053391 9.146255 33,925 290 426 0
2022-08-05 05:36:51 GMT 47.052017 9.152298 33,925 290 426 0
2022-08-05 05:36:47 GMT 47.048950 9.164640 33,925 290 426 0
2022-08-05 05:36:43 GMT 47.047211 9.172348 33,950 290 426 0
2022-08-05 05:36:41 GMT 47.045177 9.180415 33,950 290 426 0
2022-08-05 05:36:38 GMT 47.041874 9.194007 33,925 290 426 0
2022-08-05 05:36:35 GMT 47.041874 9.194007 33,925 290 426 64
2022-08-05 05:36:32 GMT 47.039825 9.202740 33,925 290 426 64
2022-08-05 05:36:29 GMT 47.037777 9.210839 33,925 290 426 0
2022-08-05 05:36:26 GMT 47.035904 9.219040 33,925 290 426 0
2022-08-05 05:36:23 GMT 47.033821 9.227600 33,925 290 426 0
2022-08-05 05:36:21 GMT 47.031418 9.237442 33,925 290 426 0
2022-08-05 05:36:19 GMT 47.031418 9.237442 33,925 290 426 0
2022-08-05 05:36:16 GMT 47.026978 9.255418 33,925 290 426 0
2022-08-05 05:36:13 GMT 47.026978 9.255418 33,925 290 426 0
2022-08-05 05:36:11 GMT 47.025925 9.259758 33,925 290 427 0
2022-08-05 05:36:07 GMT 47.023022 9.271757 33,925 290 427 0
2022-08-05 05:36:05 GMT 47.022171 9.275551 33,925 290 427 0
2022-08-05 05:36:02 GMT 47.019745 9.285301 33,925 290 427 -64
2022-08-05 05:35:58 GMT 47.014408 9.306617 33,950 290 427 64
2022-08-05 05:35:55 GMT 47.014408 9.306617 33,950 290 427 0
2022-08-05 05:35:52 GMT 47.012871 9.312955 33,950 290 427 64
2022-08-05 05:35:48 GMT 47.008778 9.329928 33,925 290 427 0
2022-08-05 05:35:45 GMT 47.008778 9.329928 33,925 290 427 0
2022-08-05 05:35:42 GMT 47.006168 9.340773 33,925 290 427 0
2022-08-05 05:35:39 GMT 47.001892 9.358086 33,925 290 427 0
2022-08-05 05:35:36 GMT 47.000538 9.364084 33,950 290 427 0
2022-08-05 05:35:33 GMT 47.000538 9.364084 33,950 290 427 0
2022-08-05 05:35:29 GMT 46.997604 9.375634 33,950 290 427 0
2022-08-05 05:35:26 GMT 46.995712 9.383148 33,925 290 427 0
2022-08-05 05:35:23 GMT 46.991409 9.401207 33,925 290 427 0
2022-08-05 05:35:19 GMT 46.991409 9.401207 33,925 290 427 0
2022-08-05 05:35:16 GMT 46.989037 9.410987 33,925 290 428 0
2022-08-05 05:35:13 GMT 46.987316 9.418030 33,925 290 428 0
2022-08-05 05:35:10 GMT 46.985592 9.425072 33,925 290 428 0
2022-08-05 05:35:07 GMT 46.983719 9.432587 33,925 290 428 0
2022-08-05 05:35:04 GMT 46.981293 9.442406 33,925 290 428 0
2022-08-05 05:35:01 GMT 46.979401 9.450073 33,925 290 428 0
2022-08-05 05:34:59 GMT 46.977859 9.456139 33,925 290 428 0
2022-08-05 05:34:56 GMT 46.973396 9.474511 33,925 290 428 0
2022-08-05 05:34:53 GMT 46.973396 9.474511 33,925 290 428 0
2022-08-05 05:34:50 GMT 46.971348 9.482751 33,925 290 428 0
2022-08-05 05:34:47 GMT 46.969986 9.488068 33,925 290 428 0
2022-08-05 05:34:43 GMT 46.966690 9.501114 33,925 290 428 0
2022-08-05 05:34:40 GMT 46.965179 9.507637 33,925 290 427 -64
2022-08-05 05:34:37 GMT 46.960686 9.525639 33,925 290 427 0
2022-08-05 05:34:34 GMT 46.960686 9.525639 33,950 290 427 0
2022-08-05 05:34:30 GMT 46.958637 9.533738 33,950 291 428 64
2022-08-05 05:34:27 GMT 46.955887 9.545059 33,925 291 428 0
2022-08-05 05:34:23 GMT 46.953842 9.553246 33,925 291 428 64
2022-08-05 05:34:20 GMT 46.951424 9.563035 33,925 291 428 64
2022-08-05 05:34:17 GMT 46.949524 9.570602 33,925 290 428 0
2022-08-05 05:34:14 GMT 46.947830 9.577126 33,925 290 428 0
2022-08-05 05:34:11 GMT 46.945404 9.586945 33,925 291 428 0
2022-08-05 05:34:08 GMT 46.943344 9.594978 33,925 290 428 0
2022-08-05 05:34:05 GMT 46.941147 9.603767 33,925 290 428 0
2022-08-05 05:34:02 GMT 46.939598 9.610291 33,925 290 428 0
2022-08-05 05:33:59 GMT 46.937504 9.618319 33,925 290 428 0
2022-08-05 05:33:56 GMT 46.935471 9.626564 33,925 290 428 0
2022-08-05 05:33:52 GMT 46.932220 9.639610 33,925 290 428 0
2022-08-05 05:33:49 GMT 46.930847 9.645103 33,925 290 428 0
2022-08-05 05:33:46 GMT 46.928940 9.653179 33,925 290 428 0
2022-08-05 05:33:43 GMT 46.926544 9.662476 33,925 290 428 0
2022-08-05 05:33:40 GMT 46.924484 9.671196 33,925 290 427 0
2022-08-05 05:33:37 GMT 46.921909 9.681490 33,925 290 428 0
2022-08-05 05:33:34 GMT 46.920547 9.686852 33,925 290 428 0
2022-08-05 05:33:31 GMT 46.916603 9.703322 33,925 290 427 -64
2022-08-05 05:33:28 GMT 46.916603 9.703322 33,925 290 427 -64
2022-08-05 05:33:25 GMT 46.914696 9.711351 33,925 289 428 -64
2022-08-05 05:33:22 GMT 46.912785 9.719590 33,925 289 428 -64
2022-08-05 05:33:19 GMT 46.910736 9.728394 33,925 289 427 0
2022-08-05 05:33:16 GMT 46.908875 9.736633 33,925 289 427 0
2022-08-05 05:33:13 GMT 46.907665 9.741915 33,925 289 428 0
2022-08-05 05:33:10 GMT 46.905243 9.751916 33,925 289 428 0
2022-08-05 05:33:07 GMT 46.900448 9.773184 33,925 289 428 0
2022-08-05 05:33:04 GMT 46.900448 9.773184 33,925 289 428 0
2022-08-05 05:33:01 GMT 46.899582 9.776939 33,925 289 428 0
2022-08-05 05:32:58 GMT 46.897705 9.784698 33,950 289 428 0
2022-08-05 05:32:55 GMT 46.895283 9.794945 33,925 289 428 0
2022-08-05 05:32:52 GMT 46.893932 9.801495 33,925 289 428 0
2022-08-05 05:32:49 GMT 46.892029 9.809212 33,925 290 429 -64
2022-08-05 05:32:45 GMT 46.889790 9.818467 33,925 290 428 0
2022-08-05 05:32:42 GMT 46.887413 9.828820 33,950 290 428 0
2022-08-05 05:32:39 GMT 46.884979 9.838737 33,950 290 427 0
2022-08-05 05:32:36 GMT 46.883457 9.845299 33,925 290 428 64
2022-08-05 05:32:33 GMT 46.879826 9.860582 33,925 290 428 0
2022-08-05 05:32:30 GMT 46.879826 9.860582 33,925 290 428 0
2022-08-05 05:32:27 GMT 46.876755 9.873047 33,925 290 428 0
2022-08-05 05:32:23 GMT 46.875229 9.879593 33,925 290 428 0
2022-08-05 05:32:20 GMT 46.873169 9.888188 33,925 290 428 0
2022-08-05 05:32:17 GMT 46.871075 9.896428 33,925 290 428 0
2022-08-05 05:32:14 GMT 46.868839 9.905724 33,925 290 428 0
2022-08-05 05:32:11 GMT 46.867489 9.911217 33,925 290 428 0
2022-08-05 05:32:08 GMT 46.864929 9.921994 33,925 290 428 0
2022-08-05 05:32:05 GMT 46.863373 9.928559 33,925 290 428 0
2022-08-05 05:32:02 GMT 46.860443 9.940550 33,925 290 428 0
2022-08-05 05:31:59 GMT 46.859062 9.946060 33,925 290 429 0
2022-08-05 05:31:56 GMT 46.857342 9.952583 33,925 290 429 0
2022-08-05 05:31:52 GMT 46.854080 9.966140 33,925 290 429 -64
2022-08-05 05:31:49 GMT 46.852203 9.973643 33,950 290 429 -64
2022-08-05 05:31:46 GMT 46.850510 9.980878 33,950 290 429 0
2022-08-05 05:31:43 GMT 46.848267 9.990123 33,950 290 429 0
2022-08-05 05:31:40 GMT 46.846390 9.997693 33,925 290 429 64
2022-08-05 05:31:37 GMT 46.844467 10.004727 33,925 290 429 64
2022-08-05 05:31:34 GMT 46.842770 10.011772 33,925 290 429 0
2022-08-05 05:31:31 GMT 46.840721 10.020012 33,925 290 430 0
2022-08-05 05:31:28 GMT 46.838303 10.029831 33,925 290 429 0
2022-08-05 05:31:25 GMT 46.835369 10.041847 33,925 290 429 0
2022-08-05 05:31:22 GMT 46.834167 10.046662 33,925 290 429 0
2022-08-05 05:31:19 GMT 46.832481 10.053864 33,925 290 430 0
2022-08-05 05:31:16 GMT 46.829876 10.063614 33,925 290 430 0
2022-08-05 05:31:13 GMT 46.827164 10.074932 33,925 290 430 0
2022-08-05 05:31:10 GMT 46.824242 10.086960 33,925 290 430 0
2022-08-05 05:31:07 GMT 46.824242 10.086960 33,925 290 430 0
2022-08-05 05:31:03 GMT 46.821671 10.096770 33,925 290 430 0
2022-08-05 05:31:00 GMT 46.818890 10.108246 33,925 290 430 0
2022-08-05 05:30:57 GMT 46.817688 10.112580 33,925 290 430 0
2022-08-05 05:30:54 GMT 46.815491 10.121841 33,925 290 430 0
2022-08-05 05:30:51 GMT 46.813065 10.131605 33,925 290 430 0
2022-08-05 05:30:48 GMT 46.811005 10.139845 33,925 290 430 0
2022-08-05 05:30:44 GMT 46.808762 10.149090 33,925 290 430 0
2022-08-05 05:30:41 GMT 46.806702 10.157329 33,925 290 430 0
2022-08-05 05:30:38 GMT 46.804504 10.166130 33,925 290 430 0
2022-08-05 05:30:35 GMT 46.802261 10.174680 33,925 290 430 0
2022-08-05 05:30:32 GMT 46.800018 10.183991 33,925 290 430 0
2022-08-05 05:30:29 GMT 46.798126 10.191673 33,925 291 431 0
2022-08-05 05:30:25 GMT 46.793144 10.211243 33,925 291 431 0
2022-08-05 05:30:22 GMT 46.793144 10.211243 33,925 291 431 0
2022-08-05 05:30:19 GMT 46.791424 10.218452 33,950 291 431 0
2022-08-05 05:30:16 GMT 46.789719 10.224989 33,925 290 431 0
2022-08-05 05:30:13 GMT 46.786972 10.236310 33,925 290 431 0
2022-08-05 05:30:10 GMT 46.785278 10.242808 33,925 291 431 0
2022-08-05 05:30:06 GMT 46.782852 10.252790 33,925 290 431 0
2022-08-05 05:30:03 GMT 46.780472 10.262034 33,925 290 431 0
2022-08-05 05:30:00 GMT 46.778549 10.270140 33,950 290 431 0
2022-08-05 05:29:56 GMT 46.772198 10.295906 33,925 290 431 0
2022-08-05 05:29:51 GMT 46.772198 10.295906 33,925 290 431 64
2022-08-05 05:29:48 GMT 46.770336 10.303459 33,925 290 431 64
2022-08-05 05:29:45 GMT 46.768433 10.311138 33,925 290 431 0
2022-08-05 05:29:41 GMT 46.765678 10.321999 33,925 290 431 -64
2022-08-05 05:29:38 GMT 46.763634 10.330238 33,925 293 432 0
2022-08-05 05:29:34 GMT 46.760883 10.341019 33,925 292 431 0
2022-08-05 05:29:31 GMT 46.757950 10.351868 33,925 293 432 0
2022-08-05 05:29:28 GMT 46.756439 10.357160 33,925 294 433 0
2022-08-05 05:29:24 GMT 46.753326 10.367275 33,925 298 434 0
2022-08-05 05:29:20 GMT 46.748688 10.381531 33,925 297 434 0
2022-08-05 05:29:17 GMT 46.746964 10.386367 33,925 297 434 0
2022-08-05 05:29:14 GMT 46.744591 10.393066 33,925 308 438 0
2022-08-05 05:29:11 GMT 46.738403 10.409345 33,925 300 435 0
2022-08-05 05:29:08 GMT 46.738403 10.409345 33,925 301 436 0
2022-08-05 05:29:05 GMT 46.735653 10.415863 33,925 302 436 0
2022-08-05 05:29:02 GMT 46.731720 10.425489 33,925 303 436 0
2022-08-05 05:28:59 GMT 46.727924 10.433922 33,925 305 438 0
2022-08-05 05:28:56 GMT 46.724487 10.441098 33,925 305 438 0
2022-08-05 05:28:52 GMT 46.720898 10.448822 33,925 307 439 0
2022-08-05 05:28:49 GMT 46.717438 10.455501 33,925 308 439 0
2022-08-05 05:28:46 GMT 46.710068 10.469636 33,925 308 439 0
2022-08-05 05:28:43 GMT 46.710068 10.469636 33,925 308 439 0
2022-08-05 05:28:40 GMT 46.706280 10.476631 33,925 308 439 0
2022-08-05 05:28:37 GMT 46.702881 10.483154 33,925 308 439 0
2022-08-05 05:28:34 GMT 46.698578 10.491072 33,925 308 439 0
2022-08-05 05:28:30 GMT 46.694458 10.498977 33,925 308 439 0
2022-08-05 05:28:27 GMT 46.689468 10.508423 33,925 308 439 0
2022-08-05 05:28:23 GMT 46.684479 10.517667 33,925 308 439 0
2022-08-05 05:28:20 GMT 46.681931 10.522293 33,925 308 439 0
2022-08-05 05:28:16 GMT 46.676437 10.532593 33,925 308 439 0
2022-08-05 05:28:13 GMT 46.672668 10.539640 33,950 308 439 0
2022-08-05 05:28:09 GMT 46.667496 10.549421 33,950 308 439 0
2022-08-05 05:28:06 GMT 46.663406 10.557312 33,925 308 439 0
2022-08-05 05:28:03 GMT 46.661133 10.561412 33,925 308 438 0
2022-08-05 05:27:59 GMT 46.655815 10.571251 33,925 308 438 0
2022-08-05 05:27:56 GMT 46.651718 10.579285 33,925 308 438 0
2022-08-05 05:27:53 GMT 46.647949 10.586131 33,925 308 438 0
2022-08-05 05:27:50 GMT 46.644516 10.592696 33,950 308 438 0
2022-08-05 05:27:47 GMT 46.640396 10.600735 33,950 308 438 0
2022-08-05 05:27:44 GMT 46.636078 10.608673 33,950 308 438 0
2022-08-05 05:27:41 GMT 46.633190 10.614166 33,950 308 437 0
2022-08-05 05:27:37 GMT 46.628723 10.622543 33,950 308 438 0
2022-08-05 05:27:33 GMT 46.623230 10.632843 33,925 308 438 0
2022-08-05 05:27:30 GMT 46.619614 10.639924 33,925 308 438 0
2022-08-05 05:27:27 GMT 46.615131 10.648293 33,925 308 438 0
2022-08-05 05:27:23 GMT 46.610661 10.656738 33,950 308 438 0
2022-08-05 05:27:19 GMT 46.605377 10.666988 33,950 308 438 0
2022-08-05 05:27:16 GMT 46.596928 10.682831 33,925 308 438 0
2022-08-05 05:27:13 GMT 46.596928 10.682831 33,925 308 438 0
2022-08-05 05:27:09 GMT 46.594025 10.688290 33,925 308 438 64
2022-08-05 05:27:06 GMT 46.589573 10.696701 33,925 308 439 64
2022-08-05 05:27:02 GMT 46.584091 10.706981 33,925 308 439 0
2022-08-05 05:26:59 GMT 46.581333 10.712013 33,925 308 439 0
2022-08-05 05:26:56 GMT 46.577362 10.719575 33,925 308 438 -64
2022-08-05 05:26:53 GMT 46.574615 10.724532 33,925 308 438 -64
2022-08-05 05:26:50 GMT 46.568810 10.735359 33,925 308 438 0
2022-08-05 05:26:47 GMT 46.566902 10.738930 33,925 308 438 0
2022-08-05 05:26:44 GMT 46.563309 10.745433 33,925 308 438 0
2022-08-05 05:26:41 GMT 46.554703 10.761577 33,925 308 438 64
2022-08-05 05:26:37 GMT 46.554703 10.761577 33,925 308 438 0
2022-08-05 05:26:34 GMT 46.549393 10.771358 33,925 308 438 0
2022-08-05 05:26:31 GMT 46.542892 10.783416 33,925 308 438 0
2022-08-05 05:26:28 GMT 46.542892 10.783416 33,925 309 438 64
2022-08-05 05:26:25 GMT 46.539780 10.789378 33,925 308 438 -64
2022-08-05 05:26:23 GMT 46.536179 10.795921 33,925 308 438 -64
2022-08-05 05:26:19 GMT 46.530170 10.807114 33,925 308 438 0
2022-08-05 05:26:15 GMT 46.526733 10.813628 33,925 309 438 0
2022-08-05 05:26:12 GMT 46.521606 10.823250 33,925 309 438 64
2022-08-05 05:26:08 GMT 46.513000 10.839018 33,925 309 438 0
2022-08-05 05:26:05 GMT 46.513000 10.839018 33,925 309 438 0
2022-08-05 05:26:02 GMT 46.510620 10.843643 33,925 309 438 0
2022-08-05 05:25:59 GMT 46.506336 10.851402 33,925 309 438 0
2022-08-05 05:25:56 GMT 46.498051 10.866646 33,925 309 438 0
2022-08-05 05:25:53 GMT 46.498051 10.866646 33,925 309 438 0
2022-08-05 05:25:49 GMT 46.493954 10.874062 33,925 309 439 0
2022-08-05 05:25:46 GMT 46.489655 10.881958 33,925 309 438 0
2022-08-05 05:25:44 GMT 46.487778 10.885508 33,925 309 438 0
2022-08-05 05:25:40 GMT 46.481415 10.897031 33,925 309 439 0
2022-08-05 05:25:35 GMT 46.476078 10.906815 33,925 309 439 0
2022-08-05 05:25:32 GMT 46.471657 10.915054 33,925 309 439 0
2022-08-05 05:25:28 GMT 46.466812 10.923827 33,925 309 439 0
2022-08-05 05:25:24 GMT 46.462189 10.932066 33,925 309 439 0
2022-08-05 05:25:21 GMT 46.457748 10.940306 33,925 309 439 0
2022-08-05 05:25:18 GMT 46.455688 10.943893 33,925 309 439 0
2022-08-05 05:25:15 GMT 46.450882 10.952632 33,925 309 439 0
2022-08-05 05:25:12 GMT 46.446075 10.961408 33,925 309 439 0
2022-08-05 05:25:09 GMT 46.443306 10.966553 33,925 309 439 0
2022-08-05 05:25:05 GMT 46.439209 10.973935 33,925 309 439 0
2022-08-05 05:25:03 GMT 46.436279 10.979428 33,925 309 439 0
2022-08-05 05:25:00 GMT 46.431290 10.988539 33,925 309 439 0
2022-08-05 05:24:56 GMT 46.427711 10.995049 33,925 309 439 0
2022-08-05 05:24:53 GMT 46.423382 11.002945 33,925 309 439 0
2022-08-05 05:24:49 GMT 46.419113 11.010712 33,925 309 439 0
2022-08-05 05:24:46 GMT 46.413792 11.020454 33,925 309 439 0
2022-08-05 05:24:43 GMT 46.410004 11.027326 33,925 309 439 0
2022-08-05 05:24:40 GMT 46.406250 11.034226 33,925 309 439 0
2022-08-05 05:24:37 GMT 46.402992 11.040230 33,925 309 439 0
2022-08-05 05:24:34 GMT 46.399521 11.046552 33,925 309 439 0
2022-08-05 05:24:31 GMT 46.394241 11.056366 33,925 309 439 0
2022-08-05 05:24:27 GMT 46.390610 11.062683 33,925 309 439 0
2022-08-05 05:24:24 GMT 46.387711 11.068190 33,925 309 439 0
2022-08-05 05:24:22 GMT 46.384277 11.074219 33,925 309 439 0
2022-08-05 05:24:19 GMT 46.381020 11.080193 33,925 309 439 0
2022-08-05 05:24:16 GMT 46.375340 11.090836 33,925 309 439 0
2022-08-05 05:24:13 GMT 46.372742 11.095321 33,925 309 439 0
2022-08-05 05:24:10 GMT 46.365192 11.109238 33,925 309 439 0
2022-08-05 05:24:07 GMT 46.365192 11.109238 33,925 309 439 0
2022-08-05 05:24:03 GMT 46.359879 11.118834 33,925 309 439 0
2022-08-05 05:23:57 GMT 46.348389 11.140137 33,925 308 438 0
2022-08-05 05:23:54 GMT 46.348389 11.140137 33,925 309 439 0
2022-08-05 05:23:50 GMT 46.344452 11.147506 33,925 308 438 0
2022-08-05 05:23:47 GMT 46.341156 11.153535 33,925 308 438 0
2022-08-05 05:23:44 GMT 46.337212 11.160873 33,925 308 438 0
2022-08-05 05:23:41 GMT 46.333115 11.168289 33,925 308 438 0
2022-08-05 05:23:38 GMT 46.328972 11.176186 33,925 309 439 0
2022-08-05 05:23:34 GMT 46.324173 11.184886 33,925 309 439 0
2022-08-05 05:23:30 GMT 46.315102 11.201591 33,925 309 439 0
2022-08-05 05:23:27 GMT 46.315102 11.201591 33,925 309 438 0
2022-08-05 05:23:24 GMT 46.312180 11.207060 33,925 309 438 0
2022-08-05 05:23:20 GMT 46.302017 11.225415 33,925 309 439 -64
2022-08-05 05:23:17 GMT 46.302017 11.225415 33,950 309 439 0
2022-08-05 05:23:13 GMT 46.292431 11.242790 33,925 309 439 0
2022-08-05 05:23:09 GMT 46.292431 11.242790 33,925 309 439 0
2022-08-05 05:23:06 GMT 46.288986 11.249313 33,925 309 439 0
2022-08-05 05:23:03 GMT 46.285213 11.256180 33,925 309 439 0
2022-08-05 05:23:00 GMT 46.277489 11.269913 33,925 309 439 0
2022-08-05 05:22:57 GMT 46.277489 11.269913 33,950 309 439 0
2022-08-05 05:22:54 GMT 46.273041 11.278136 33,925 309 439 -64
2022-08-05 05:22:49 GMT 46.268036 11.287422 33,925 309 439 0
2022-08-05 05:22:46 GMT 46.263241 11.296143 33,950 309 439 0
2022-08-05 05:22:43 GMT 46.260132 11.301649 33,950 309 439 0
2022-08-05 05:22:41 GMT 46.258072 11.305267 33,925 309 439 0
2022-08-05 05:22:38 GMT 46.253815 11.312970 33,925 309 439 0
2022-08-05 05:22:35 GMT 46.250023 11.319832 33,925 309 439 0
2022-08-05 05:22:32 GMT 46.246078 11.327239 33,925 309 439 0
2022-08-05 05:22:29 GMT 46.240944 11.336311 33,925 309 439 0
2022-08-05 05:22:26 GMT 46.237125 11.343178 33,925 309 439 0
2022-08-05 05:22:23 GMT 46.234566 11.347847 33,925 309 439 0
2022-08-05 05:22:19 GMT 46.230103 11.356045 33,925 309 439 0
2022-08-05 05:22:16 GMT 46.225800 11.363816 33,925 309 439 0
2022-08-05 05:22:13 GMT 46.221718 11.371193 33,925 309 439 0
2022-08-05 05:22:09 GMT 46.216362 11.380806 33,925 309 439 0
2022-08-05 05:22:06 GMT 46.213291 11.386299 33,925 309 439 0
2022-08-05 05:22:03 GMT 46.209518 11.393166 33,925 309 439 0
2022-08-05 05:22:01 GMT 46.207123 11.397780 33,925 309 439 0
2022-08-05 05:21:57 GMT 46.201420 11.407928 33,925 309 439 0
2022-08-05 05:21:54 GMT 46.198196 11.413723 33,925 309 440 0
2022-08-05 05:21:51 GMT 46.192841 11.423370 33,925 309 439 0
2022-08-05 05:21:48 GMT 46.190109 11.428528 33,925 309 439 0
2022-08-05 05:21:45 GMT 46.186150 11.435188 33,925 309 440 0
2022-08-05 05:21:42 GMT 46.182381 11.442055 33,925 309 439 0
2022-08-05 05:21:39 GMT 46.176041 11.453582 33,925 309 439 0
2022-08-05 05:21:36 GMT 46.174850 11.455793 33,925 309 439 0
2022-08-05 05:21:33 GMT 46.169670 11.465057 33,925 309 439 0
2022-08-05 05:21:30 GMT 46.167297 11.469526 33,925 309 439 0
2022-08-05 05:21:27 GMT 46.163498 11.476426 33,925 309 439 0
2022-08-05 05:21:24 GMT 46.160431 11.481919 33,950 309 439 0
2022-08-05 05:21:21 GMT 46.155441 11.491163 33,925 309 439 0
2022-08-05 05:21:17 GMT 46.145977 11.508179 33,925 309 439 0
2022-08-05 05:21:14 GMT 46.145977 11.508179 33,925 309 439 0
2022-08-05 05:21:11 GMT 46.143768 11.512265 33,925 309 439 0
2022-08-05 05:21:08 GMT 46.139320 11.520538 33,925 309 439 0
2022-08-05 05:21:04 GMT 46.133640 11.530495 33,925 309 439 0
2022-08-05 05:21:01 GMT 46.130707 11.535988 33,925 309 439 0
2022-08-05 05:20:58 GMT 46.126923 11.542812 33,925 309 439 0
2022-08-05 05:20:55 GMT 46.122299 11.551052 33,925 309 439 0
2022-08-05 05:20:52 GMT 46.119049 11.557081 33,925 309 439 0
2022-08-05 05:20:48 GMT 46.114227 11.565857 33,925 309 439 0
2022-08-05 05:20:44 GMT 46.109436 11.574432 33,925 309 439 64
2022-08-05 05:20:41 GMT 46.105476 11.581787 33,925 309 439 0
2022-08-05 05:20:37 GMT 46.095512 11.599640 33,925 309 439 0
2022-08-05 05:20:34 GMT 46.095512 11.599640 33,925 309 440 0
2022-08-05 05:20:30 GMT 46.091743 11.606369 33,925 309 439 0
2022-08-05 05:20:26 GMT 46.086411 11.615965 33,925 309 439 0
2022-08-05 05:20:23 GMT 46.082977 11.621994 33,925 309 439 0
2022-08-05 05:20:20 GMT 46.074940 11.636375 33,925 309 439 -64
2022-08-05 05:20:17 GMT 46.074940 11.636375 33,925 309 439 0
2022-08-05 05:20:15 GMT 46.070980 11.643242 33,925 309 439 0
2022-08-05 05:20:12 GMT 46.068741 11.647384 33,925 309 439 0
2022-08-05 05:20:09 GMT 46.065491 11.653212 33,925 309 438 0
2022-08-05 05:20:06 GMT 46.061188 11.660915 33,925 309 439 0
2022-08-05 05:20:03 GMT 46.057571 11.667279 33,925 309 439 0
2022-08-05 05:20:00 GMT 46.049847 11.681007 33,925 309 439 0
2022-08-05 05:19:57 GMT 46.049847 11.681007 33,925 309 439 0
2022-08-05 05:19:54 GMT 46.045937 11.688217 33,925 309 439 0
2022-08-05 05:19:51 GMT 46.041779 11.695415 33,925 309 439 0
2022-08-05 05:19:48 GMT 46.039215 11.700105 33,950 309 439 0
2022-08-05 05:19:45 GMT 46.034409 11.708679 33,925 309 439 0
2022-08-05 05:19:42 GMT 46.029282 11.717723 33,925 309 438 0
2022-08-05 05:19:39 GMT 46.026848 11.722412 33,925 309 439 0
2022-08-05 05:19:36 GMT 46.021870 11.730995 33,925 309 439 0
2022-08-05 05:19:33 GMT 46.019119 11.735944 33,925 310 439 0
2022-08-05 05:19:29 GMT 46.012436 11.747801 33,925 310 439 0
2022-08-05 05:19:26 GMT 46.010742 11.750883 33,925 310 439 0
2022-08-05 05:19:24 GMT 46.007298 11.756744 33,950 310 439 0
2022-08-05 05:19:21 GMT 46.003014 11.764435 33,950 310 439 0
2022-08-05 05:19:17 GMT 45.998520 11.771985 33,950 310 439 0
2022-08-05 05:19:14 GMT 45.989777 11.787459 33,925 310 439 0
2022-08-05 05:19:10 GMT 45.989777 11.787459 33,925 310 439 0
2022-08-05 05:19:07 GMT 45.985512 11.794991 33,925 310 439 0
2022-08-05 05:19:04 GMT 45.980530 11.803604 33,925 310 439 0
2022-08-05 05:19:01 GMT 45.975689 11.812157 33,925 309 439 0
2022-08-05 05:18:58 GMT 45.973114 11.816801 33,925 309 439 0
2022-08-05 05:18:55 GMT 45.969864 11.822629 33,950 309 439 0
2022-08-05 05:18:51 GMT 45.963676 11.833443 33,950 309 439 0
2022-08-05 05:18:48 GMT 45.961632 11.837219 33,925 309 439 0
2022-08-05 05:18:45 GMT 45.957321 11.844936 33,925 309 439 0
2022-08-05 05:18:42 GMT 45.953903 11.851295 33,925 309 439 0
2022-08-05 05:18:39 GMT 45.948257 11.861282 33,925 309 439 0
2022-08-05 05:18:35 GMT 45.944138 11.868450 33,925 309 439 0
2022-08-05 05:18:32 GMT 45.940868 11.874504 33,925 309 439 0
2022-08-05 05:18:28 GMT 45.936401 11.882518 33,925 309 439 0
2022-08-05 05:18:25 GMT 45.931232 11.891670 33,925 309 439 0
2022-08-05 05:18:22 GMT 45.928158 11.897163 33,925 309 439 0
2022-08-05 05:18:19 GMT 45.925232 11.902615 33,925 309 439 0
2022-08-05 05:18:16 GMT 45.920609 11.910720 33,925 309 439 0
2022-08-05 05:18:12 GMT 45.914612 11.921677 33,925 309 439 0
2022-08-05 05:18:09 GMT 45.911491 11.927032 33,950 309 439 0
2022-08-05 05:18:04 GMT 45.906185 11.936646 33,950 309 439 0
2022-08-05 05:18:02 GMT 45.898819 11.949842 33,950 309 439 0
2022-08-05 05:17:58 GMT 45.898819 11.949842 33,950 309 439 0
2022-08-05 05:17:55 GMT 45.894012 11.958417 33,925 309 439 0
2022-08-05 05:17:53 GMT 45.891403 11.963039 33,925 309 439 0
2022-08-05 05:17:50 GMT 45.882816 11.978531 33,925 309 439 0
2022-08-05 05:17:47 GMT 45.882816 11.978531 33,925 309 439 0
2022-08-05 05:17:44 GMT 45.878532 11.986221 33,950 309 439 -64
2022-08-05 05:17:41 GMT 45.876301 11.990341 33,950 309 439 0
2022-08-05 05:17:38 GMT 45.871830 11.998581 33,950 309 439 0
2022-08-05 05:17:35 GMT 45.868240 12.004975 33,950 309 439 0
2022-08-05 05:17:31 GMT 45.864624 12.011272 33,950 309 439 0
2022-08-05 05:17:28 GMT 45.860191 12.019524 33,950 309 439 0
2022-08-05 05:17:25 GMT 45.856422 12.026253 33,950 309 439 0
2022-08-05 05:17:21 GMT 45.850929 12.036346 33,950 309 439 0
2022-08-05 05:17:17 GMT 45.842834 12.050796 33,950 309 439 0
2022-08-05 05:17:14 GMT 45.842834 12.050796 33,950 309 439 0
2022-08-05 05:17:12 GMT 45.839943 12.055779 33,950 309 439 0
2022-08-05 05:17:09 GMT 45.834961 12.064842 33,925 309 439 0
2022-08-05 05:17:06 GMT 45.831703 12.070885 33,925 309 439 0
2022-08-05 05:17:03 GMT 45.828072 12.077065 33,925 309 439 0
2022-08-05 05:17:00 GMT 45.824478 12.083420 33,925 309 440 0
2022-08-05 05:16:57 GMT 45.819645 12.091965 33,925 309 439 0
2022-08-05 05:16:54 GMT 45.817085 12.096634 33,925 309 439 0
2022-08-05 05:16:51 GMT 45.812988 12.103852 33,925 309 439 0
2022-08-05 05:16:48 GMT 45.809189 12.110484 33,925 309 440 0
2022-08-05 05:16:45 GMT 45.805435 12.117384 33,925 309 439 0
2022-08-05 05:16:43 GMT 45.801453 12.124217 33,925 309 439 0
2022-08-05 05:16:40 GMT 45.798889 12.128705 33,925 309 439 0
2022-08-05 05:16:37 GMT 45.795113 12.135429 33,925 309 439 0
2022-08-05 05:16:34 GMT 45.791340 12.142296 33,925 309 439 0
2022-08-05 05:16:31 GMT 45.787720 12.148601 33,925 309 439 0
2022-08-05 05:16:27 GMT 45.781906 12.159119 33,925 309 439 0
2022-08-05 05:16:24 GMT 45.778633 12.164955 33,925 309 439 0
2022-08-05 05:16:22 GMT 45.775047 12.171272 33,925 309 439 0
2022-08-05 05:16:19 GMT 45.772301 12.176285 33,925 309 440 0
2022-08-05 05:16:16 GMT 45.768532 12.183151 33,925 309 440 0
2022-08-05 05:16:13 GMT 45.764923 12.189465 33,925 309 439 0
2022-08-05 05:16:10 GMT 45.761993 12.194958 33,925 309 439 0
2022-08-05 05:16:07 GMT 45.756474 12.204437 33,925 309 440 0
2022-08-05 05:16:04 GMT 45.748421 12.218857 33,925 309 440 0
2022-08-05 05:16:01 GMT 45.748421 12.218857 33,925 309 439 0
2022-08-05 05:15:57 GMT 45.744324 12.226204 33,925 309 440 0
2022-08-05 05:15:54 GMT 45.735386 12.241997 33,925 309 440 0
2022-08-05 05:15:51 GMT 45.735386 12.241997 33,925 309 440 0
2022-08-05 05:15:48 GMT 45.732788 12.246473 33,925 309 440 0
2022-08-05 05:15:45 GMT 45.729008 12.253326 33,925 309 439 0
2022-08-05 05:15:42 GMT 45.726448 12.257790 33,925 309 439 0
2022-08-05 05:15:40 GMT 45.722351 12.265205 33,925 309 440 64
2022-08-05 05:15:36 GMT 45.718578 12.271866 33,925 309 440 0
2022-08-05 05:15:33 GMT 45.712738 12.282380 33,925 309 440 0
2022-08-05 05:15:30 GMT 45.709129 12.288689 33,925 309 440 0
2022-08-05 05:15:27 GMT 45.706383 12.293701 33,925 309 440 -64
2022-08-05 05:15:24 GMT 45.698822 12.307233 33,925 309 439 -64
2022-08-05 05:15:21 GMT 45.698822 12.307233 33,925 309 439 0
2022-08-05 05:15:18 GMT 45.695026 12.314095 33,925 309 439 0
2022-08-05 05:15:14 GMT 45.690216 12.322708 33,925 309 439 0
2022-08-05 05:15:11 GMT 45.686279 12.329541 33,925 309 440 0
2022-08-05 05:15:09 GMT 45.682343 12.336776 33,925 309 440 0
2022-08-05 05:15:06 GMT 45.680283 12.340393 33,925 309 440 0
2022-08-05 05:15:03 GMT 45.675476 12.348968 33,925 309 440 -64
2022-08-05 05:15:00 GMT 45.670307 12.358040 33,925 309 439 0
2022-08-05 05:14:57 GMT 45.668610 12.361294 33,925 309 439 0
2022-08-05 05:14:54 GMT 45.664490 12.368529 33,925 309 440 0
2022-08-05 05:14:51 GMT 45.661377 12.373821 33,925 309 440 0
2022-08-05 05:14:49 GMT 45.658310 12.379314 33,925 310 440 0
2022-08-05 05:14:45 GMT 45.648331 12.396865 33,925 310 440 0
2022-08-05 05:14:42 GMT 45.648331 12.396865 33,925 310 440 0
2022-08-05 05:14:39 GMT 45.645264 12.402359 33,925 310 440 0
2022-08-05 05:14:35 GMT 45.640095 12.411255 33,925 310 440 0
2022-08-05 05:14:32 GMT 45.636337 12.417967 33,925 310 439 0
2022-08-05 05:14:29 GMT 45.632225 12.425194 33,925 310 440 0
2022-08-05 05:14:26 GMT 45.624496 12.438721 33,925 310 440 0
2022-08-05 05:14:23 GMT 45.620544 12.445433 33,925 310 440 0
2022-08-05 05:14:20 GMT 45.620544 12.445433 33,925 310 440 0
2022-08-05 05:14:17 GMT 45.617432 12.450725 33,925 310 440 0
2022-08-05 05:14:14 GMT 45.611977 12.460213 33,925 310 439 0
2022-08-05 05:14:11 GMT 45.607315 12.468277 33,925 310 440 0
2022-08-05 05:14:08 GMT 45.600990 12.479439 33,925 310 439 0
2022-08-05 05:14:05 GMT 45.600990 12.479439 33,925 310 439 0
2022-08-05 05:14:03 GMT 45.598057 12.484383 33,950 310 439 0
2022-08-05 05:14:00 GMT 45.594452 12.490718 33,950 310 439 0
2022-08-05 05:13:56 GMT 45.590141 12.498322 33,925 310 439 0
2022-08-05 05:13:53 GMT 45.585709 12.505992 33,925 310 439 64
2022-08-05 05:13:49 GMT 45.581589 12.513093 33,925 310 440 64
2022-08-05 05:13:47 GMT 45.577805 12.519951 33,925 310 440 0
2022-08-05 05:13:43 GMT 45.573849 12.526611 33,925 310 440 0
2022-08-05 05:13:40 GMT 45.569569 12.534370 33,925 310 440 0
2022-08-05 05:13:37 GMT 45.564400 12.543297 33,925 310 440 0
2022-08-05 05:13:34 GMT 45.561676 12.548262 33,925 310 441 -64
2022-08-05 05:13:32 GMT 45.558060 12.554626 33,925 310 440 0
2022-08-05 05:13:29 GMT 45.553600 12.562180 33,925 310 440 0
2022-08-05 05:13:26 GMT 45.551041 12.566643 33,925 310 440 0
2022-08-05 05:13:23 GMT 45.546890 12.573853 33,925 310 440 0
2022-08-05 05:13:21 GMT 45.544830 12.577449 33,925 310 440 0
2022-08-05 05:13:18 GMT 45.540703 12.584638 33,925 310 440 0
2022-08-05 05:13:14 GMT 45.535908 12.593213 33,925 310 441 0
2022-08-05 05:13:11 GMT 45.531784 12.600468 33,925 310 441 0
2022-08-05 05:13:08 GMT 45.527161 12.608512 33,925 310 441 0
2022-08-05 05:13:05 GMT 45.518406 12.623760 33,925 310 441 0
2022-08-05 05:13:01 GMT 45.518406 12.623760 33,925 310 441 0
2022-08-05 05:12:57 GMT 45.512558 12.634277 33,925 310 442 0
2022-08-05 05:12:54 GMT 45.508446 12.641445 33,925 310 441 0
2022-08-05 05:12:50 GMT 45.503788 12.649551 33,925 310 441 0
2022-08-05 05:12:47 GMT 45.501938 12.652653 33,925 310 441 0
2022-08-05 05:12:44 GMT 45.498322 12.658997 33,925 310 441 0
2022-08-05 05:12:41 GMT 45.491779 12.670117 33,925 310 441 0
2022-08-05 05:12:38 GMT 45.489033 12.675141 33,925 310 442 0
2022-08-05 05:12:35 GMT 45.485634 12.680969 33,925 310 442 64
2022-08-05 05:12:32 GMT 45.481491 12.688137 33,925 310 442 0
2022-08-05 05:12:29 GMT 45.477394 12.695372 33,925 310 442 0
2022-08-05 05:12:26 GMT 45.472412 12.703923 33,925 310 442 -64
2022-08-05 05:12:23 GMT 45.469116 12.709808 33,925 310 442 0
2022-08-05 05:12:19 GMT 45.465199 12.716474 33,925 309 441 0
2022-08-05 05:12:15 GMT 45.459843 12.725919 33,925 309 442 0
2022-08-05 05:12:12 GMT 45.456257 12.732283 33,925 309 442 0
2022-08-05 05:12:09 GMT 45.452488 12.739116 33,925 309 442 0
2022-08-05 05:12:06 GMT 45.447834 12.747356 33,925 309 442 0
2022-08-05 05:12:04 GMT 45.446136 12.750484 33,925 309 441 0
2022-08-05 05:12:00 GMT 45.441502 12.758677 33,925 309 441 0
2022-08-05 05:11:56 GMT 45.435150 12.770037 33,925 309 442 0
2022-08-05 05:11:54 GMT 45.433075 12.773616 33,925 309 442 0
2022-08-05 05:11:51 GMT 45.429474 12.779977 33,925 309 442 0
2022-08-05 05:11:48 GMT 45.425034 12.788217 33,925 309 442 0
2022-08-05 05:11:45 GMT 45.422424 12.792860 33,925 309 442 0
2022-08-05 05:11:43 GMT 45.419861 12.797307 33,925 309 442 0
2022-08-05 05:11:40 GMT 45.415245 12.805570 33,925 309 442 0
2022-08-05 05:11:37 GMT 45.411476 12.812470 33,925 309 443 0
2022-08-05 05:11:34 GMT 45.407318 12.819672 33,925 309 443 0
2022-08-05 05:11:32 GMT 45.404938 12.824315 33,925 309 443 0
2022-08-05 05:11:28 GMT 45.399792 12.833237 33,925 309 443 -64
2022-08-05 05:11:25 GMT 45.395142 12.841448 33,925 309 443 0
2022-08-05 05:11:22 GMT 45.391891 12.847268 33,925 309 443 0
2022-08-05 05:11:20 GMT 45.389328 12.851911 33,925 309 443 0
2022-08-05 05:11:16 GMT 45.385174 12.859162 33,925 310 442 0
2022-08-05 05:11:12 GMT 45.379166 12.869437 33,950 310 443 0
2022-08-05 05:11:09 GMT 45.375771 12.875240 33,950 310 443 0
2022-08-05 05:11:06 GMT 45.371613 12.882451 33,950 310 443 0
2022-08-05 05:11:03 GMT 45.367676 12.889186 33,950 310 443 0
2022-08-05 05:11:01 GMT 45.365108 12.893662 33,950 310 443 0
2022-08-05 05:10:59 GMT 45.362686 12.897753 33,950 310 443 0
2022-08-05 05:10:55 GMT 45.357197 12.906993 33,925 310 443 0
2022-08-05 05:10:51 GMT 45.352066 12.915933 33,925 310 443 0
2022-08-05 05:10:48 GMT 45.348816 12.921295 33,925 310 443 0
2022-08-05 05:10:45 GMT 45.344860 12.927961 33,950 310 443 0
2022-08-05 05:10:41 GMT 45.339020 12.937775 33,950 310 443 0
2022-08-05 05:10:39 GMT 45.335083 12.944445 33,925 311 442 0
2022-08-05 05:10:36 GMT 45.331970 12.949742 33,925 311 442 0
2022-08-05 05:10:32 GMT 45.326981 12.958178 33,925 310 443 0
2022-08-05 05:10:30 GMT 45.322037 12.966745 33,925 311 442 0
2022-08-05 05:10:28 GMT 45.322037 12.966745 33,925 310 443 0
2022-08-05 05:10:24 GMT 45.316368 12.976059 33,925 310 442 0
2022-08-05 05:10:21 GMT 45.312737 12.982222 33,925 310 443 0
2022-08-05 05:10:19 GMT 45.309807 12.987180 33,925 310 442 0
2022-08-05 05:10:15 GMT 45.305191 12.995257 33,925 310 442 0
2022-08-05 05:10:12 GMT 45.300404 13.003324 33,950 310 442 0
2022-08-05 05:10:09 GMT 45.297283 13.008616 33,950 310 442 0
2022-08-05 05:10:06 GMT 45.292145 13.017556 33,950 310 443 0
2022-08-05 05:10:03 GMT 45.287880 13.024627 33,925 310 443 0
2022-08-05 05:10:00 GMT 45.285271 13.029048 33,925 310 443 0
2022-08-05 05:09:57 GMT 45.281178 13.036283 33,950 310 442 -64
2022-08-05 05:09:54 GMT 45.277218 13.042982 33,950 310 443 -64
2022-08-05 05:09:50 GMT 45.272232 13.051365 33,950 310 442 0
2022-08-05 05:09:48 GMT 45.268280 13.058055 33,950 310 442 0
2022-08-05 05:09:45 GMT 45.263996 13.065156 33,950 310 442 0
2022-08-05 05:09:42 GMT 45.261436 13.069577 33,950 310 443 0
2022-08-05 05:09:39 GMT 45.256943 13.077131 33,950 310 443 0
2022-08-05 05:09:35 GMT 45.247330 13.093610 33,950 310 443 0
2022-08-05 05:09:31 GMT 45.247330 13.093610 33,950 310 443 0
2022-08-05 05:09:28 GMT 45.243896 13.099431 33,950 310 443 0
2022-08-05 05:09:26 GMT 45.239979 13.106154 33,950 310 442 0
2022-08-05 05:09:23 GMT 45.236526 13.111790 33,950 310 442 0
2022-08-05 05:09:20 GMT 45.232590 13.118526 33,950 310 442 0
2022-08-05 05:09:15 GMT 45.226044 13.129643 33,950 310 442 64
2022-08-05 05:09:12 GMT 45.221962 13.136701 33,925 310 442 128
2022-08-05 05:09:09 GMT 45.218491 13.142526 33,925 310 443 0
2022-08-05 05:09:07 GMT 45.214558 13.149228 33,925 310 443 0
2022-08-05 05:09:04 GMT 45.210602 13.155927 33,925 310 443 0
2022-08-05 05:09:01 GMT 45.207157 13.161621 33,925 310 443 0
2022-08-05 05:08:58 GMT 45.203758 13.167449 33,925 310 443 0
2022-08-05 05:08:54 GMT 45.197754 13.177766 33,925 310 443 0
2022-08-05 05:08:51 GMT 45.194641 13.183071 33,925 310 443 0
2022-08-05 05:08:48 GMT 45.191238 13.188752 33,925 310 443 0
2022-08-05 05:08:44 GMT 45.184673 13.199872 33,925 310 443 0
2022-08-05 05:08:41 GMT 45.180725 13.206547 33,925 310 443 0
2022-08-05 05:08:38 GMT 45.178017 13.211060 33,925 310 443 0
2022-08-05 05:08:33 GMT 45.169590 13.225127 33,925 310 443 0
2022-08-05 05:08:30 GMT 45.167030 13.229549 33,925 311 442 64
2022-08-05 05:08:27 GMT 45.163239 13.235779 33,925 311 442 0
2022-08-05 05:08:23 GMT 45.153297 13.252593 33,925 311 443 0
2022-08-05 05:08:20 GMT 45.153297 13.252593 33,925 311 443 0
2022-08-05 05:08:17 GMT 45.150040 13.257885 33,925 311 443 0
2022-08-05 05:08:14 GMT 45.144871 13.266795 33,925 310 443 0
2022-08-05 05:08:11 GMT 45.142822 13.270413 33,950 310 443 0
2022-08-05 05:08:08 GMT 45.137653 13.279389 33,950 308 443 0
2022-08-05 05:08:02 GMT 45.131462 13.290844 33,925 308 442 64
2022-08-05 05:07:59 GMT 45.127167 13.298754 33,925 308 442 64
2022-08-05 05:07:56 GMT 45.123222 13.306118 33,925 308 442 64
2022-08-05 05:07:53 GMT 45.118607 13.314907 33,925 308 442 0
2022-08-05 05:07:50 GMT 45.116009 13.319516 33,925 308 443 0
2022-08-05 05:07:47 GMT 45.112061 13.326939 33,925 308 443 0
2022-08-05 05:07:45 GMT 45.109352 13.331909 33,925 308 443 0
2022-08-05 05:07:41 GMT 45.104183 13.341690 33,925 308 443 0
2022-08-05 05:07:38 GMT 45.101944 13.345773 33,925 308 443 0
2022-08-05 05:07:35 GMT 45.098190 13.352639 33,925 308 443 0
2022-08-05 05:07:33 GMT 45.094757 13.359179 33,925 308 443 0
2022-08-05 05:07:30 GMT 45.091148 13.366074 33,925 308 443 64
2022-08-05 05:07:26 GMT 45.084957 13.377529 33,925 308 443 0
2022-08-05 05:07:22 GMT 45.080154 13.386318 33,925 308 443 0
2022-08-05 05:07:19 GMT 45.076355 13.393184 33,925 308 443 0
2022-08-05 05:07:16 GMT 45.071548 13.402470 33,925 308 443 0
2022-08-05 05:07:14 GMT 45.071548 13.402470 33,925 308 443 0
2022-08-05 05:07:10 GMT 45.066742 13.411168 33,925 308 443 0
2022-08-05 05:07:07 GMT 45.062119 13.419931 33,925 308 443 0
2022-08-05 05:07:04 GMT 45.059402 13.424958 33,925 308 443 0
2022-08-05 05:07:01 GMT 45.055584 13.431992 33,925 308 443 0
2022-08-05 05:06:58 GMT 45.051132 13.440203 33,925 308 443 0
2022-08-05 05:06:55 GMT 45.048553 13.444854 33,925 308 443 0
2022-08-05 05:06:53 GMT 45.045483 13.450816 33,925 308 443 0
2022-08-05 05:06:50 GMT 45.041199 13.458579 33,925 308 445 0
2022-08-05 05:06:47 GMT 45.037903 13.464595 33,925 308 444 0
2022-08-05 05:06:44 GMT 45.032959 13.473881 33,925 308 444 64
2022-08-05 05:06:40 GMT 45.029003 13.481229 33,925 308 444 0
2022-08-05 05:06:37 GMT 45.025406 13.487614 33,925 308 444 0
2022-08-05 05:06:34 GMT 45.021790 13.494611 33,925 308 444 0
2022-08-05 05:06:31 GMT 45.017670 13.502001 33,925 308 444 -64
2022-08-05 05:06:28 GMT 45.014557 13.508017 33,925 308 444 0
2022-08-05 05:06:25 GMT 45.009613 13.517303 33,925 308 444 0
2022-08-05 05:06:21 GMT 45.000839 13.533415 33,925 308 444 0
2022-08-05 05:06:18 GMT 45.000839 13.533415 33,925 308 445 0
2022-08-05 05:06:15 GMT 44.997757 13.538884 33,925 308 445 0
2022-08-05 05:06:13 GMT 44.995018 13.543865 33,925 308 445 0
2022-08-05 05:06:11 GMT 44.992081 13.549543 33,925 308 445 0
2022-08-05 05:06:08 GMT 44.988129 13.556928 33,925 308 445 0
2022-08-05 05:06:05 GMT 44.985569 13.561550 33,925 308 445 0
2022-08-05 05:06:02 GMT 44.981781 13.568442 33,925 308 445 0
2022-08-05 05:05:59 GMT 44.976444 13.578030 33,925 308 446 0
2022-08-05 05:05:56 GMT 44.973557 13.583523 33,925 308 445 0
2022-08-05 05:05:52 GMT 44.968903 13.591964 33,925 308 446 0
2022-08-05 05:05:48 GMT 44.963409 13.601878 33,925 308 446 0
2022-08-05 05:05:45 GMT 44.959824 13.608443 33,925 308 446 0
2022-08-05 05:05:41 GMT 44.955357 13.616683 33,925 308 446 0
2022-08-05 05:05:38 GMT 44.950562 13.625401 33,925 308 446 0
2022-08-05 05:05:34 GMT 44.945572 13.634556 33,925 308 446 0
2022-08-05 05:05:30 GMT 44.940399 13.643777 33,925 308 446 0
2022-08-05 05:05:27 GMT 44.936646 13.650643 33,925 308 447 64
2022-08-05 05:05:24 GMT 44.932709 13.658033 33,925 308 446 0
2022-08-05 05:05:21 GMT 44.930099 13.662676 33,925 308 447 64
2022-08-05 05:05:18 GMT 44.925293 13.671439 33,925 308 447 0
2022-08-05 05:05:14 GMT 44.920486 13.680202 33,925 308 447 0
2022-08-05 05:05:10 GMT 44.916576 13.687558 33,925 308 448 0
2022-08-05 05:05:07 GMT 44.911598 13.696870 33,925 308 448 0
2022-08-05 05:05:04 GMT 44.908997 13.701455 33,925 308 448 0
2022-08-05 05:05:01 GMT 44.905243 13.708518 33,925 308 447 0
2022-08-05 05:04:58 GMT 44.900940 13.716234 33,925 308 448 0
2022-08-05 05:04:55 GMT 44.896637 13.724147 33,925 308 448 0
2022-08-05 05:04:50 GMT 44.890648 13.735322 33,925 308 448 0
2022-08-05 05:04:47 GMT 44.886841 13.742131 33,925 308 447 -64
2022-08-05 05:04:43 GMT 44.881897 13.751417 33,950 308 447 -64
2022-08-05 05:04:40 GMT 44.878124 13.758299 33,950 308 447 0
2022-08-05 05:04:38 GMT 44.874310 13.765333 33,950 308 447 0
2022-08-05 05:04:35 GMT 44.871937 13.769420 33,950 308 448 0
2022-08-05 05:04:32 GMT 44.868675 13.775449 33,950 308 447 0
2022-08-05 05:04:29 GMT 44.863861 13.784245 33,925 308 448 64
2022-08-05 05:04:26 GMT 44.860435 13.790722 33,925 308 447 0
2022-08-05 05:04:23 GMT 44.857178 13.796751 33,925 308 447 0
2022-08-05 05:04:21 GMT 44.853546 13.803048 33,925 308 447 64
2022-08-05 05:04:18 GMT 44.850449 13.808768 33,925 308 448 64
2022-08-05 05:04:15 GMT 44.846512 13.816158 33,925 308 449 64
2022-08-05 05:04:12 GMT 44.843079 13.821978 33,925 308 449 0
2022-08-05 05:04:09 GMT 44.838776 13.829891 33,925 308 449 0
2022-08-05 05:04:06 GMT 44.833996 13.838620 33,925 308 449 -64
2022-08-05 05:04:03 GMT 44.831772 13.842773 33,925 308 449 -64
2022-08-05 05:04:01 GMT 44.829712 13.846501 33,925 308 449 0
2022-08-05 05:03:57 GMT 44.823708 13.857511 33,925 308 449 0
2022-08-05 05:03:54 GMT 44.814926 13.873313 33,925 308 449 0
2022-08-05 05:03:51 GMT 44.814926 13.873313 33,925 308 449 0
2022-08-05 05:03:48 GMT 44.809090 13.883771 33,925 309 449 0
2022-08-05 05:03:45 GMT 44.809090 13.883771 33,925 308 449 0
2022-08-05 05:03:42 GMT 44.803757 13.893585 33,925 308 449 0
2022-08-05 05:03:38 GMT 44.799500 13.901302 33,925 308 449 0
2022-08-05 05:03:36 GMT 44.796890 13.905945 33,925 308 449 0
2022-08-05 05:03:32 GMT 44.792797 13.913314 33,925 308 449 0
2022-08-05 05:03:29 GMT 44.783672 13.929927 33,925 308 448 0
2022-08-05 05:03:26 GMT 44.783672 13.929927 33,925 308 449 0
2022-08-05 05:03:23 GMT 44.780598 13.935420 33,925 308 449 -64
2022-08-05 05:03:20 GMT 44.777527 13.940914 33,925 308 449 64
2022-08-05 05:03:15 GMT 44.771851 13.951067 33,925 309 449 0
2022-08-05 05:03:12 GMT 44.765991 13.961530 33,925 309 449 0
2022-08-05 05:03:09 GMT 44.761189 13.970322 33,925 308 449 -64
2022-08-05 05:03:05 GMT 44.757614 13.976833 33,925 308 449 0
2022-08-05 05:03:02 GMT 44.753815 13.983699 33,925 308 449 -64
2022-08-05 05:02:59 GMT 44.750385 13.989682 33,925 308 449 -64
2022-08-05 05:02:56 GMT 44.746078 13.997432 33,950 308 449 -64
2022-08-05 05:02:54 GMT 44.742474 14.003951 33,950 308 449 64
2022-08-05 05:02:51 GMT 44.736141 14.015473 33,950 308 449 64
2022-08-05 05:02:48 GMT 44.736141 14.015473 33,950 308 449 64
2022-08-05 05:02:45 GMT 44.731159 14.024718 33,925 308 449 64
2022-08-05 05:02:41 GMT 44.727390 14.031551 33,925 308 449 0
2022-08-05 05:02:38 GMT 44.723099 14.039481 33,925 308 449 0
2022-08-05 05:02:34 GMT 44.718109 14.048244 33,925 308 449 0
2022-08-05 05:02:31 GMT 44.708862 14.065247 33,925 308 449 64
2022-08-05 05:02:27 GMT 44.708862 14.065247 33,925 308 449 64
2022-08-05 05:02:24 GMT 44.706116 14.070405 33,925 308 449 0
2022-08-05 05:02:22 GMT 44.702995 14.075898 33,925 308 449 0
2022-08-05 05:02:20 GMT 44.699924 14.081391 33,925 308 449 0
2022-08-05 05:02:17 GMT 44.696156 14.088425 33,925 308 449 -64
2022-08-05 05:02:14 GMT 44.690147 14.099411 33,925 308 449 0
2022-08-05 05:02:12 GMT 44.690147 14.099411 33,925 308 449 0
2022-08-05 05:02:09 GMT 44.686192 14.106244 33,925 309 449 0
2022-08-05 05:02:04 GMT 44.679672 14.118236 33,925 308 449 0
2022-08-05 05:02:00 GMT 44.671417 14.133519 33,925 308 449 0
2022-08-05 05:01:57 GMT 44.671417 14.133519 33,925 308 449 64
2022-08-05 05:01:53 GMT 44.666080 14.143156 33,925 308 449 64
2022-08-05 05:01:50 GMT 44.661484 14.151372 33,925 308 449 64
2022-08-05 05:01:46 GMT 44.657188 14.159300 33,925 308 449 0
2022-08-05 05:01:43 GMT 44.653557 14.165798 33,925 308 449 0
2022-08-05 05:01:40 GMT 44.647064 14.177660 33,925 308 449 0
2022-08-05 05:01:37 GMT 44.647064 14.177660 33,925 308 448 0
2022-08-05 05:01:34 GMT 44.642761 14.185573 33,925 308 449 0
2022-08-05 05:01:31 GMT 44.638458 14.193486 33,925 308 449 0
2022-08-05 05:01:29 GMT 44.636566 14.196547 33,925 308 449 0
2022-08-05 05:01:26 GMT 44.628002 14.212155 33,925 308 449 0
2022-08-05 05:01:23 GMT 44.628002 14.212155 33,925 308 448 0
2022-08-05 05:01:20 GMT 44.624229 14.219189 33,925 308 448 0
2022-08-05 05:01:18 GMT 44.621475 14.224156 33,925 308 449 0
2022-08-05 05:01:15 GMT 44.617172 14.232069 33,925 308 449 0
2022-08-05 05:01:11 GMT 44.612545 14.240291 33,925 308 449 0
2022-08-05 05:01:08 GMT 44.609287 14.246186 33,925 308 449 0
2022-08-05 05:01:05 GMT 44.605682 14.252668 33,925 308 448 0
2022-08-05 05:01:02 GMT 44.601883 14.259535 33,925 308 448 0
2022-08-05 05:00:59 GMT 44.597260 14.267774 33,925 308 448 0
2022-08-05 05:00:53 GMT 44.590576 14.279611 33,925 309 449 0
2022-08-05 05:00:50 GMT 44.586777 14.286477 33,925 309 449 0
2022-08-05 05:00:48 GMT 44.583870 14.291471 33,925 309 449 0
2022-08-05 05:00:45 GMT 44.576000 14.305740 33,925 309 449 0
2022-08-05 05:00:42 GMT 44.576000 14.305740 33,925 309 449 0
2022-08-05 05:00:39 GMT 44.572723 14.311589 33,925 309 449 0
2022-08-05 05:00:36 GMT 44.568089 14.319808 33,925 309 449 0
2022-08-05 05:00:33 GMT 44.560360 14.333541 33,925 309 449 0
2022-08-05 05:00:30 GMT 44.554871 14.342978 33,950 309 448 0
2022-08-05 05:00:26 GMT 44.554871 14.342978 33,950 309 448 0
2022-08-05 05:00:23 GMT 44.551758 14.348472 33,950 309 448 0
2022-08-05 05:00:19 GMT 44.546814 14.357590 33,950 309 448 0
2022-08-05 05:00:16 GMT 44.542328 14.365278 33,925 309 448 0
2022-08-05 05:00:11 GMT 44.536514 14.375741 33,925 309 448 0
2022-08-05 05:00:09 GMT 44.533920 14.380367 33,925 309 448 0
2022-08-05 05:00:06 GMT 44.529961 14.387066 33,925 309 448 0
2022-08-05 05:00:03 GMT 44.525665 14.394967 33,925 309 448 0
2022-08-05 04:59:59 GMT 44.521042 14.403076 33,925 309 448 0
2022-08-05 04:59:57 GMT 44.518478 14.407719 33,925 309 448 0
2022-08-05 04:59:53 GMT 44.511932 14.419033 33,925 309 448 0
2022-08-05 04:59:50 GMT 44.509369 14.423479 33,925 309 449 0
2022-08-05 04:59:48 GMT 44.502682 14.435298 33,925 309 449 0
2022-08-05 04:59:45 GMT 44.502682 14.435298 33,925 309 448 0
2022-08-05 04:59:39 GMT 44.494949 14.448918 33,925 309 448 0
2022-08-05 04:59:36 GMT 44.491371 14.455261 33,925 309 448 0
2022-08-05 04:59:33 GMT 44.487740 14.461558 33,925 309 448 0
2022-08-05 04:59:28 GMT 44.481548 14.472545 33,925 309 448 0
2022-08-05 04:59:25 GMT 44.476425 14.481454 33,925 309 448 0
2022-08-05 04:59:21 GMT 44.472656 14.488354 33,925 309 448 0
2022-08-05 04:59:18 GMT 44.467304 14.497465 33,925 309 448 0
2022-08-05 04:59:15 GMT 44.463730 14.503850 33,925 309 447 0
2022-08-05 04:59:12 GMT 44.460617 14.509147 33,925 309 448 0
2022-08-05 04:59:09 GMT 44.455803 14.517897 33,925 309 448 0
2022-08-05 04:59:04 GMT 44.444492 14.537793 33,925 309 447 0
2022-08-05 04:59:00 GMT 44.444492 14.537793 33,925 309 448 -64
2022-08-05 04:58:57 GMT 44.441757 14.542759 33,950 309 447 0
2022-08-05 04:58:54 GMT 44.436577 14.551928 33,950 309 447 0
2022-08-05 04:58:51 GMT 44.433151 14.557735 33,950 309 447 0
2022-08-05 04:58:47 GMT 44.427338 14.568198 33,925 309 447 0
2022-08-05 04:58:44 GMT 44.424728 14.572645 33,925 309 447 0
2022-08-05 04:58:41 GMT 44.420612 14.580063 33,925 309 447 0
2022-08-05 04:58:38 GMT 44.416328 14.587767 33,925 309 447 0
2022-08-05 04:58:36 GMT 44.413925 14.591871 33,925 309 447 0
2022-08-05 04:58:33 GMT 44.409119 14.600438 33,925 309 447 0
2022-08-05 04:58:27 GMT 44.402435 14.612143 33,925 309 447 0
2022-08-05 04:58:24 GMT 44.398819 14.618487 33,925 309 447 0
2022-08-05 04:58:21 GMT 44.395565 14.624477 33,925 309 447 0
2022-08-05 04:58:18 GMT 44.390396 14.633454 33,925 309 447 0
2022-08-05 04:58:16 GMT 44.386826 14.639805 33,925 309 447 0
2022-08-05 04:58:08 GMT 44.374283 14.662105 33,925 309 447 0
2022-08-05 04:58:06 GMT 44.374283 14.662105 33,925 309 447 0
2022-08-05 04:58:02 GMT 44.369476 14.670672 33,925 309 447 0
2022-08-05 04:57:58 GMT 44.366364 14.676165 33,925 309 447 0
2022-08-05 04:57:55 GMT 44.361397 14.685237 33,925 309 447 0
2022-08-05 04:57:51 GMT 44.355240 14.696110 33,925 309 447 0
2022-08-05 04:57:46 GMT 44.350067 14.705200 33,925 309 447 0
2022-08-05 04:57:44 GMT 44.347504 14.709647 33,925 309 447 0
2022-08-05 04:57:40 GMT 44.341473 14.720608 33,925 309 447 0
2022-08-05 04:57:36 GMT 44.337189 14.728379 33,925 309 447 0
2022-08-05 04:57:33 GMT 44.333744 14.734207 33,925 309 447 0
2022-08-05 04:57:25 GMT 44.324158 14.751369 33,925 309 447 0
2022-08-05 04:57:23 GMT 44.321594 14.755978 33,925 309 447 0
2022-08-05 04:57:19 GMT 44.316242 14.765424 33,925 309 446 0
2022-08-05 04:57:15 GMT 44.310608 14.775369 33,925 309 446 0
2022-08-05 04:57:07 GMT 44.299763 14.794297 33,925 309 446 0
2022-08-05 04:57:05 GMT 44.297562 14.798388 33,925 309 446 0
2022-08-05 04:56:58 GMT 44.288635 14.814193 33,925 309 446 0
2022-08-05 04:56:54 GMT 44.282593 14.824480 33,925 309 446 0
2022-08-05 04:56:49 GMT 44.277100 14.833897 33,925 309 446 0
2022-08-05 04:56:46 GMT 44.274033 14.839260 33,925 309 446 0
2022-08-05 04:56:44 GMT 44.270782 14.845080 33,925 309 446 0
2022-08-05 04:56:39 GMT 44.262707 14.859009 33,925 309 446 0
2022-08-05 04:56:36 GMT 44.257553 14.867902 33,925 309 446 0
2022-08-05 04:56:34 GMT 44.257553 14.867902 33,925 309 446 0
2022-08-05 04:56:31 GMT 44.253937 14.874246 33,925 309 446 0
2022-08-05 04:56:26 GMT 44.247437 14.885428 33,925 309 446 0
2022-08-05 04:56:23 GMT 44.243317 14.892491 33,925 309 446 0
2022-08-05 04:56:15 GMT 44.233192 14.909988 33,925 309 446 0
2022-08-05 04:56:12 GMT 44.229218 14.916687 33,925 309 446 0
2022-08-05 04:56:04 GMT 44.218918 14.934540 33,925 309 446 0
2022-08-05 04:56:01 GMT 44.216171 14.939510 33,925 309 446 0
2022-08-05 04:55:55 GMT 44.206890 14.955608 33,925 309 446 0
2022-08-05 04:55:52 GMT 44.203491 14.961436 33,925 309 446 0
2022-08-05 04:55:48 GMT 44.198837 14.969542 33,925 309 446 64
2022-08-05 04:55:45 GMT 44.194878 14.976241 33,925 309 446 64
2022-08-05 04:55:40 GMT 44.189575 14.985671 33,925 309 446 64
2022-08-05 04:55:34 GMT 44.180969 15.000426 33,925 309 446 0
2022-08-05 04:55:31 GMT 44.176350 15.008501 33,925 310 446 0
2022-08-05 04:55:26 GMT 44.170166 15.019141 33,925 310 446 0
2022-08-05 04:55:23 GMT 44.166389 15.025308 33,925 310 446 0
2022-08-05 04:55:20 GMT 44.162613 15.032043 33,925 310 446 0
2022-08-05 04:55:17 GMT 44.158676 15.038686 33,925 310 446 0
2022-08-05 04:55:14 GMT 44.154705 15.045384 33,925 310 446 0
2022-08-05 04:55:11 GMT 44.149933 15.053824 33,925 310 446 0
2022-08-05 04:55:08 GMT 44.146465 15.059640 33,925 310 446 0
2022-08-05 04:55:04 GMT 44.140457 15.069985 33,925 310 446 0
2022-08-05 04:55:00 GMT 44.136875 15.076120 33,925 309 447 0
2022-08-05 04:54:54 GMT 44.128647 15.090360 33,925 309 446 0
2022-08-05 04:54:50 GMT 44.123154 15.099814 33,925 309 446 0
2022-08-05 04:54:45 GMT 44.116440 15.111302 33,925 309 446 0
2022-08-05 04:54:43 GMT 44.113876 15.115814 33,925 309 446 0
2022-08-05 04:54:40 GMT 44.110107 15.122170 33,925 309 447 0
2022-08-05 04:54:34 GMT 44.102875 15.134689 33,925 309 447 0
2022-08-05 04:54:32 GMT 44.100815 15.138138 33,925 309 447 0
2022-08-05 04:54:28 GMT 44.095676 15.147008 33,925 309 447 0
2022-08-05 04:54:26 GMT 44.092575 15.152382 33,925 309 447 0
2022-08-05 04:54:22 GMT 44.087585 15.160941 33,925 309 447 0
2022-08-05 04:54:19 GMT 44.075054 15.182255 33,925 309 446 0
2022-08-05 04:54:13 GMT 44.075054 15.182255 33,925 309 446 0
2022-08-05 04:54:10 GMT 44.070446 15.190299 33,925 309 446 0
2022-08-05 04:54:06 GMT 44.065464 15.198866 33,925 309 446 0
2022-08-05 04:54:03 GMT 44.062904 15.203182 33,925 309 446 0
2022-08-05 04:54:01 GMT 44.059784 15.208675 33,925 309 446 0
2022-08-05 04:53:57 GMT 44.055496 15.216192 33,925 309 446 0
2022-08-05 04:53:54 GMT 44.050186 15.225135 33,925 309 446 0
2022-08-05 04:53:51 GMT 44.041954 15.239410 33,925 309 446 0
2022-08-05 04:53:47 GMT 44.041954 15.239410 33,925 309 446 0
2022-08-05 04:53:44 GMT 44.036789 15.248304 33,925 309 447 0
2022-08-05 04:53:41 GMT 44.032829 15.255040 33,925 309 447 0
2022-08-05 04:53:37 GMT 44.029060 15.261710 33,925 309 447 0
2022-08-05 04:53:32 GMT 44.022869 15.272369 33,925 309 446 0
2022-08-05 04:53:30 GMT 44.019791 15.277831 33,925 309 446 0
2022-08-05 04:53:26 GMT 44.013977 15.287606 33,925 309 446 0
2022-08-05 04:53:22 GMT 44.009136 15.296042 33,925 310 446 0
2022-08-05 04:53:19 GMT 44.005226 15.302713 33,925 310 446 0
2022-08-05 04:53:16 GMT 44.000748 15.310279 33,925 310 446 0
2022-08-05 04:53:13 GMT 43.998184 15.314750 33,925 310 446 0
2022-08-05 04:53:08 GMT 43.991631 15.325928 33,925 310 447 0
2022-08-05 04:53:03 GMT 43.984955 15.337425 33,925 310 446 0
2022-08-05 04:52:59 GMT 43.979095 15.347198 33,925 310 446 0
2022-08-05 04:52:54 GMT 43.973099 15.357290 33,925 310 447 0
2022-08-05 04:52:51 GMT 43.968475 15.365210 33,925 310 447 0
2022-08-05 04:52:48 GMT 43.964027 15.372750 33,925 310 447 0
2022-08-05 04:52:45 GMT 43.961426 15.377219 33,925 310 446 0
2022-08-05 04:52:43 GMT 43.958019 15.383083 33,925 310 446 0
2022-08-05 04:52:39 GMT 43.953369 15.391143 33,925 310 446 0
2022-08-05 04:52:35 GMT 43.948196 15.399894 33,925 309 447 0
2022-08-05 04:52:33 GMT 43.944763 15.405706 33,925 309 447 0
2022-08-05 04:52:28 GMT 43.935150 15.422186 33,925 309 447 0
2022-08-05 04:52:25 GMT 43.935150 15.422186 33,925 309 447 0
2022-08-05 04:52:23 GMT 43.932083 15.427551 33,925 309 447 0
2022-08-05 04:52:19 GMT 43.927113 15.435922 33,925 309 447 0
2022-08-05 04:52:15 GMT 43.921600 15.445372 33,925 309 447 0
2022-08-05 04:52:12 GMT 43.913517 15.459137 33,925 310 446 0
2022-08-05 04:52:08 GMT 43.913517 15.459137 33,925 309 447 0
2022-08-05 04:52:04 GMT 43.908234 15.468367 33,925 309 447 0
2022-08-05 04:52:02 GMT 43.905624 15.472838 33,925 309 447 0
2022-08-05 04:51:58 GMT 43.900131 15.482291 33,925 310 446 0
2022-08-05 04:51:54 GMT 43.894989 15.491050 33,925 310 446 0
2022-08-05 04:51:51 GMT 43.891033 15.497720 33,925 310 447 0
2022-08-05 04:51:48 GMT 43.886936 15.504783 33,925 310 447 0
2022-08-05 04:51:44 GMT 43.881630 15.513676 33,925 310 446 0
2022-08-05 04:51:40 GMT 43.877151 15.521254 33,925 310 446 0
2022-08-05 04:51:37 GMT 43.873203 15.527802 33,925 310 446 0
2022-08-05 04:51:33 GMT 43.867538 15.537542 33,925 310 447 0
2022-08-05 04:51:30 GMT 43.863602 15.544249 33,925 310 447 0
2022-08-05 04:51:27 GMT 43.860306 15.549934 33,925 310 446 0
2022-08-05 04:51:23 GMT 43.854488 15.559714 33,925 310 446 0
2022-08-05 04:51:21 GMT 43.852066 15.563667 33,925 310 446 0
2022-08-05 04:51:18 GMT 43.846436 15.573439 33,925 310 446 0
2022-08-05 04:51:13 GMT 43.835960 15.591300 33,925 310 446 0
2022-08-05 04:51:09 GMT 43.835960 15.591300 33,925 310 446 0
2022-08-05 04:51:05 GMT 43.831146 15.599564 33,925 310 446 0
2022-08-05 04:51:01 GMT 43.825813 15.608433 33,925 310 446 0
2022-08-05 04:50:54 GMT 43.816364 15.624259 33,925 310 446 0
2022-08-05 04:50:49 GMT 43.809860 15.635397 33,925 310 446 0
2022-08-05 04:50:46 GMT 43.804871 15.643637 33,925 310 446 0
2022-08-05 04:50:40 GMT 43.798370 15.654623 33,925 310 446 0
2022-08-05 04:50:37 GMT 43.794388 15.661330 33,925 310 446 0
2022-08-05 04:50:32 GMT 43.787201 15.673147 33,925 310 447 0
2022-08-05 04:50:28 GMT 43.782242 15.681414 33,925 310 446 0
2022-08-05 04:50:24 GMT 43.776718 15.690712 33,925 310 446 0
2022-08-05 04:50:19 GMT 43.771069 15.699986 33,925 310 447 0
2022-08-05 04:50:16 GMT 43.759232 15.719711 33,950 310 446 0
2022-08-05 04:50:10 GMT 43.759232 15.719711 33,925 310 446 0
2022-08-05 04:50:05 GMT 43.752182 15.731528 33,925 310 447 64
2022-08-05 04:50:01 GMT 43.745834 15.742166 33,925 309 447 64
2022-08-05 04:49:56 GMT 43.740482 15.751452 33,925 309 447 0
2022-08-05 04:49:52 GMT 43.735519 15.759888 33,925 309 447 0
2022-08-05 04:49:49 GMT 43.731918 15.766231 33,925 309 447 0
2022-08-05 04:49:46 GMT 43.727280 15.774132 33,925 309 447 0
2022-08-05 04:49:43 GMT 43.723866 15.779964 33,925 309 448 0
2022-08-05 04:49:40 GMT 43.715252 15.794743 33,925 309 448 0
2022-08-05 04:49:33 GMT 43.710644 15.802591 33,925 309 448 -64
2022-08-05 04:49:29 GMT 43.705490 15.811562 33,925 310 449 0
2022-08-05 04:49:23 GMT 43.697571 15.824911 33,925 309 448 0
2022-08-05 04:49:18 GMT 43.691574 15.835195 33,925 309 448 64
2022-08-05 04:49:15 GMT 43.687645 15.841762 33,925 310 449 0
2022-08-05 04:49:07 GMT 43.677521 15.859084 33,925 310 449 0
2022-08-05 04:49:05 GMT 43.674053 15.864912 33,925 310 448 0
2022-08-05 04:49:00 GMT 43.667725 15.875564 33,925 310 449 0
2022-08-05 04:48:57 GMT 43.663578 15.882634 33,925 310 449 0
2022-08-05 04:48:51 GMT 43.654827 15.897217 33,925 310 449 0
2022-08-05 04:48:47 GMT 43.650742 15.904435 33,925 310 449 0
2022-08-05 04:48:43 GMT 43.644699 15.914527 33,925 310 449 0
2022-08-05 04:48:35 GMT 43.634251 15.932203 33,925 310 449 0
2022-08-05 04:48:32 GMT 43.630806 15.938023 33,925 310 449 0
2022-08-05 04:48:26 GMT 43.622936 15.951298 33,925 310 449 0
2022-08-05 04:48:22 GMT 43.617447 15.960519 33,925 310 449 0
2022-08-05 04:48:16 GMT 43.610043 15.973075 33,950 310 449 0
2022-08-05 04:48:11 GMT 43.603340 15.984061 33,950 310 449 0
2022-08-05 04:48:06 GMT 43.596817 15.995072 33,925 310 449 0
2022-08-05 04:48:02 GMT 43.590630 16.005707 33,925 310 449 64
2022-08-05 04:47:55 GMT 43.582253 16.019962 33,925 310 449 64
2022-08-05 04:47:51 GMT 43.576584 16.029181 33,925 310 449 0
2022-08-05 04:47:45 GMT 43.569351 16.041573 33,925 310 449 0
2022-08-05 04:47:39 GMT 43.562164 16.053579 33,925 310 449 0
2022-08-05 04:47:34 GMT 43.554787 16.066132 33,925 310 449 0
2022-08-05 04:47:30 GMT 43.548595 16.076727 33,925 310 449 0
2022-08-05 04:47:25 GMT 43.542404 16.086863 33,925 310 449 0
2022-08-05 04:47:20 GMT 43.535885 16.098043 33,925 310 449 0
2022-08-05 04:47:17 GMT 43.531929 16.104584 33,925 310 450 0
2022-08-05 04:47:14 GMT 43.528484 16.110403 33,925 310 449 0
2022-08-05 04:47:10 GMT 43.522991 16.119690 33,925 310 449 0
2022-08-05 04:47:04 GMT 43.514099 16.134796 33,925 310 450 0
2022-08-05 04:47:00 GMT 43.510300 16.140961 33,925 310 450 0
2022-08-05 04:46:53 GMT 43.501190 16.156546 33,925 310 451 0
2022-08-05 04:46:50 GMT 43.496384 16.164467 33,925 310 451 0
2022-08-05 04:46:41 GMT 43.486267 16.181265 33,925 310 451 0
2022-08-05 04:46:39 GMT 43.482864 16.186981 33,925 310 451 0
2022-08-05 04:46:33 GMT 43.474091 16.201576 33,925 310 451 0
2022-08-05 04:46:31 GMT 43.470665 16.207188 33,925 310 451 0
2022-08-05 04:46:27 GMT 43.466858 16.213392 33,925 310 451 0
2022-08-05 04:46:22 GMT 43.459820 16.224911 33,925 310 451 -64
2022-08-05 04:46:17 GMT 43.452789 16.236748 33,925 310 450 -64
2022-08-05 04:46:12 GMT 43.445576 16.248779 33,925 310 451 0
2022-08-05 04:46:02 GMT 43.432865 16.269379 33,925 310 451 0
2022-08-05 04:45:58 GMT 43.418793 16.292725 33,925 310 452 0
2022-08-05 04:45:52 GMT 43.418793 16.292725 33,925 310 451 0
2022-08-05 04:45:47 GMT 43.413128 16.301945 33,925 310 451 0
2022-08-05 04:45:41 GMT 43.404373 16.316549 33,925 310 451 0
2022-08-05 04:45:36 GMT 43.398369 16.326206 33,925 310 452 0
2022-08-05 04:45:29 GMT 43.389130 16.341652 33,925 310 452 0
2022-08-05 04:45:27 GMT 43.385834 16.346954 33,925 310 452 0
2022-08-05 04:45:21 GMT 43.377274 16.361006 33,925 310 452 0
2022-08-05 04:45:15 GMT 43.370255 16.372375 33,925 310 452 0
2022-08-05 04:45:10 GMT 43.362854 16.384703 33,925 310 452 0
2022-08-05 04:45:05 GMT 43.356171 16.395689 33,925 310 452 0
2022-08-05 04:45:00 GMT 43.349442 16.406675 33,925 310 452 0
2022-08-05 04:44:55 GMT 43.342758 16.417854 33,925 310 453 0
2022-08-05 04:44:49 GMT 43.334873 16.430576 33,925 310 453 0
2022-08-05 04:44:45 GMT 43.330078 16.438620 33,925 310 453 0
2022-08-05 04:44:36 GMT 43.317509 16.459221 33,925 310 453 0
2022-08-05 04:44:28 GMT 43.307053 16.476362 33,925 310 453 0
2022-08-05 04:44:22 GMT 43.299168 16.489237 33,925 311 453 0
2022-08-05 04:44:17 GMT 43.292999 16.499357 33,925 311 453 0
2022-08-05 04:44:11 GMT 43.283020 16.515516 33,925 311 453 0
2022-08-05 04:44:08 GMT 43.279942 16.520300 33,925 311 453 0
2022-08-05 04:43:56 GMT 43.263977 16.546049 33,925 311 453 0
2022-08-05 04:43:54 GMT 43.260204 16.552277 33,925 311 454 0
2022-08-05 04:43:50 GMT 43.255554 16.559654 33,925 311 453 0
2022-08-05 04:43:47 GMT 43.251778 16.565813 33,925 311 453 0
2022-08-05 04:43:41 GMT 43.243351 16.579350 33,925 311 453 0
2022-08-05 04:43:36 GMT 43.236511 16.590378 33,925 311 453 0
2022-08-05 04:43:32 GMT 43.231201 16.599129 33,925 311 453 0
2022-08-05 04:43:26 GMT 43.222961 16.612158 33,925 311 453 0
2022-08-05 04:43:20 GMT 43.214863 16.625387 33,925 311 454 0
2022-08-05 04:43:17 GMT 43.209740 16.633629 33,925 311 453 0
2022-08-05 04:43:12 GMT 43.203735 16.643265 33,925 311 453 0
2022-08-05 04:43:09 GMT 43.199406 16.650303 33,925 311 453 0
2022-08-05 04:43:06 GMT 43.195820 16.655928 33,925 311 453 0
2022-08-05 04:42:59 GMT 43.186386 16.671242 33,925 310 452 0
2022-08-05 04:42:55 GMT 43.181065 16.679993 33,925 310 453 0
2022-08-05 04:42:51 GMT 43.175385 16.689213 33,925 310 453 0
2022-08-05 04:42:44 GMT 43.166473 16.703690 33,925 310 452 0
2022-08-05 04:42:40 GMT 43.161484 16.712057 33,925 310 452 0
2022-08-05 04:42:36 GMT 43.154110 16.723938 33,925 310 452 0
2022-08-05 04:42:29 GMT 43.145546 16.737997 33,925 310 452 0
2022-08-05 04:42:24 GMT 43.140198 16.746740 33,925 310 452 0
2022-08-05 04:42:17 GMT 43.129391 16.764288 33,925 311 453 0
2022-08-05 04:42:12 GMT 43.122528 16.775101 33,925 311 453 0
2022-08-05 04:42:09 GMT 43.118729 16.781233 33,925 311 452 0
2022-08-05 04:42:05 GMT 43.112587 16.791361 33,925 311 452 0
2022-08-05 04:42:01 GMT 43.107929 16.798750 33,925 311 452 0
2022-08-05 04:41:58 GMT 43.103973 16.805288 33,925 311 452 0
2022-08-05 04:41:54 GMT 43.097969 16.814901 33,925 311 453 0
2022-08-05 04:41:49 GMT 43.092316 16.823965 33,925 311 453 0
2022-08-05 04:41:43 GMT 43.084259 16.837187 33,925 311 453 0
2022-08-05 04:41:37 GMT 43.074970 16.851980 33,925 311 453 0
2022-08-05 04:41:32 GMT 43.069656 16.860756 33,925 311 453 0
2022-08-05 04:41:28 GMT 43.064163 16.869507 33,925 311 453 0
2022-08-05 04:41:22 GMT 43.055744 16.882847 33,925 311 453 0
2022-08-05 04:41:14 GMT 43.044945 16.900373 33,925 311 453 0
2022-08-05 04:41:11 GMT 43.040665 16.907436 33,925 311 452 0
2022-08-05 04:41:07 GMT 43.034985 16.916527 33,925 311 452 0
2022-08-05 04:40:59 GMT 43.025208 16.932156 33,925 311 452 64
2022-08-05 04:40:52 GMT 43.014221 16.950008 33,925 311 452 64
2022-08-05 04:40:49 GMT 43.010925 16.955290 33,925 310 452 0
2022-08-05 04:40:47 GMT 43.007675 16.960655 33,925 310 452 0
2022-08-05 04:40:36 GMT 42.993942 16.982756 33,925 310 452 0
2022-08-05 04:40:26 GMT 42.980576 17.004728 33,925 310 452 0
2022-08-05 04:40:20 GMT 42.970928 17.020372 33,925 311 452 0
2022-08-05 04:40:15 GMT 42.965435 17.029137 33,925 311 452 0
2022-08-05 04:40:10 GMT 42.958591 17.040449 33,925 311 452 0
2022-08-05 04:40:02 GMT 42.948303 17.057104 33,925 311 452 0
2022-08-05 04:39:59 GMT 42.944183 17.063620 33,925 311 452 0
2022-08-05 04:39:55 GMT 42.938480 17.072754 33,925 311 452 0
2022-08-05 04:39:48 GMT 42.928566 17.088840 33,925 311 452 0
2022-08-05 04:39:42 GMT 42.920471 17.101944 33,925 311 451 0
2022-08-05 04:39:25 GMT 42.898178 17.137968 33,925 311 451 0
2022-08-05 04:39:18 GMT 42.887505 17.154758 33,925 311 451 0
2022-08-05 04:38:56 GMT 42.859177 17.200247 33,925 311 451 0
2022-08-05 04:38:41 GMT 42.837418 17.234934 33,925 311 451 0
2022-08-05 04:38:34 GMT 42.828461 17.249174 33,925 311 451 0
2022-08-05 04:38:25 GMT 42.815258 17.270311 33,925 311 451 0
2022-08-05 04:38:16 GMT 42.803246 17.289223 33,925 311 451 0
2022-08-05 04:38:14 GMT 42.801338 17.292290 33,925 311 451 0
2022-08-05 04:38:04 GMT 42.787628 17.314266 33,925 311 451 0
2022-08-05 04:37:54 GMT 42.773895 17.335739 33,925 311 451 0
2022-08-05 04:37:45 GMT 42.761864 17.354630 33,925 311 450 0
2022-08-05 04:37:43 GMT 42.759476 17.358522 33,925 311 450 0
2022-08-05 04:37:35 GMT 42.747429 17.377434 33,925 311 451 0
2022-08-05 04:37:32 GMT 42.744873 17.381744 33,925 311 451 0
2022-08-05 04:36:42 GMT 42.676529 17.490358 33,925 311 451 0
2022-08-05 04:36:32 GMT 42.662979 17.511831 33,925 311 452 0
2022-08-05 04:36:24 GMT 42.651993 17.529186 33,925 311 451 0
2022-08-05 04:36:18 GMT 42.643574 17.542547 33,925 311 451 0
2022-08-05 04:36:14 GMT 42.638779 17.550276 33,925 311 451 0
2022-08-05 04:36:11 GMT 42.635006 17.556280 33,925 311 451 0
2022-08-05 04:36:06 GMT 42.627605 17.567968 33,925 311 452 0
2022-08-05 04:36:02 GMT 42.620949 17.578636 33,925 311 452 0
2022-08-05 04:35:58 GMT 42.616974 17.584618 33,925 311 452 0
2022-08-05 04:35:50 GMT 42.606144 17.601950 33,925 311 452 0
2022-08-05 04:35:47 GMT 42.602051 17.608337 33,925 311 452 0
2022-08-05 04:35:40 GMT 42.592621 17.623444 33,925 311 452 0
2022-08-05 04:35:36 GMT 42.587631 17.631123 33,925 311 451 0
2022-08-05 04:35:30 GMT 42.577141 17.647940 33,925 311 451 0
2022-08-05 04:35:27 GMT 42.574909 17.651388 33,925 311 451 0
2022-08-05 04:35:21 GMT 42.565319 17.666334 33,925 311 452 0
2022-08-05 04:35:17 GMT 42.561356 17.672882 33,925 311 452 0
2022-08-05 04:35:07 GMT 42.547119 17.695168 33,925 311 453 0
2022-08-05 04:34:59 GMT 42.537155 17.711111 33,925 311 453 0
2022-08-05 04:34:56 GMT 42.533058 17.717690 33,925 311 452 0
2022-08-05 04:34:49 GMT 42.523605 17.732763 33,925 311 453 0
2022-08-05 04:34:46 GMT 42.518600 17.740484 33,925 311 453 0
2022-08-05 04:34:39 GMT 42.510040 17.754217 33,925 311 453 0
2022-08-05 04:34:36 GMT 42.505417 17.761583 33,925 311 453 0
2022-08-05 04:34:30 GMT 42.496140 17.776390 33,900 311 453 0
2022-08-05 04:34:26 GMT 42.491501 17.783558 33,900 311 453 0
2022-08-05 04:34:19 GMT 42.482208 17.798351 33,925 311 453 -64
2022-08-05 04:34:15 GMT 42.476543 17.807241 33,925 311 453 0
2022-08-05 04:34:08 GMT 42.467793 17.820974 33,925 311 453 64
2022-08-05 04:34:05 GMT 42.463181 17.828382 33,925 311 453 64
2022-08-05 04:33:58 GMT 42.453918 17.842947 33,925 311 453 0
2022-08-05 04:33:53 GMT 42.447029 17.853806 33,925 311 453 0
2022-08-05 04:33:49 GMT 42.440186 17.864456 33,925 311 453 0
2022-08-05 04:33:45 GMT 42.435516 17.871822 33,925 311 453 0
2022-08-05 04:33:34 GMT 42.420776 17.894981 33,925 311 453 0
2022-08-05 04:33:26 GMT 42.409973 17.912148 33,925 311 453 -64
2022-08-05 04:33:18 GMT 42.398438 17.930187 33,925 311 453 0
2022-08-05 04:33:12 GMT 42.391399 17.941313 33,925 311 453 64
2022-08-05 04:33:08 GMT 42.384556 17.952171 33,900 311 453 0
2022-08-05 04:33:03 GMT 42.379063 17.960730 33,925 311 453 -128
2022-08-05 04:32:58 GMT 42.370312 17.974463 33,950 311 453 -256
2022-08-05 04:32:52 GMT 42.363934 17.984428 33,950 311 453 576
2022-08-05 04:32:47 GMT 42.356918 17.995605 33,900 311 453 1088
2022-08-05 04:32:43 GMT 42.350899 18.004995 33,825 311 453 1088
2022-08-05 04:32:31 GMT 42.335449 18.028877 33,625 311 453 1024
2022-08-05 04:32:26 GMT 42.328400 18.039864 33,525 311 452 1024
2022-08-05 04:32:22 GMT 42.322594 18.048941 33,450 311 452 1088
2022-08-05 04:32:17 GMT 42.314171 18.062162 33,325 311 452 1152
2022-08-05 04:32:11 GMT 42.307800 18.071947 33,250 311 452 1024
2022-08-05 04:32:06 GMT 42.300434 18.083496 33,150 312 452 1024
2022-08-05 04:32:02 GMT 42.294617 18.092422 33,075 312 452 1024
2022-08-05 04:31:56 GMT 42.286697 18.104595 32,975 312 452 1024
2022-08-05 04:31:51 GMT 42.280510 18.114029 32,900 312 452 1088
2022-08-05 04:31:46 GMT 42.272278 18.126755 32,775 312 451 1088
2022-08-05 04:31:41 GMT 42.266129 18.136513 32,700 312 451 1088
2022-08-05 04:31:35 GMT 42.258400 18.148392 32,600 312 451 1216
2022-08-05 04:31:31 GMT 42.252548 18.157091 32,500 312 451 1152
2022-08-05 04:31:26 GMT 42.244156 18.170364 32,375 312 450 1216
2022-08-05 04:31:20 GMT 42.237259 18.180813 32,275 312 450 1344
2022-08-05 04:31:14 GMT 42.228699 18.193998 31,775 311 452 1600
2022-08-05 04:31:09 GMT 42.222656 18.203285 32,025 311 451 1344
2022-08-05 04:31:05 GMT 42.216316 18.213097 31,775 311 452 1600
2022-08-05 04:30:59 GMT 42.208775 18.224913 31,775 311 451 1600
2022-08-05 04:30:55 GMT 42.202423 18.234682 31,550 311 453 1600
2022-08-05 04:30:50 GMT 42.195553 18.245354 31,500 311 453 1664
2022-08-05 04:30:44 GMT 42.188004 18.257341 31,350 311 454 1664
2022-08-05 04:30:39 GMT 42.180611 18.269051 31,175 311 454 1728
2022-08-05 04:30:34 GMT 42.167389 18.289618 30,775 311 457 1664
2022-08-05 04:30:29 GMT 42.167389 18.289618 30,875 311 456 1728
2022-08-05 04:30:23 GMT 42.159668 18.301662 30,725 311 457 1792
2022-08-05 04:30:18 GMT 42.152802 18.312462 30,550 311 458 2048
2022-08-05 04:30:14 GMT 42.146442 18.322449 30,275 311 459 1984
2022-08-05 04:30:07 GMT 42.137550 18.336309 30,175 311 460 1984
2022-08-05 04:30:03 GMT 42.131516 18.345921 30,000 311 461 2176
2022-08-05 04:29:58 GMT 42.125336 18.355534 29,850 311 463 2304
2022-08-05 04:29:48 GMT 42.110737 18.378210 29,450 311 465 2112
2022-08-05 04:29:42 GMT 42.101982 18.391945 29,225 311 467 1984
2022-08-05 04:29:38 GMT 42.095993 18.401226 29,075 311 468 2112
2022-08-05 04:29:31 GMT 42.084641 18.418703 28,800 311 470 1856
2022-08-05 04:29:27 GMT 42.081036 18.424583 28,725 311 470 1792
2022-08-05 04:29:21 GMT 42.072968 18.436932 28,575 311 470 1664
2022-08-05 04:29:17 GMT 42.067154 18.446171 28,450 311 470 1600
2022-08-05 04:29:11 GMT 42.058552 18.459394 28,300 311 469 1344
2022-08-05 04:29:07 GMT 42.052231 18.469015 28,225 311 469 1216
2022-08-05 04:29:01 GMT 42.044304 18.481367 28,100 311 467 1152
2022-08-05 04:28:56 GMT 42.037445 18.491863 28,025 312 466 1216
2022-08-05 04:28:52 GMT 42.029572 18.504036 27,900 311 465 1216
2022-08-05 04:28:46 GMT 42.022842 18.514523 27,800 312 464 1152
2022-08-05 04:28:40 GMT 42.014465 18.527548 27,700 312 462 1216
2022-08-05 04:28:36 GMT 42.008785 18.536171 27,600 312 461 1280
2022-08-05 04:28:30 GMT 42.000546 18.548691 27,475 312 459 1216
2022-08-05 04:28:26 GMT 41.994541 18.557953 27,400 312 458 1152
2022-08-05 04:28:19 GMT 41.985260 18.572014 27,250 312 456 1216
2022-08-05 04:28:15 GMT 41.979412 18.580948 27,175 312 455 1216
2022-08-05 04:28:10 GMT 41.972382 18.591614 27,050 312 454 1344
2022-08-05 04:28:05 GMT 41.965027 18.602913 26,925 312 452 1408
2022-08-05 04:28:00 GMT 41.957977 18.613586 26,800 312 452 1536
2022-08-05 04:27:55 GMT 41.951431 18.623512 26,675 312 451 1536
2022-08-05 04:27:49 GMT 41.943378 18.635687 26,525 312 450 1728
2022-08-05 04:27:44 GMT 41.937012 18.645296 26,375 312 449 1984
2022-08-05 04:27:40 GMT 41.928772 18.658031 26,175 312 450 1984
2022-08-05 04:27:34 GMT 41.923279 18.666458 26,025 312 450 2112
2022-08-05 04:27:29 GMT 41.915726 18.678131 25,825 311 450 1920
2022-08-05 04:27:24 GMT 41.908859 18.688744 25,675 311 451 1856
2022-08-05 04:27:18 GMT 41.901306 18.700790 25,500 311 450 1920
2022-08-05 04:27:14 GMT 41.895336 18.710546 25,350 310 450 1856
2022-08-05 04:27:09 GMT 41.888264 18.721725 25,175 310 450 1920
2022-08-05 04:27:04 GMT 41.881943 18.732002 25,025 310 450 1856
2022-08-05 04:26:58 GMT 41.872295 18.747465 24,800 310 449 1792
2022-08-05 04:26:52 GMT 41.866474 18.756920 24,675 310 449 1856
2022-08-05 04:26:48 GMT 41.861160 18.765459 24,550 310 448 1792
2022-08-05 04:26:41 GMT 41.852234 18.779879 24,350 310 447 1792
2022-08-05 04:26:37 GMT 41.846413 18.789368 24,200 310 447 1792
2022-08-05 04:26:32 GMT 41.839848 18.799971 24,075 310 445 1728
2022-08-05 04:26:27 GMT 41.833694 18.809780 23,925 310 445 1664
2022-08-05 04:26:22 GMT 41.826828 18.820766 23,800 310 443 1600
2022-08-05 04:26:18 GMT 41.820831 18.830379 23,675 310 442 1600
2022-08-05 04:26:11 GMT 41.813095 18.843052 23,500 310 440 1600
2022-08-05 04:26:07 GMT 41.807076 18.852667 23,375 310 440 1536
2022-08-05 04:26:02 GMT 41.800232 18.863525 23,250 310 438 1536
2022-08-05 04:25:56 GMT 41.793343 18.874830 23,100 310 436 1728
2022-08-05 04:25:52 GMT 41.787151 18.884794 22,950 310 435 1984
2022-08-05 04:25:48 GMT 41.777390 18.900417 22,700 310 434 1920
2022-08-05 04:25:41 GMT 41.773788 18.906258 22,600 310 434 1920
2022-08-05 04:25:37 GMT 41.766907 18.917397 22,425 310 433 1920
2022-08-05 04:25:31 GMT 41.761093 18.926823 22,275 310 432 1792
2022-08-05 04:25:24 GMT 41.752331 18.940941 22,075 310 431 1856
2022-08-05 04:25:20 GMT 41.747360 18.949169 21,925 310 429 1984
2022-08-05 04:25:14 GMT 41.739944 18.961029 21,750 310 427 1856
2022-08-05 04:25:10 GMT 41.734638 18.969620 21,600 310 428 1856
2022-08-05 04:25:04 GMT 41.727448 18.981441 21,425 310 427 2048
2022-08-05 04:24:59 GMT 41.721268 18.991741 21,225 310 426 2240
2022-08-05 04:24:54 GMT 41.712662 19.005474 20,975 310 425 2240
2022-08-05 04:24:49 GMT 41.708725 19.011967 20,850 310 425 2176
2022-08-05 04:24:45 GMT 41.696190 19.032217 20,400 310 421 2176
2022-08-05 04:24:39 GMT 41.696190 19.032217 20,475 310 424 2304
2022-08-05 04:24:34 GMT 41.688972 19.043905 20,275 310 424 2176
2022-08-05 04:24:29 GMT 41.683151 19.053167 20,100 310 423 2112
2022-08-05 04:24:25 GMT 41.677460 19.062466 19,925 310 422 2176
2022-08-05 04:24:19 GMT 41.670769 19.073288 19,725 310 420 2176
2022-08-05 04:24:13 GMT 41.663406 19.084749 19,525 310 420 2048
2022-08-05 04:24:09 GMT 41.657921 19.093536 19,375 310 418 1984
2022-08-05 04:24:03 GMT 41.651230 19.104162 19,075 311 417 1792
2022-08-05 04:23:58 GMT 41.644501 19.114838 19,050 311 415 1792
2022-08-05 04:23:54 GMT 41.639008 19.123390 18,925 311 413 1728
2022-08-05 04:23:43 GMT 41.625801 19.144316 18,650 311 407 1536
2022-08-05 04:23:32 GMT 41.612915 19.164400 18,325 311 402 1664
2022-08-05 04:23:23 GMT 41.600922 19.183128 18,050 311 395 1728
2022-08-05 04:23:12 GMT 41.588371 19.202888 17,700 311 392 2112
2022-08-05 04:23:06 GMT 41.581329 19.213839 17,475 311 389 2176
2022-08-05 04:23:02 GMT 41.576523 19.221581 17,325 311 389 2176
2022-08-05 04:22:57 GMT 41.571239 19.229971 17,150 310 387 2368
2022-08-05 04:22:52 GMT 41.565376 19.239105 16,800 310 384 2368
2022-08-05 04:22:41 GMT 41.552155 19.260374 16,475 310 382 2560
2022-08-05 04:22:32 GMT 41.541355 19.277748 16,050 310 381 2624
2022-08-05 04:22:20 GMT 41.529484 19.296974 15,575 310 379 2816
2022-08-05 04:22:11 GMT 41.518684 19.314093 14,825 310 377 3072
2022-08-05 04:22:00 GMT 41.506859 19.333191 14,550 310 377 3136
2022-08-05 04:21:51 GMT 41.495865 19.350670 14,050 310 378 3008
2022-08-05 04:21:40 GMT 41.484886 19.368385 13,600 310 378 2752
2022-08-05 04:21:06 GMT 41.443501 19.435965 12,175 310 363 1408
2022-08-05 04:21:00 GMT 41.440243 19.441137 12,100 310 361 1408
2022-08-05 04:20:54 GMT 41.433197 19.452480 11,925 311 351 2432
2022-08-05 04:20:43 GMT 41.423264 19.468273 11,575 311 351 2368
2022-08-05 04:20:37 GMT 41.417084 19.477886 11,350 311 348 2368
2022-08-05 04:20:23 GMT 41.402817 19.500221 11,050 311 335 896
2022-08-05 04:20:19 GMT 41.397171 19.508972 10,950 311 326 1024
2022-08-05 04:20:08 GMT 41.387360 19.523855 10,775 311 315 1024
2022-08-05 04:19:58 GMT 41.377945 19.538635 10,575 311 302 1152
2022-08-05 04:19:47 GMT 41.368645 19.552731 10,350 311 291 1984
2022-08-05 04:19:38 GMT 41.359756 19.566774 9,900 310 288 2816
2022-08-05 04:19:27 GMT 41.351303 19.580505 9,425 309 286 2688
2022-08-05 04:19:16 GMT 41.342560 19.595154 8,950 309 285 2752
2022-08-05 04:19:06 GMT 41.334320 19.608887 8,500 309 283 2816
2022-08-05 04:18:53 GMT 41.323353 19.626888 7,850 310 281 2816
2022-08-05 04:18:44 GMT 41.316284 19.638184 7,450 311 280 2752
2022-08-05 04:18:36 GMT 41.308731 19.649536 7,050 312 277 2688
2022-08-05 04:18:26 GMT 41.299805 19.662598 6,650 314 273 1472
2022-08-05 04:18:15 GMT 41.290718 19.674580 6,425 317 260 1088
2022-08-05 04:18:04 GMT 41.281128 19.686462 6,150 315 248 1984
2022-08-05 04:17:54 GMT 41.275261 19.698112 5,775 293 248 2368
2022-08-05 04:17:45 GMT 41.273399 19.713032 5,375 266 248 2240
2022-08-05 04:17:34 GMT 41.276657 19.728699 5,000 242 246 2240
2022-08-05 04:17:24 GMT 41.283691 19.739807 4,600 218 244 2304
2022-08-05 04:17:14 GMT 41.293808 19.745850 4,225 185 238 1856
2022-08-05 04:17:04 GMT 41.304977 19.745483 3,975 170 229 1024
2022-08-05 04:16:53 GMT 41.315460 19.742737 3,800 169 214 1216
2022-08-05 04:16:41 GMT 41.327133 19.739685 3,550 168 197 1088
2022-08-05 04:16:31 GMT 41.336060 19.737427 3,350 169 187 1088
2022-08-05 04:16:21 GMT 41.344986 19.734497 3,100 168 176 1920
2022-08-05 04:16:10 GMT 41.353050 19.732445 2,725 169 176 2112
2022-08-05 04:16:01 GMT 41.359909 19.731445 2,400 168 177 1856
2022-08-05 04:15:52 GMT 41.367294 19.729385 2,150 167 172 1728
2022-08-05 04:15:42 GMT 41.375675 19.726952 1,850 168 167 1472

Making use of Plane Finder data

You are free to use the raw flight data, aircraft information and images provided in this report for your own purposes provided the data is correctly attributed to Plane Finder. We ask that you please credit Plane Finder and link to planefinder.net in close proximity to the content.

Optionally one of the following logos (no smaller then 150x24px) can be used and must link to planefinder.net

Embedding the Plane Finder map

You are welcome to embed the Plane Finder playback map on your website to offer visitors a more interactive experience. We suggest using the following HTML code:

<iframe src="//planefinder.net/data/report/2B221-ZA-ALB-7700-squawk-2022-08-05/map" width="800" height="600" seamless="seamless"></iframe>

Where our data comes from

Plane Finder has a global network of data feeds and antenna radars that receive data broadcast directly from aircraft. The primary technologies used are ADS-B and MLAT. We also show feeds from the FAA and a FLARM glider feed.

Click here to find out more about the Plane Finder network.

How we collect our data